Provisional Data: Chiques Creek near Route 283


Please select a monitoring station.
Please select start date.
Please select start date.

Toggle Unit: C/F Toggle Unit: C/F
Sample Time Temperature (C) Temperature (F) Specific Conductivity (mS/cm) pH   Turbidity (NTU+) DO (mg/L)
12/11/2021 12:00:00 AM 5.95 42.71 0.472 8.01 2.79 12.62
12/11/2021 12:15:00 AM 5.99 42.782 0.65 8.03 2.83 12.67
12/11/2021 12:30:00 AM 6.02 42.836 0.344 8.04 2.93 12.71
12/11/2021 12:45:00 AM 6.05 42.89 0.296 8.07 2.91 12.75
12/11/2021 1:00:00 AM 6.08 42.944 0.648 8.08 2.86 12.78
12/11/2021 1:15:00 AM 6.11 42.998 0.343 8.08 2.71 12.82
12/11/2021 1:30:00 AM 6.14 43.052 0.327 8.08 2.65 12.84
12/11/2021 1:45:00 AM 6.17 43.106 0.231 8.11 2.77 12.87
12/11/2021 2:00:00 AM 6.19 43.142 0.287 8.12 2.76 12.88
12/11/2021 2:15:00 AM 6.22 43.196 0.383 8.14 2.66 12.88
12/11/2021 2:30:00 AM 6.25 43.25 0.329 8.14 2.64 12.89
12/11/2021 2:45:00 AM 6.27 43.286 0.293 8.16 3 12.89
12/11/2021 3:00:00 AM 6.29 43.322 0.377 8.17 2.79 12.88
12/11/2021 3:15:00 AM 6.31 43.358 0.469 8.16 2.57 12.86
12/11/2021 3:30:00 AM 6.32 43.376 0.308 8.17 2.71 12.84
12/11/2021 3:45:00 AM 6.34 43.412 0.248 8.16 2.7 12.82
12/11/2021 4:00:00 AM 6.35 43.43 0.386 8.16 2.88 12.78
12/11/2021 4:15:00 AM 6.36 43.448 0.326 8.15 2.8 12.73
12/11/2021 4:30:00 AM 6.37 43.466 0.23 8.15 3.29 12.68
12/11/2021 4:45:00 AM 6.39 43.502 0.394 8.15 2.92 12.64
12/11/2021 5:00:00 AM 6.39 43.502 0.381 8.14 3.57 12.58
12/11/2021 5:15:00 AM 6.4 43.52 0.391 8.13 2.87 12.53
12/11/2021 5:30:00 AM 6.41 43.538 0.31 8.12 2.98 12.48
12/11/2021 5:45:00 AM 6.42 43.556 0.222 8.11 2.92 12.42
12/11/2021 6:00:00 AM 6.43 43.574 0.632 8.1 3.11 12.36
12/11/2021 6:15:00 AM 6.44 43.592 0.305 8.08 2.82 12.3
12/11/2021 6:30:00 AM 6.46 43.628 0.387 8.06 3.05 12.23
12/11/2021 6:45:00 AM 6.47 43.646 0.28 8.06 3.4 12.17
12/11/2021 7:00:00 AM 6.48 43.664 0.273 8.05 3.06 12.12
12/11/2021 7:15:00 AM 6.49 43.682 0.455 8.04 2.85 12.06
12/11/2021 7:30:00 AM 6.51 43.718 0.389 8.05 3.07 12.02
12/11/2021 7:45:00 AM 6.53 43.754 0.372 8.02 2.9 11.96
12/11/2021 8:00:00 AM 6.54 43.772 0.294 8.02 2.85 11.91
12/11/2021 8:15:00 AM 6.57 43.826 0.452 8 4.13 11.86
12/11/2021 8:30:00 AM 6.59 43.862 0.357 8 2.97 11.84
12/11/2021 8:45:00 AM 6.61 43.898 0.328 7.98 2.63 11.81
12/11/2021 9:00:00 AM 6.63 43.934 0.206 7.98 3.14 11.8
12/11/2021 9:15:00 AM 6.65 43.97 0.206 7.97 3.06 11.76
12/11/2021 9:30:00 AM 6.67 44.006 0.293 7.97 3.07 11.73
12/11/2021 9:45:00 AM 6.7 44.06 0.334 7.96 2.77 11.7
12/11/2021 10:00:00 AM 6.73 44.114 0.36 7.95 2.89 11.69
12/11/2021 10:15:00 AM 6.76 44.168 0.21 7.93 3 11.67
12/11/2021 10:30:00 AM 6.79 44.222 0.271 7.95 3.04 11.64
12/11/2021 10:45:00 AM 6.84 44.312 0.294 7.94 2.96 11.61
12/11/2021 11:00:00 AM 6.91 44.438 0.342 7.95 3.53 11.6
12/11/2021 11:15:00 AM 6.96 44.528 0.323 7.93 2.92 11.61
12/11/2021 11:30:00 AM 7.01 44.618 0.197 7.93 2.99 11.59
12/11/2021 11:45:00 AM 7.03 44.654 0.358 7.93 3.02 11.56
12/11/2021 12:00:00 PM 7.08 44.744 0.322 7.92 2.69 11.61
12/11/2021 12:15:00 PM 7.14 44.852 0.3 7.93 2.92 11.65
12/11/2021 12:30:00 PM 7.18 44.924 0.245 7.93 2.82 11.59
12/11/2021 12:45:00 PM 7.21 44.978 0.393 7.93 2.67 11.54
12/11/2021 1:00:00 PM 7.25 45.05 0.639 7.92 2.64 11.51
12/11/2021 1:15:00 PM 7.29 45.122 0.58 7.92 2.82 11.48
12/11/2021 1:30:00 PM 7.34 45.212 0.237 7.92 2.65 11.47
12/11/2021 1:45:00 PM 7.39 45.302 0.394 7.91 2.92 11.42
12/11/2021 2:00:00 PM 7.43 45.374 0.278 7.91 3.04 11.35
12/11/2021 2:15:00 PM 7.46 45.428 0.353 7.91 2.78 11.29
12/11/2021 2:30:00 PM 7.48 45.464 0.301 7.89 2.86 11.2
12/11/2021 2:45:00 PM 7.5 45.5 0.382 7.88 2.73 11.15
12/11/2021 3:00:00 PM 7.52 45.536 0.307 7.87 2.71 11.12
12/11/2021 3:15:00 PM 7.57 45.626 0.386 7.88 3.39 11.12
12/11/2021 3:30:00 PM 7.6 45.68 0.324 7.87 2.66 11.1
12/11/2021 3:45:00 PM 7.69 45.842 0.394 7.88 2.53 11.08
12/11/2021 4:00:00 PM 7.75 45.95 0.222 7.87 2.51 11.02
12/11/2021 4:15:00 PM 7.8 46.04 0.305 7.87 2.46 10.95
12/11/2021 4:30:00 PM 7.84 46.112 0.65 7.86 2.7 10.91
12/11/2021 4:45:00 PM 7.88 46.184 0.236 7.86 2.83 10.91
12/11/2021 5:00:00 PM 7.91 46.238 0.333 7.86 2.41 10.89
12/11/2021 5:15:00 PM 7.94 46.292 0.347 7.86 2.59 10.89
12/11/2021 5:30:00 PM 7.98 46.364 0.279 7.86 2.75 10.89
12/11/2021 5:45:00 PM 7.99 46.382 0.26 7.86 2.74 10.88
12/11/2021 6:00:00 PM 7.99 46.382 0.332 7.85 2.71 10.86
12/11/2021 6:15:00 PM 7.99 46.382 0.313 7.85 2.69 10.86
12/11/2021 6:30:00 PM 8 46.4 0.348 7.85 2.78 10.85
12/11/2021 6:45:00 PM 8.03 46.454 0.589 7.86 2.39 10.83
12/11/2021 7:00:00 PM 8.04 46.472 0.356 7.85 2.74 10.81
12/11/2021 7:15:00 PM 8.02 46.436 0.354 7.86 2.61 10.84
12/11/2021 7:30:00 PM 8.02 46.436 0.246 7.84 2.34 10.8
12/11/2021 7:45:00 PM 8.04 46.472 0.254 7.84 2.45 10.8
12/11/2021 8:00:00 PM 8.07 46.526 0.319 7.84 2.63 10.81
12/11/2021 8:15:00 PM 8.1 46.58 0.346 7.85 2.72 10.83
12/11/2021 8:30:00 PM 8.09 46.562 0.378 7.85 2.74 10.81
12/11/2021 8:45:00 PM 8.07 46.526 0.35 7.85 2.59 10.87
12/11/2021 9:00:00 PM 8.06 46.508 0.343 7.86 2.81 10.88
12/11/2021 9:15:00 PM 8.07 46.526 0.588 7.87 2.46 10.91
12/11/2021 9:30:00 PM 8.09 46.562 0.351 7.86 2.42 10.88
12/11/2021 9:45:00 PM 8.1 46.58 0.346 7.87 2.57 10.93
12/11/2021 10:00:00 PM 8.11 46.598 0.257 7.87 2.67 10.98
12/11/2021 10:15:00 PM 8.09 46.562 0.362 7.88 2.54 11.02
12/11/2021 10:30:00 PM 8.08 46.544 0.381 7.88 2.55 11.02
12/11/2021 10:45:00 PM 8.07 46.526 0.306 7.88 2.56 11.02
12/11/2021 11:00:00 PM 8.06 46.508 0.227 7.89 2.46 11
12/11/2021 11:15:00 PM 8.05 46.49 0.4 7.9 2.68 11.1
12/11/2021 11:30:00 PM 8.05 46.49 0.286 7.9 2.95 11.14
12/11/2021 11:45:00 PM 8.06 46.508 0.392 7.91 2.89 11.17
12/12/2021 12:00:00 AM 8.07 46.526 0.283 7.92 3.1 11.18
12/12/2021 12:15:00 AM 8.08 46.544 0.314 7.93 2.8 11.23
12/12/2021 12:30:00 AM 8.09 46.562 0.367 7.94 3.4 11.26
12/12/2021 12:45:00 AM 8.1 46.58 0.647 7.93 2.85 11.28
12/12/2021 1:00:00 AM 8.1 46.58 0.377 7.94 2.81 11.3
12/12/2021 1:15:00 AM 8.11 46.598 0.342 7.94 2.92 11.31
12/12/2021 1:30:00 AM 8.13 46.634 0.586 7.96 3.12 11.31
12/12/2021 1:45:00 AM 8.14 46.652 0.36 7.96 2.96 11.35
12/12/2021 2:00:00 AM 8.15 46.67 0.384 7.98 2.85 11.4
12/12/2021 2:15:00 AM 8.15 46.67 0.254 7.96 2.89 11.37
12/12/2021 2:30:00 AM 8.15 46.67 0.377 7.97 2.8 11.4
12/12/2021 2:45:00 AM 8.17 46.706 0.376 7.97 2.63 11.38
12/12/2021 3:00:00 AM 8.19 46.742 0.242 7.98 2.71 11.39
12/12/2021 3:15:00 AM 8.2 46.76 0.381 7.98 2.63 11.36
12/12/2021 3:30:00 AM 8.2 46.76 0.307 7.98 2.71 11.32
12/12/2021 3:45:00 AM 8.21 46.778 0.355 7.97 2.82 11.33
12/12/2021 4:00:00 AM 8.22 46.796 0.395 8 2.99 11.28
12/12/2021 4:15:00 AM 8.23 46.814 0.345 7.96 2.58 11.24
12/12/2021 4:30:00 AM 8.26 46.868 0.335 7.97 3.01 11.18
12/12/2021 4:45:00 AM 8.27 46.886 0.576 7.96 2.64 11.16
12/12/2021 5:00:00 AM 8.29 46.922 0.301 7.96 2.7 11.15
12/12/2021 5:15:00 AM 8.3 46.94 0.34 7.95 2.7 11.09
12/12/2021 5:30:00 AM 8.31 46.958 0.341 7.94 2.95 11.04
12/12/2021 5:45:00 AM 8.32 46.976 0.27 7.93 2.93 10.95
12/12/2021 6:00:00 AM 8.34 47.012 0.349 7.93 3.29 10.96
12/12/2021 6:15:00 AM 8.35 47.03 0.349 7.93 3.25 10.9
12/12/2021 6:30:00 AM 8.35 47.03 0.335 7.92 2.87 10.9
12/12/2021 6:45:00 AM 8.34 47.012 0.349 7.91 3.06 10.9
12/12/2021 7:00:00 AM 8.33 46.994 0.373 7.9 2.75 10.85
12/12/2021 7:15:00 AM 8.33 46.994 0.571 7.9 2.92 10.83
12/12/2021 7:30:00 AM 8.32 46.976 0.294 7.89 4.56 10.85
12/12/2021 7:45:00 AM 8.31 46.958 0.241 7.89 2.92 10.81
12/12/2021 8:00:00 AM 8.3 46.94 0.325 7.89 2.63 10.81
12/12/2021 8:15:00 AM 8.3 46.94 0.376 7.88 2.91 10.86
12/12/2021 8:30:00 AM 8.3 46.94 0.385 7.88 3.06 10.89
12/12/2021 8:45:00 AM 8.3 46.94 0.233 7.89 3.09 10.92
12/12/2021 9:00:00 AM 8.31 46.958 0.315 7.9 3.17 10.94
12/12/2021 9:15:00 AM 8.31 46.958 0.235 7.9 2.99 10.96
12/12/2021 9:30:00 AM 8.31 46.958 0.244 7.9 2.96 11
12/12/2021 9:45:00 AM 8.32 46.976 0.347 7.91 3.38 11.02
12/12/2021 10:00:00 AM 8.32 46.976 0.379 7.87 3.37 10.99
12/12/2021 10:15:00 AM 8.31 46.958 0.416 7.91 3.1 11.07
12/12/2021 10:30:00 AM 8.29 46.922 0.347 7.91 2.96 11.07
12/12/2021 10:45:00 AM 8.27 46.886 0.273 7.91 3.1 11.12
12/12/2021 11:00:00 AM 8.25 46.85 0.649 7.91 4.18 11.12
12/12/2021 11:15:00 AM 8.24 46.832 0.317 7.88 3.22 11.15
12/12/2021 11:30:00 AM 8.22 46.796 0.384 7.89 3.21 11.17
12/12/2021 11:45:00 AM 8.19 46.742 0.317 7.91 3.07 11.18
12/12/2021 12:00:00 PM 8.16 46.688 0.324 7.92 2.97 11.19
12/12/2021 12:15:00 PM 8.14 46.652 0.659 7.91 2.72 11.19
12/12/2021 12:30:00 PM 8.11 46.598 0.361 7.92 3.08 11.18
12/12/2021 12:45:00 PM 8.09 46.562 0.284 7.93 3.11 11.19
12/12/2021 1:00:00 PM 8.05 46.49 0.36 7.92 3.12 11.18
12/12/2021 1:15:00 PM 8.02 46.436 0.353 7.89 2.9 11.18
12/12/2021 1:30:00 PM 7.97 46.346 0.34 7.91 3.32 11.16
12/12/2021 1:45:00 PM 7.93 46.274 0.331 7.9 2.72 11.13
12/12/2021 2:00:00 PM 7.89 46.202 0.426 7.91 2.99 11.13
12/12/2021 2:15:00 PM 7.85 46.13 0.375 7.9 2.94 11.14
12/12/2021 2:30:00 PM 7.81 46.058 0.415 7.9 3.03 11.13
12/12/2021 2:45:00 PM 7.76 45.968 0.276 7.91 3.05 11.1
12/12/2021 3:00:00 PM 7.72 45.896 0.608 7.92 2.87 11.09
12/12/2021 3:15:00 PM 7.68 45.824 0.384 7.91 3.57 11.09
12/12/2021 3:30:00 PM 7.64 45.752 0.412 7.9 3.07 11.06
12/12/2021 3:45:00 PM 7.61 45.698 0.408 7.89 3.08 11.05
12/12/2021 4:00:00 PM 7.57 45.626 0.269 7.88 2.53 11.01
12/12/2021 4:15:00 PM 7.54 45.572 0.355 7.88 2.57 10.98
12/12/2021 4:30:00 PM 7.51 45.518 0.302 7.88 2.86 11.03
12/12/2021 4:45:00 PM 7.48 45.464 0.331 7.89 2.67 11.01
12/12/2021 5:00:00 PM 7.46 45.428 0.266 7.88 2.53 10.99
12/12/2021 5:15:00 PM 7.43 45.374 0.435 7.88 2.85 10.99
12/12/2021 5:30:00 PM 7.41 45.338 0.35 7.9 3.89 11.02
12/12/2021 5:45:00 PM 7.39 45.302 0.372 7.88 2.87 11.03
12/12/2021 6:00:00 PM 7.37 45.266 0.306 7.88 3.12 11.02
12/12/2021 6:15:00 PM 7.36 45.248 0.346 7.88 2.94 11.06
12/12/2021 6:30:00 PM 7.34 45.212 0.276 7.85 2.83 11.07
12/12/2021 6:45:00 PM 7.31 45.158 0.319 7.87 2.58 11.05
12/12/2021 7:00:00 PM 7.28 45.104 0.369 7.88 2.71 11.05
12/12/2021 7:15:00 PM 7.24 45.032 0.354 7.88 2.67 11.13
12/12/2021 7:30:00 PM 7.18 44.924 0.329 7.87 2.65 11.17
12/12/2021 7:45:00 PM 7.12 44.816 0.317 7.88 2.3 11.18
12/12/2021 8:00:00 PM 7.07 44.726 0.351 7.88 2.35 11.24
12/12/2021 8:15:00 PM 7.01 44.618 0.393 7.88 2.36 11.26
12/12/2021 8:30:00 PM 6.94 44.492 0.348 7.89 2.28 11.3
12/12/2021 8:45:00 PM 6.88 44.384 0.336 7.89 2.5 11.37
12/12/2021 9:00:00 PM 6.81 44.258 0.238 7.89 2.37 11.47
12/12/2021 9:15:00 PM 6.76 44.168 0.215 7.89 2.52 11.48
12/12/2021 9:30:00 PM 6.72 44.096 0.25 7.91 2.5 11.51
12/12/2021 9:45:00 PM 6.68 44.024 0.659 7.91 2.67 11.59
12/12/2021 10:00:00 PM 6.65 43.97 0.378 7.93 2.51 11.63
12/12/2021 10:15:00 PM 6.62 43.916 0.341 7.91 2.47 11.7
12/12/2021 10:30:00 PM 6.6 43.88 0.275 7.93 2.42 11.73
12/12/2021 10:45:00 PM 6.57 43.826 0.363 7.93 2.72 11.71
12/12/2021 11:00:00 PM 6.55 43.79 0.371 7.92 2.61 11.8
12/12/2021 11:15:00 PM 6.52 43.736 0.308 7.94 2.47 11.85
12/12/2021 11:30:00 PM 6.5 43.7 0.266 7.95 2.88 11.88
12/12/2021 11:45:00 PM 6.47 43.646 0.259 7.96 2.39 11.96
12/13/2021 12:00:00 AM 6.45 43.61 0.356 7.96 2.45 12.01
12/13/2021 12:15:00 AM 6.44 43.592 0.35 7.97 2.52 12.11
12/13/2021 12:30:00 AM 6.42 43.556 0.318 7.99 2.5 12.17
12/13/2021 12:45:00 AM 6.41 43.538 0.373 8.01 2.37 12.19
12/13/2021 1:00:00 AM 6.4 43.52 0.293 8.02 2.45 12.24
12/13/2021 1:15:00 AM 6.39 43.502 0.378 8.04 2.44 12.26
12/13/2021 1:30:00 AM 6.37 43.466 0.29 8.05 2.33 12.37
12/13/2021 1:45:00 AM 6.36 43.448 0.357 8.06 2.29 12.39
12/13/2021 2:00:00 AM 6.35 43.43 0.343 8.07 2.31 12.45
12/13/2021 2:15:00 AM 6.34 43.412 0.647 8.08 2.43 12.45
12/13/2021 2:30:00 AM 6.33 43.394 0.395 8.08 2.38 12.49
12/13/2021 2:45:00 AM 6.31 43.358 0.332 8.09 2.41 12.52
12/13/2021 3:00:00 AM 6.29 43.322 0.421 8.09 2.55 12.53
12/13/2021 3:15:00 AM 6.27 43.286 0.345 8.1 2.44 12.54
12/13/2021 3:30:00 AM 6.25 43.25 0.643 8.11 2.47 12.47
12/13/2021 3:45:00 AM 6.23 43.214 0.341 8.11 2.93 12.53
12/13/2021 4:00:00 AM 6.2 43.16 0.354 8.1 2.72 12.47
12/13/2021 4:15:00 AM 6.17 43.106 0.314 8.1 2.31 12.47
12/13/2021 4:30:00 AM 6.15 43.07 0.245 8.09 2.41 12.45
12/13/2021 4:45:00 AM 6.11 42.998 0.277 8.09 2.29 12.41
12/13/2021 5:00:00 AM 6.06 42.908 0.331 8.08 2.55 12.38
12/13/2021 5:15:00 AM 6.02 42.836 0.479 8.08 2.29 12.37
12/13/2021 5:30:00 AM 5.97 42.746 0.357 8.07 2.34 12.33
12/13/2021 5:45:00 AM 5.93 42.674 0.428 8.05 2.41 12.31
12/13/2021 6:00:00 AM 5.9 42.62 0.354 8.04 2.31 12.27
12/13/2021 6:15:00 AM 5.85 42.53 0.294 8.04 2.54 12.24
12/13/2021 6:30:00 AM 5.81 42.458 0.314 8.02 2.29 12.21
12/13/2021 6:45:00 AM 5.77 42.386 0.267 8.02 2.54 12.16
12/13/2021 7:00:00 AM 5.74 42.332 0.309 8 2.54 12.16
12/13/2021 7:15:00 AM 5.69 42.242 0.311 7.99 2.23 12.14
12/13/2021 7:30:00 AM 5.65 42.17 0.356 7.99 2.66 12.14
12/13/2021 7:45:00 AM 5.61 42.098 0.477 7.98 2.31 12.12
12/13/2021 8:00:00 AM 5.57 42.026 0.308 7.97 2.42 12.11
12/13/2021 8:15:00 AM 5.54 41.972 0.226 7.96 2.83 12.14
12/13/2021 8:30:00 AM 5.51 41.918 0.365 7.97 2.55 12.13
12/13/2021 8:45:00 AM 5.49 41.882 0.322 7.97 2.56 12.16
12/13/2021 9:00:00 AM 5.48 41.864 0.21 7.97 2.85 12.17
12/13/2021 9:15:00 AM 5.48 41.864 0.485 7.97 2.68 12.22
12/13/2021 9:30:00 AM 5.47 41.846 0.364 7.97 2.67 12.22
12/13/2021 9:45:00 AM 5.48 41.864 0.407 7.97 2.91 12.23
12/13/2021 10:00:00 AM 5.49 41.882 0.379 7.96 2.73 12.2
12/13/2021 10:15:00 AM 5.51 41.918 0.372 7.96 2.62 12.23
12/13/2021 10:30:00 AM 5.53 41.954 0.276 7.92 2.7 12.23
12/13/2021 10:45:00 AM 5.55 41.99 0.47 7.98 2.75 12.24
12/13/2021 11:00:00 AM 5.56 42.008 0.341 7.96 2.72 12.23
12/13/2021 11:15:00 AM 5.58 42.044 0.184 7.88 3.05 12.23
12/13/2021 11:30:00 AM 5.59 42.062 0.26 7.96 3.02 12.18
12/13/2021 11:45:00 AM 5.6 42.08 0.361 7.96 2.79 12.2
12/13/2021 12:00:00 PM 5.62 42.116 0.369 7.96 2.85 12.21
12/13/2021 12:15:00 PM 5.62 42.116 0.362 7.94 2.8 12.17
12/13/2021 12:30:00 PM 5.62 42.116 0.358 7.95 2.82 12.15
12/13/2021 12:45:00 PM 5.63 42.134 0.333 7.95 2.65 12.17
12/13/2021 1:00:00 PM 5.63 42.134 0.278 7.87 2.78 12.15
12/13/2021 1:15:00 PM 5.63 42.134 0.291 7.94 2.61 12.14
12/13/2021 1:30:00 PM 5.62 42.116 0.36 7.94 3.01 12.1
12/13/2021 1:45:00 PM 5.6 42.08 0.326 7.93 2.61 12.08
12/13/2021 2:00:00 PM 5.59 42.062 0.387 7.92 2.47 12.06
12/13/2021 2:15:00 PM 5.57 42.026 0.377 7.93 2.61 12.04
12/13/2021 2:30:00 PM 5.55 41.99 0.306 7.93 2.55 12.01
12/13/2021 2:45:00 PM 5.53 41.954 0.245 7.92 2.41 11.97
12/13/2021 3:00:00 PM 5.5 41.9 0.39 7.92 2.28 11.96
12/13/2021 3:15:00 PM 5.48 41.864 0.248 7.91 2.34 11.91
12/13/2021 3:30:00 PM 5.46 41.828 0.592 7.88 2.41 11.89
12/13/2021 3:45:00 PM 5.45 41.81 0.337 7.88 2.28 11.88
12/13/2021 4:00:00 PM 5.43 41.774 0.287 7.9 2.61 11.87
12/13/2021 4:15:00 PM 5.42 41.756 0.234 7.9 2.52 11.83
12/13/2021 4:30:00 PM 5.4 41.72 0.331 7.9 2.44 11.82
12/13/2021 4:45:00 PM 5.39 41.702 0.312 7.88 2.31 11.8
12/13/2021 5:00:00 PM 5.37 41.666 0.403 7.88 2.7 11.82
12/13/2021 5:15:00 PM 5.37 41.666 0.481 7.88 2.02 11.81
12/13/2021 5:30:00 PM 5.36 41.648 0.402 7.85 2.51 11.82
12/13/2021 5:45:00 PM 5.37 41.666 0.337 7.87 2.39 11.84
12/13/2021 6:00:00 PM 5.37 41.666 0.409 7.87 2.46 11.84
12/13/2021 6:15:00 PM 5.37 41.666 0.34 7.86 2.15 11.84
12/13/2021 6:30:00 PM 5.38 41.684 0.599 7.88 2.41 11.84
12/13/2021 6:45:00 PM 5.38 41.684 0.409 7.87 2.26 11.8
12/13/2021 7:00:00 PM 5.37 41.666 0.664 7.88 2.37 11.85
12/13/2021 7:15:00 PM 5.35 41.63 0.388 7.87 2.29 11.85
12/13/2021 7:30:00 PM 5.33 41.594 0.307 7.84 2.37 11.86
12/13/2021 7:45:00 PM 5.31 41.558 0.339 7.84 2.16 11.89
12/13/2021 8:00:00 PM 5.28 41.504 0.335 7.86 2.48 11.93
12/13/2021 8:15:00 PM 5.24 41.432 0.394 7.83 2.17 11.95
12/13/2021 8:30:00 PM 5.2 41.36 0.245 7.86 5.53 11.96
12/13/2021 8:45:00 PM 5.16 41.288 0.233 7.87 2.87 12.01
12/13/2021 9:00:00 PM 5.12 41.216 0.346 7.88 3 12.05
12/13/2021 9:15:00 PM 5.08 41.144 0.322 7.85 2.64 12.09
12/13/2021 9:30:00 PM 5.06 41.108 0.667 7.88 5.46 12.12
12/13/2021 9:45:00 PM 5.03 41.054 0.394 7.88 2.42 12.16
12/13/2021 10:00:00 PM 5.01 41.018 0.483 7.89 3.86 12.19
12/13/2021 10:15:00 PM 5 41 0.35 7.9 2.85 12.24
12/13/2021 10:30:00 PM 4.99 40.982 0.486 7.91 2.52 12.28
12/13/2021 10:45:00 PM 4.98 40.964 0.323 7.88 2.01 12.31
12/13/2021 11:00:00 PM 4.98 40.964 0.238 7.89 2.1 12.33
12/13/2021 11:15:00 PM 4.97 40.946 0.321 7.91 2.6 12.35
12/13/2021 11:30:00 PM 4.97 40.946 0.386 7.91 2.48 12.39
12/13/2021 11:45:00 PM 4.97 40.946 0.398 7.92 2.6 12.4
12/14/2021 12:00:00 AM 4.98 40.964 0.309 7.92 2.92 12.45
12/14/2021 12:15:00 AM 4.98 40.964 0.384 7.93 2.31 12.51
12/14/2021 12:30:00 AM 5 41 0.262 7.96 1.95 12.58
12/14/2021 12:45:00 AM 5.01 41.018 0.319 7.98 2.61 12.64
12/14/2021 1:00:00 AM 5.02 41.036 0.391 7.94 2.1 12.7
12/14/2021 1:15:00 AM 5.03 41.054 0.324 7.98 2.35 12.74
12/14/2021 1:30:00 AM 5.05 41.09 0.23 7.99 2.27 12.77
12/14/2021 1:45:00 AM 5.07 41.126 0.409 8.01 2.22 12.8
12/14/2021 2:00:00 AM 5.09 41.162 0.32 8.02 2.65 12.83
12/14/2021 2:15:00 AM 5.11 41.198 0.301 8.03 2.73 12.9
12/14/2021 2:30:00 AM 5.13 41.234 0.261 8.03 2.04 12.92
12/14/2021 2:45:00 AM 5.15 41.27 0.28 8.07 2.08 12.95
12/14/2021 3:00:00 AM 5.17 41.306 0.335 8.07 2 12.96
12/14/2021 3:15:00 AM 5.19 41.342 0.388 8.06 2.33 12.99
12/14/2021 3:30:00 AM 5.2 41.36 0.474 8.08 2.27 12.99
12/14/2021 3:45:00 AM 5.21 41.378 0.371 8.05 2.43 12.98
12/14/2021 4:00:00 AM 5.22 41.396 0.312 8.09 3.1 12.98
12/14/2021 4:15:00 AM 5.23 41.414 0.326 8.09 2.33 12.98
12/14/2021 4:30:00 AM 5.24 41.432 0.306 8.09 2.07 12.96
12/14/2021 4:45:00 AM 5.24 41.432 0.365 8.1 2.28 12.93
12/14/2021 5:00:00 AM 5.24 41.432 0.659 8.1 2.54 12.9
12/14/2021 5:15:00 AM 5.23 41.414 0.347 8.07 2.34 12.87
12/14/2021 5:30:00 AM 5.22 41.396 0.431 8.07 2.07 12.85
12/14/2021 5:45:00 AM 5.2 41.36 0.313 8.06 2.26 12.81
12/14/2021 6:00:00 AM 5.19 41.342 0.481 8.07 2.19 12.77
12/14/2021 6:15:00 AM 5.17 41.306 0.228 8.06 2.22 12.75
12/14/2021 6:30:00 AM 5.14 41.252 0.338 8.04 2.21 12.69
12/14/2021 6:45:00 AM 5.12 41.216 0.319 8.01 2.23 12.66
12/14/2021 7:00:00 AM 5.09 41.162 0.246 8.01 2.35 12.63
12/14/2021 7:15:00 AM 5.07 41.126 0.253 7.96 2.32 12.59
12/14/2021 7:30:00 AM 5.04 41.072 0.313 8 2.29 12.58
12/14/2021 7:45:00 AM 5.02 41.036 0.34 7.99 2.35 12.56
12/14/2021 8:00:00 AM 4.99 40.982 0.248 7.98 2.34 12.54
12/14/2021 8:15:00 AM 4.98 40.964 0.315 7.98 2.59 12.54
12/14/2021 8:30:00 AM 4.96 40.928 0.248 7.98 2.6 12.54
12/14/2021 8:45:00 AM 4.96 40.928 0.416 7.98 2.91 12.56
12/14/2021 9:00:00 AM 4.96 40.928 0.237 7.97 2.66 12.57
12/14/2021 9:15:00 AM 4.97 40.946 0.36 7.98 2.32 12.58
12/14/2021 9:30:00 AM 4.99 40.982 0.284 7.94 2.75 12.59
12/14/2021 9:45:00 AM 5.01 41.018 0.319 7.97 2.42 12.6
12/14/2021 10:00:00 AM 5.04 41.072 0.307 7.97 2.52 12.61
12/14/2021 10:15:00 AM 5.07 41.126 0.354 7.94 2.63 12.57
12/14/2021 10:30:00 AM 5.09 41.162 0.232 7.93 2.43 12.58
12/14/2021 10:45:00 AM 5.1 41.18 0.323 7.98 2.44 12.55
12/14/2021 11:00:00 AM 5.13 41.234 0.37 7.97 2.43 12.57
12/14/2021 11:15:00 AM 5.15 41.27 0.492 7.96 2.32 12.57
12/14/2021 11:30:00 AM 5.16 41.288 0.363 7.97 2.55 12.57
12/14/2021 11:45:00 AM 5.18 41.324 0.285 7.96 2.57 12.53
12/14/2021 12:00:00 PM 5.2 41.36 0.224 7.95 2.42 12.52
12/14/2021 12:15:00 PM 5.22 41.396 0.28 7.95 2.45 12.5
12/14/2021 12:30:00 PM 5.24 41.432 0.39 7.96 2.45 12.5
12/14/2021 12:45:00 PM 5.25 41.45 0.302 7.93 2.84 12.47
12/14/2021 1:00:00 PM 5.28 41.504 0.318 7.95 2.29 12.45
12/14/2021 1:15:00 PM 5.29 41.522 0.311 7.94 2.44 12.44
12/14/2021 1:30:00 PM 5.29 41.522 0.469 7.95 2.71 12.41
12/14/2021 1:45:00 PM 5.28 41.504 0.226 7.94 2.54 12.38
12/14/2021 2:00:00 PM 5.27 41.486 0.314 7.94 2.49 12.36
12/14/2021 2:15:00 PM 5.27 41.486 0.342 7.92 2.62 12.34
12/14/2021 2:30:00 PM 5.28 41.504 0.398 7.94 2.48 12.31
12/14/2021 2:45:00 PM 5.28 41.504 0.654 7.94 2.36 12.28
12/14/2021 3:00:00 PM 5.26 41.468 0.369 7.93 2.55 12.23
12/14/2021 3:15:00 PM 5.24 41.432 0.406 7.9 2.35 12.21
12/14/2021 3:30:00 PM 5.23 41.414 0.298 7.91 2.55 12.19
12/14/2021 3:45:00 PM 5.21 41.378 0.437 7.91 2.18 12.16
12/14/2021 4:00:00 PM 5.19 41.342 0.332 7.9 2.43 12.14
12/14/2021 4:15:00 PM 5.18 41.324 0.411 7.88 2.53 12.05
12/14/2021 4:30:00 PM 5.16 41.288 0.348 7.89 3.56 12.1
12/14/2021 4:45:00 PM 5.15 41.27 0.313 7.89 2.36 12.07
12/14/2021 5:00:00 PM 5.14 41.252 0.337 7.82 2.37 12.02
12/14/2021 5:15:00 PM 5.12 41.216 0.436 7.88 2.74 12.05
12/14/2021 5:30:00 PM 5.11 41.198 0.329 7.86 2.5 12.03
12/14/2021 5:45:00 PM 5.11 41.198 0.302 7.87 2.4 12.05
12/14/2021 6:00:00 PM 5.11 41.198 0.493 7.86 2.52 12.04
12/14/2021 6:15:00 PM 5.11 41.198 0.332 7.87 2.2 12.06
12/14/2021 6:30:00 PM 5.11 41.198 0.486 7.88 3.62 11.99
12/14/2021 6:45:00 PM 5.11 41.198 0.416 7.86 3.21 12.05
12/14/2021 7:00:00 PM 5.1 41.18 0.675 7.86 2.34 12.06
12/14/2021 7:15:00 PM 5.09 41.162 0.426 7.88 2.94 12.09
12/14/2021 7:30:00 PM 5.07 41.126 0.308 7.86 2.46 12.12
12/14/2021 7:45:00 PM 5.05 41.09 0.385 7.86 2.37 12.12
12/14/2021 8:00:00 PM 5.02 41.036 0.612 7.87 2.53 12.13
12/14/2021 8:15:00 PM 4.99 40.982 0.275 7.87 2.4 12.16
12/14/2021 8:30:00 PM 4.95 40.91 0.417 7.88 2.34 12.18
12/14/2021 8:45:00 PM 4.91 40.838 0.239 7.87 2.39 12.18
12/14/2021 9:00:00 PM 4.88 40.784 0.256 7.88 2.48 12.21
12/14/2021 9:15:00 PM 4.84 40.712 0.207 7.87 2.29 12.3
12/14/2021 9:30:00 PM 4.82 40.676 0.24 7.88 2.19 12.31
12/14/2021 9:45:00 PM 4.8 40.64 0.311 7.89 2.37 12.37
12/14/2021 10:00:00 PM 4.78 40.604 0.355 7.89 2.8 12.4
12/14/2021 10:15:00 PM 4.77 40.586 0.68 7.9 2.28 12.44
12/14/2021 10:30:00 PM 4.76 40.568 0.683 7.9 2.24 12.49
12/14/2021 10:45:00 PM 4.75 40.55 0.416 7.91 2.38 12.51
12/14/2021 11:00:00 PM 4.74 40.532 0.681 7.91 2.31 12.54
12/14/2021 11:15:00 PM 4.73 40.514 0.317 7.85 2.4 12.57
12/14/2021 11:30:00 PM 4.73 40.514 0.678 7.92 2.24 12.61
12/14/2021 11:45:00 PM 4.72 40.496 0.276 7.93 2.33 12.65
12/15/2021 12:00:00 AM 4.73 40.514 0.265 7.94 2.67 12.68
12/15/2021 12:15:00 AM 4.73 40.514 0.408 7.93 2.28 12.73
12/15/2021 12:30:00 AM 4.74 40.532 0.36 7.97 2.46 12.78
12/15/2021 12:45:00 AM 4.76 40.568 0.349 7.97 2.25 12.83
12/15/2021 1:00:00 AM 4.77 40.586 0.414 7.98 2.41 12.9
12/15/2021 1:15:00 AM 4.79 40.622 0.295 7.98 2.34 12.94
12/15/2021 1:30:00 AM 4.81 40.658 0.423 8 2.27 12.99
12/15/2021 1:45:00 AM 4.83 40.694 0.21 8 2.28 13.03
12/15/2021 2:00:00 AM 4.85 40.73 0.676 8.03 2.39 13.06
12/15/2021 2:15:00 AM 4.87 40.766 0.489 8.03 2.41 13.1
12/15/2021 2:30:00 AM 4.89 40.802 0.392 8.05 2.41 13.12
12/15/2021 2:45:00 AM 4.91 40.838 0.492 8.06 2.62 13.16
12/15/2021 3:00:00 AM 4.93 40.874 0.346 8.06 2.41 13.19
12/15/2021 3:15:00 AM 4.95 40.91 0.293 8.02 2.43 13.19
12/15/2021 3:30:00 AM 4.96 40.928 0.265 8.08 2.61 13.21
12/15/2021 3:45:00 AM 4.97 40.946 0.305 8.09 2.41 13.24
12/15/2021 4:00:00 AM 4.98 40.964 0.207 8.08 2.42 13.23
12/15/2021 4:15:00 AM 4.99 40.982 0.337 8.1 2.32 13.21
12/15/2021 4:30:00 AM 5 41 0.351 8.1 2.53 13.21
12/15/2021 4:45:00 AM 5 41 0.289 8.1 2.66 13.19
12/15/2021 5:00:00 AM 4.99 40.982 0.262 8.1 2.53 13.17
12/15/2021 5:15:00 AM 4.98 40.964 0.426 8.1 2.71 13.14
12/15/2021 5:30:00 AM 4.97 40.946 0.485 8.1 2.61 13.11
12/15/2021 5:45:00 AM 4.97 40.946 0.403 8.09 2.61 13.08
12/15/2021 6:00:00 AM 4.96 40.928 0.259 8.08 2.58 13.04
12/15/2021 6:15:00 AM 4.95 40.91 0.342 8.05 2.48 13.01
12/15/2021 6:30:00 AM 4.95 40.91 0.296 8.07 2.56 12.97
12/15/2021 6:45:00 AM 4.93 40.874 0.655 8.06 2.76 12.93
12/15/2021 7:00:00 AM 4.92 40.856 0.303 8.04 2.67 12.87
12/15/2021 7:15:00 AM 4.89 40.802 0.335 8.02 2.73 12.84
12/15/2021 7:30:00 AM 4.87 40.766 0.33 8.03 2.56 12.82
12/15/2021 7:45:00 AM 4.85 40.73 0.388 8.02 2.48 12.79
12/15/2021 8:00:00 AM 4.83 40.694 0.318 8.02 2.48 12.79
12/15/2021 8:15:00 AM 4.82 40.676 0.368 8.01 2.59 12.79
12/15/2021 8:30:00 AM 4.82 40.676 0.367 8.02 2.81 12.81
12/15/2021 8:45:00 AM 4.82 40.676 0.385 8.02 2.9 12.82
12/15/2021 9:00:00 AM 4.83 40.694 0.221 8.01 2.66 12.83
12/15/2021 9:15:00 AM 4.83 40.694 0.345 8.01 2.49 12.84
12/15/2021 9:30:00 AM 4.84 40.712 0.329 8 2.59 12.84
12/15/2021 9:45:00 AM 4.85 40.73 0.483 8.01 2.73 12.82
12/15/2021 10:00:00 AM 4.86 40.748 0.308 8.01 3.1 12.79
12/15/2021 10:15:00 AM 4.87 40.766 0.274 8.01 2.47 12.79
12/15/2021 10:30:00 AM 4.88 40.784 0.3 8 2.89 12.78
12/15/2021 10:45:00 AM 4.89 40.802 0.263 7.99 2.56 12.74
12/15/2021 11:00:00 AM 4.91 40.838 0.328 7.99 2.68 12.74
12/15/2021 11:15:00 AM 4.94 40.892 0.486 7.98 2.62 12.75
12/15/2021 11:30:00 AM 4.97 40.946 0.487 7.99 2.58 12.74
12/15/2021 11:45:00 AM 5.03 41.054 0.483 7.97 2.66 12.74
12/15/2021 12:00:00 PM 5.08 41.144 0.487 7.99 3.79 12.76
12/15/2021 12:15:00 PM 5.12 41.216 0.303 7.99 2.67 12.73
12/15/2021 12:30:00 PM 5.16 41.288 0.481 7.98 2.72 12.7
12/15/2021 12:45:00 PM 5.2 41.36 0.32 7.95 2.41 12.68
12/15/2021 1:00:00 PM 5.23 41.414 0.323 7.98 2.53 12.66
12/15/2021 1:15:00 PM 5.24 41.432 0.275 7.96 2.36 12.63
12/15/2021 1:30:00 PM 5.27 41.486 0.307 7.96 2.61 12.62
12/15/2021 1:45:00 PM 5.28 41.504 0.336 7.97 2.62 12.58
12/15/2021 2:00:00 PM 5.3 41.54 0.365 7.96 2.62 12.56
12/15/2021 2:15:00 PM 5.32 41.576 0.26 7.96 2.65 12.52
12/15/2021 2:30:00 PM 5.35 41.63 0.401 7.95 2.51 12.5
12/15/2021 2:45:00 PM 5.33 41.594 0.49 7.94 2.44 12.45
12/15/2021 3:00:00 PM 5.33 41.594 0.255 7.95 2.6 12.42
12/15/2021 3:15:00 PM 5.33 41.594 0.486 7.95 2.45 12.33
12/15/2021 3:30:00 PM 5.34 41.612 0.374 7.95 2.35 12.29
12/15/2021 3:45:00 PM 5.32 41.576 0.49 7.93 2.49 12.29
12/15/2021 4:00:00 PM 5.32 41.576 0.289 7.93 2.41 12.22
12/15/2021 4:15:00 PM 5.31 41.558 0.258 7.91 2.46 12.18
12/15/2021 4:30:00 PM 5.3 41.54 0.261 7.92 2.93 12.16
12/15/2021 4:45:00 PM 5.3 41.54 0.361 7.9 2.62 12.11
12/15/2021 5:00:00 PM 5.3 41.54 0.201 7.9 2.46 12.07
12/15/2021 5:15:00 PM 5.3 41.54 0.364 7.9 2.38 12.08
12/15/2021 5:30:00 PM 5.3 41.54 0.21 7.89 2.42 12.06
12/15/2021 5:45:00 PM 5.31 41.558 0.279 7.9 2.51 12.09
12/15/2021 6:00:00 PM 5.31 41.558 0.398 7.9 2.44 12.08
12/15/2021 6:15:00 PM 5.31 41.558 0.351 7.89 2.3 12.08
12/15/2021 6:30:00 PM 5.31 41.558 0.269 7.9 2.37 12.07
12/15/2021 6:45:00 PM 5.31 41.558 0.383 7.9 2.49 12.08
12/15/2021 7:00:00 PM 5.31 41.558 0.326 7.88 2.5 12.09
12/15/2021 7:15:00 PM 5.3 41.54 0.399 7.88 2.46 12.11
12/15/2021 7:30:00 PM 5.3 41.54 0.31 7.88 2.79 12.1
12/15/2021 7:45:00 PM 5.3 41.54 0.352 7.88 3.07 12.09
12/15/2021 8:00:00 PM 5.3 41.54 0.281 7.89 2.39 12.13
12/15/2021 8:15:00 PM 5.3 41.54 0.268 7.9 2.44 12.13
12/15/2021 8:30:00 PM 5.31 41.558 0.394 7.88 2.34 12.2
12/15/2021 8:45:00 PM 5.31 41.558 0.402 7.89 2.44 12.23
12/15/2021 9:00:00 PM 5.32 41.576 0.322 7.9 2.34 12.24
12/15/2021 9:15:00 PM 5.32 41.576 0.399 7.91 2.38 12.25
12/15/2021 9:30:00 PM 5.34 41.612 0.387 7.91 2.76 12.29
12/15/2021 9:45:00 PM 5.34 41.612 0.609 7.91 2.2 12.31
12/15/2021 10:00:00 PM 5.36 41.648 0.427 7.91 2.49 12.34
12/15/2021 10:15:00 PM 5.38 41.684 0.346 7.93 2.37 12.36
12/15/2021 10:30:00 PM 5.4 41.72 0.269 7.93 2.26 12.4
12/15/2021 10:45:00 PM 5.43 41.774 0.609 7.92 2.19 12.42
12/15/2021 11:00:00 PM 5.45 41.81 0.295 7.92 2.51 12.45
12/15/2021 11:15:00 PM 5.48 41.864 0.336 7.94 2.49 12.48
12/15/2021 11:30:00 PM 5.51 41.918 0.674 7.95 2.51 12.53
12/15/2021 11:45:00 PM 5.54 41.972 0.311 7.96 2.62 12.57
12/16/2021 12:00:00 AM 5.57 42.026 0.301 7.98 2.46 12.62
12/16/2021 12:15:00 AM 5.6 42.08 0.399 7.98 2.25 12.66
12/16/2021 12:30:00 AM 5.64 42.152 0.4 8 2.25 12.71
12/16/2021 12:45:00 AM 5.68 42.224 0.426 8.01 2.66 12.76
12/16/2021 1:00:00 AM 5.71 42.278 0.361 8.03 2.51 12.81
12/16/2021 1:15:00 AM 5.75 42.35 0.329 8.04 2.8 12.85
12/16/2021 1:30:00 AM 5.78 42.404 0.23 8.05 2.22 12.89
12/16/2021 1:45:00 AM 5.83 42.494 0.342 8.07 2.46 12.93
12/16/2021 2:00:00 AM 5.87 42.566 0.464 8.07 2.5 12.97
12/16/2021 2:15:00 AM 5.92 42.656 0.414 8.09 2.39 12.99
12/16/2021 2:30:00 AM 5.97 42.746 0.231 8.1 2.33 13.03
12/16/2021 2:45:00 AM 6.02 42.836 0.382 8.12 2.58 13.05
12/16/2021 3:00:00 AM 6.06 42.908 0.338 8.12 2.41 13.06
12/16/2021 3:15:00 AM 6.1 42.98 0.32 8.13 2.7 13.07
12/16/2021 3:30:00 AM 6.14 43.052 0.368 8.14 2.39 13.07
12/16/2021 3:45:00 AM 6.17 43.106 0.669 8.15 2.38 13.06
12/16/2021 4:00:00 AM 6.21 43.178 0.242 8.14 2.56 13.07
12/16/2021 4:15:00 AM 6.25 43.25 0.326 8.15 3.02 13.06
12/16/2021 4:30:00 AM 6.28 43.304 0.667 8.16 2.63 13.04
12/16/2021 4:45:00 AM 6.31 43.358 0.363 8.16 2.69 13.02
12/16/2021 5:00:00 AM 6.34 43.412 0.325 8.15 2.66 13
12/16/2021 5:15:00 AM 6.36 43.448 0.383 8.15 3.22 12.96
12/16/2021 5:30:00 AM 6.39 43.502 0.248 8.15 2.61 12.93
12/16/2021 5:45:00 AM 6.4 43.52 0.366 8.14 2.6 12.88
12/16/2021 6:00:00 AM 6.42 43.556 0.25 8.14 2.68 12.83
12/16/2021 6:15:00 AM 6.43 43.574 0.309 8.13 2.7 12.78
12/16/2021 6:30:00 AM 6.44 43.592 0.333 8.13 2.69 12.72
12/16/2021 6:45:00 AM 6.46 43.628 0.322 8.1 2.72 12.67
12/16/2021 7:00:00 AM 6.48 43.664 0.234 8.09 2.61 12.6
12/16/2021 7:15:00 AM 6.49 43.682 0.384 8.08 2.72 12.54
12/16/2021 7:30:00 AM 6.5 43.7 0.22 8.07 2.55 12.48
12/16/2021 7:45:00 AM 6.5 43.7 0.312 8.07 2.91 12.46
12/16/2021 8:00:00 AM 6.52 43.736 0.657 8.07 3.05 12.44
12/16/2021 8:15:00 AM 6.54 43.772 0.314 8.05 3.22 12.41
12/16/2021 8:30:00 AM 6.56 43.808 0.326 8.05 2.98 12.37
12/16/2021 8:45:00 AM 6.6 43.88 0.379 8.04 2.93 12.34
12/16/2021 9:00:00 AM 6.64 43.952 0.341 8.03 3.45 12.32
12/16/2021 9:15:00 AM 6.66 43.988 0.398 8.02 3.32 12.27
12/16/2021 9:30:00 AM 6.7 44.06 0.337 8.03 5.52 12.29
12/16/2021 9:45:00 AM 6.72 44.096 0.377 8.02 2.8 12.27
12/16/2021 10:00:00 AM 6.77 44.186 0.312 8.02 3.01 12.28
12/16/2021 10:15:00 AM 6.8 44.24 0.345 8.02 3.24 12.23
12/16/2021 10:30:00 AM 6.85 44.33 0.357 8.02 3.01 12.23
12/16/2021 10:45:00 AM 6.87 44.366 0.652 8 3.16 12.15
12/16/2021 11:00:00 AM 6.94 44.492 0.38 8 3.33 12.14
12/16/2021 11:15:00 AM 7 44.6 0.318 8 3.18 12.12
12/16/2021 11:30:00 AM 7.06 44.708 0.229 7.91 3.05 12.1
12/16/2021 11:45:00 AM 7.11 44.798 0.246 7.99 2.71 12.06
12/16/2021 12:00:00 PM 7.17 44.906 0.359 7.98 2.84 12.02
12/16/2021 12:15:00 PM 7.21 44.978 0.338 7.98 3.05 11.98
12/16/2021 12:30:00 PM 7.26 45.068 0.367 7.96 3.12 11.93
12/16/2021 12:45:00 PM 7.31 45.158 0.282 7.96 2.96 11.89
12/16/2021 1:00:00 PM 7.36 45.248 0.252 7.97 2.91 11.85
12/16/2021 1:15:00 PM 7.41 45.338 0.356 7.96 3.55 11.81
12/16/2021 1:30:00 PM 7.43 45.374 0.261 7.95 2.97 11.78
12/16/2021 1:45:00 PM 7.45 45.41 0.289 7.95 2.95 11.73
12/16/2021 2:00:00 PM 7.48 45.464 0.324 7.93 2.81 11.69
12/16/2021 2:15:00 PM 7.5 45.5 0.223 7.93 3.35 11.63
12/16/2021 2:30:00 PM 7.52 45.536 0.242 7.91 2.85 11.6
12/16/2021 2:45:00 PM 7.53 45.554 0.276 7.92 2.63 11.55
12/16/2021 3:00:00 PM 7.55 45.59 0.289 7.92 2.77 11.51
12/16/2021 3:15:00 PM 7.55 45.59 0.26 7.91 2.65 11.45
12/16/2021 3:30:00 PM 7.54 45.572 0.244 7.9 2.52 11.41
12/16/2021 3:45:00 PM 7.53 45.554 0.347 7.9 2.93 11.36
12/16/2021 4:00:00 PM 7.53 45.554 0.271 7.9 2.99 11.34
12/16/2021 4:15:00 PM 7.53 45.554 0.401 7.89 2.95 11.29
12/16/2021 4:30:00 PM 7.53 45.554 0.382 7.88 2.85 11.25
12/16/2021 4:45:00 PM 7.54 45.572 0.678 7.87 2.78 11.19
12/16/2021 5:00:00 PM 7.54 45.572 0.258 7.89 2.95 11.17
12/16/2021 5:15:00 PM 7.53 45.554 0.614 7.88 2.66 11.14
12/16/2021 5:30:00 PM 7.54 45.572 0.349 7.87 2.57 11.11
12/16/2021 5:45:00 PM 7.55 45.59 0.42 7.87 2.86 11.14
12/16/2021 6:00:00 PM 7.56 45.608 0.359 7.87 2.83 11.15
12/16/2021 6:15:00 PM 7.56 45.608 0.29 7.87 2.66 11.15
12/16/2021 6:30:00 PM 7.57 45.626 0.353 7.86 2.46 11.15
12/16/2021 6:45:00 PM 7.56 45.608 0.288 7.86 2.73 11.14
12/16/2021 7:00:00 PM 7.56 45.608 0.374 7.86 2.56 11.16
12/16/2021 7:15:00 PM 7.56 45.608 0.334 7.86 2.53 11.12
12/16/2021 7:30:00 PM 7.56 45.608 0.407 7.86 2.91 11.15
12/16/2021 7:45:00 PM 7.55 45.59 0.666 7.85 2.45 11.14
12/16/2021 8:00:00 PM 7.53 45.554 0.418 7.85 2.54 11.18
12/16/2021 8:15:00 PM 7.52 45.536 0.663 7.86 2.36 11.2
12/16/2021 8:30:00 PM 7.51 45.518 0.402 7.86 2.57 11.2
12/16/2021 8:45:00 PM 7.5 45.5 0.359 7.87 2.93 11.24
12/16/2021 9:00:00 PM 7.5 45.5 0.366 7.88 2.41 11.25
12/16/2021 9:15:00 PM 7.5 45.5 0.346 7.87 2.59 11.23
12/16/2021 9:30:00 PM 7.49 45.482 0.657 7.88 2.44 11.24
12/16/2021 9:45:00 PM 7.5 45.5 0.311 7.87 2.25 11.25
12/16/2021 10:00:00 PM 7.5 45.5 0.34 7.88 2.48 11.27
12/16/2021 10:15:00 PM 7.51 45.518 0.328 7.87 2.67 11.28
12/16/2021 10:30:00 PM 7.52 45.536 0.234 7.89 2.57 11.36
12/16/2021 10:45:00 PM 7.54 45.572 0.36 7.9 2.71 11.38
12/16/2021 11:00:00 PM 7.55 45.59 0.649 7.91 2.36 11.43
12/16/2021 11:15:00 PM 7.56 45.608 0.335 7.91 3.38 11.42
12/16/2021 11:30:00 PM 7.57 45.626 0.226 7.91 2.53 11.46
12/16/2021 11:45:00 PM 7.59 45.662 0.337 7.93 2.43 11.54
12/17/2021 12:00:00 AM 7.61 45.698 0.246 7.94 2.42 11.6
12/17/2021 12:15:00 AM 7.63 45.734 0.353 7.95 2.51 11.65
12/17/2021 12:30:00 AM 7.66 45.788 0.644 7.97 2.21 11.71
12/17/2021 12:45:00 AM 7.69 45.842 0.261 7.98 2.21 11.79
12/17/2021 1:00:00 AM 7.73 45.914 0.344 7.99 3.88 11.85
12/17/2021 1:15:00 AM 7.76 45.968 0.342 8 3.43 11.87
12/17/2021 1:30:00 AM 7.8 46.04 0.228 8.02 3.22 11.92
12/17/2021 1:45:00 AM 7.83 46.094 0.224 8.03 2.47 11.97
12/17/2021 2:00:00 AM 7.86 46.148 0.248 8.06 2.37 12.07
12/17/2021 2:15:00 AM 7.89 46.202 0.376 8.07 2.33 12.06
12/17/2021 2:30:00 AM 7.91 46.238 0.355 8.08 2.4 12.08
12/17/2021 2:45:00 AM 7.94 46.292 0.342 8.1 2.21 12.12
12/17/2021 3:00:00 AM 7.96 46.328 0.243 8.09 2.4 12.14
12/17/2021 3:15:00 AM 7.98 46.364 0.248 8.1 2.41 12.15
12/17/2021 3:30:00 AM 8 46.4 0.64 8.11 2.09 12.15
12/17/2021 3:45:00 AM 8.02 46.436 0.64 8.11 2.4 12.14
12/17/2021 4:00:00 AM 8.04 46.472 0.219 8.1 2.21 12.15
12/17/2021 4:15:00 AM 8.05 46.49 0.259 8.11 2.8 12.13
12/17/2021 4:30:00 AM 8.05 46.49 0.341 8.11 2.42 12.09
12/17/2021 4:45:00 AM 8.05 46.49 0.382 8.11 3.64 12.08
12/17/2021 5:00:00 AM 8.05 46.49 0.232 8.1 2.66 12.03
12/17/2021 5:15:00 AM 8.07 46.526 0.311 8.1 3.07 11.99
12/17/2021 5:30:00 AM 8.08 46.544 0.32 8.09 4.12 11.93
12/17/2021 5:45:00 AM 8.07 46.526 0.329 8.08 3.37 11.84
12/17/2021 6:00:00 AM 8.07 46.526 0.279 8.07 6.78 11.68
12/17/2021 6:15:00 AM 8.06 46.508 0.331 8.06 2.98 11.6
12/17/2021 6:30:00 AM 8.05 46.49 0.35 8.05 3.93 11.65
12/17/2021 6:45:00 AM 8.04 46.472 0.333 8.05 2.77 11.69
12/17/2021 7:00:00 AM 8.02 46.436 0.309 8.03 2.37 11.64
12/17/2021 7:15:00 AM 8.01 46.418 0.34 8.02 2.62 11.61
12/17/2021 7:30:00 AM 8 46.4 0.317 8.01 2.88 11.57
12/17/2021 7:45:00 AM 7.99 46.382 0.23 8 5.16 11.58
12/17/2021 8:00:00 AM 7.97 46.346 0.635 7.99 3.38 11.52
12/17/2021 8:15:00 AM 7.97 46.346 0.236 7.99 3.09 11.54
12/17/2021 8:30:00 AM 7.97 46.346 0.215 7.99 2.87 11.54
12/17/2021 8:45:00 AM 7.97 46.346 0.27 8 2.69 11.52
12/17/2021 9:00:00 AM 7.98 46.364 0.369 8 2.72 11.58
12/17/2021 9:15:00 AM 7.99 46.382 0.247 8 2.68 11.59
12/17/2021 9:30:00 AM 8.01 46.418 0.256 7.99 2.37 11.65
12/17/2021 9:45:00 AM 8.02 46.436 0.312 8 2.63 11.67
12/17/2021 10:00:00 AM 8.04 46.472 0.348 8 2.68 11.68
12/17/2021 10:15:00 AM 8.07 46.526 0.342 7.99 2.96 11.67
12/17/2021 10:30:00 AM 8.08 46.544 0.271 7.99 2.93 11.64
12/17/2021 10:45:00 AM 8.1 46.58 0.331 7.98 2.44 11.6
12/17/2021 11:00:00 AM 8.13 46.634 0.325 7.97 2.33 11.61
12/17/2021 11:15:00 AM 8.17 46.706 0.244 7.98 2.63 11.6
12/17/2021 11:30:00 AM 8.24 46.832 0.338 7.98 2.57 11.64
12/17/2021 11:45:00 AM 8.24 46.832 0.229 7.97 2.68 11.5
12/17/2021 12:00:00 PM 8.28 46.904 0.267 7.97 2.4 11.54
12/17/2021 12:15:00 PM 8.34 47.012 0.353 7.97 47.78 11.4
12/17/2021 12:30:00 PM 8.37 47.066 0.31 7.97 3.53 11.52
12/17/2021 12:45:00 PM 8.41 47.138 0.321 7.96 3.06 11.56
12/17/2021 1:00:00 PM 8.42 47.156 0.231 7.95 2.53 11.47
12/17/2021 1:15:00 PM 8.43 47.174 0.398 7.95 2.7 11.44
12/17/2021 1:30:00 PM 8.46 47.228 0.33 7.95 2.32 11.46
12/17/2021 1:45:00 PM 8.46 47.228 0.574 7.95 2.62 11.38
12/17/2021 2:00:00 PM 8.48 47.264 0.329 7.94 2.34 11.35
12/17/2021 2:15:00 PM 8.5 47.3 0.379 7.94 2.8 11.33
12/17/2021 2:30:00 PM 8.51 47.318 0.339 7.93 2.63 11.28
12/17/2021 2:45:00 PM 8.51 47.318 0.38 7.94 2.55 11.24
12/17/2021 3:00:00 PM 8.5 47.3 0.577 7.92 3.23 11.2
12/17/2021 3:15:00 PM 8.5 47.3 0.638 7.91 2.48 11.1
12/17/2021 3:30:00 PM 8.51 47.318 0.641 7.92 2.58 11.1
12/17/2021 3:45:00 PM 8.52 47.336 0.641 7.9 2.39 10.97
12/17/2021 4:00:00 PM 8.52 47.336 0.319 7.89 2.69 10.94
12/17/2021 4:15:00 PM 8.51 47.318 0.254 7.89 2.57 10.91
12/17/2021 4:30:00 PM 8.51 47.318 0.321 7.88 2.58 10.89
12/17/2021 4:45:00 PM 8.5 47.3 0.338 7.88 2.69 10.84
12/17/2021 5:00:00 PM 8.49 47.282 0.358 7.87 2.8 10.78
12/17/2021 5:15:00 PM 8.49 47.282 0.335 7.87 2.52 10.77
12/17/2021 5:30:00 PM 8.48 47.264 0.35 7.86 2.8 10.74
12/17/2021 5:45:00 PM 8.48 47.264 0.331 7.85 2.75 10.7
12/17/2021 6:00:00 PM 8.47 47.246 0.649 7.86 2.44 10.73
12/17/2021 6:15:00 PM 8.47 47.246 0.331 7.85 2.63 10.79
12/17/2021 6:30:00 PM 8.46 47.228 0.317 7.85 2.58 10.75
12/17/2021 6:45:00 PM 8.46 47.228 0.245 7.85 2.49 10.78
12/17/2021 7:00:00 PM 8.45 47.21 0.588 7.85 2.39 10.78
12/17/2021 7:15:00 PM 8.44 47.192 0.264 7.84 45.43 10.61
12/17/2021 7:30:00 PM 8.42 47.156 0.218 7.84 4.28 10.8
12/17/2021 7:45:00 PM 8.4 47.12 0.265 7.85 2.73 10.81
12/17/2021 8:00:00 PM 8.38 47.084 0.327 7.85 2.67 10.81
12/17/2021 8:15:00 PM 8.36 47.048 0.342 7.85 2.49 10.83
12/17/2021 8:30:00 PM 8.34 47.012 0.652 7.86 2.42 10.78
12/17/2021 8:45:00 PM 8.32 46.976 0.283 7.86 2.57 10.87
12/17/2021 9:00:00 PM 8.31 46.958 0.388 7.86 2.61 10.91
12/17/2021 9:15:00 PM 8.29 46.922 0.386 7.85 2.76 10.93
12/17/2021 9:30:00 PM 8.28 46.904 0.395 7.86 2.36 10.97
12/17/2021 9:45:00 PM 8.27 46.886 0.319 7.86 2.33 10.99
12/17/2021 10:00:00 PM 8.27 46.886 0.386 7.87 2.58 11.02
12/17/2021 10:15:00 PM 8.26 46.868 0.24 7.87 2.45 11
12/17/2021 10:30:00 PM 8.26 46.868 0.591 7.88 2.47 11.03
12/17/2021 10:45:00 PM 8.25 46.85 0.29 7.88 2.42 11.07
12/17/2021 11:00:00 PM 8.25 46.85 0.652 7.9 2.91 11.11
12/17/2021 11:15:00 PM 8.26 46.868 0.288 7.88 2.45 11.14
12/17/2021 11:30:00 PM 8.26 46.868 0.235 7.91 2.4 11.2
12/17/2021 11:45:00 PM 8.26 46.868 0.339 7.92 2.59 11.29
12/18/2021 12:00:00 AM 8.27 46.886 0.337 7.93 2.49 11.32
12/18/2021 12:15:00 AM 8.27 46.886 0.27 7.95 2.64 11.43
12/18/2021 12:30:00 AM 8.28 46.904 0.314 7.95 2.78 11.42
12/18/2021 12:45:00 AM 8.28 46.904 0.353 7.98 2.56 11.54
12/18/2021 1:00:00 AM 8.29 46.922 0.225 7.99 2.36 11.65
12/18/2021 1:15:00 AM 8.31 46.958 0.318 8.01 2.7 11.7
12/18/2021 1:30:00 AM 8.32 46.976 0.585 8.04 2.38 11.79
12/18/2021 1:45:00 AM 8.33 46.994 0.33 8.06 2.46 11.88
12/18/2021 2:00:00 AM 8.34 47.012 0.385 8.08 2.76 11.9
12/18/2021 2:15:00 AM 8.35 47.03 0.319 8.09 2.48 11.91
12/18/2021 2:30:00 AM 8.36 47.048 0.271 8.12 2.43 12
12/18/2021 2:45:00 AM 8.37 47.066 0.272 8.14 2.63 12.09
12/18/2021 3:00:00 AM 8.38 47.084 0.257 8.15 2.44 12.1
12/18/2021 3:15:00 AM 8.39 47.102 0.264 8.17 2.43 12.16
12/18/2021 3:30:00 AM 8.4 47.12 0.256 8.19 2.75 12.21
12/18/2021 3:45:00 AM 8.4 47.12 0.275 8.21 3.28 12.16
12/18/2021 4:00:00 AM 8.41 47.138 0.218 8.22 2.67 12.21
12/18/2021 4:15:00 AM 8.4 47.12 0.273 8.23 2.49 12.16
12/18/2021 4:30:00 AM 8.4 47.12 0.334 8.23 2.74 12.2
12/18/2021 4:45:00 AM 8.4 47.12 0.267 8.23 2.53 12.16
12/18/2021 5:00:00 AM 8.39 47.102 0.217 8.22 2.53 12.15
12/18/2021 5:15:00 AM 8.38 47.084 0.235 8.22 2.66 12.09
12/18/2021 5:30:00 AM 8.37 47.066 0.347 8.22 2.84 12.03
12/18/2021 5:45:00 AM 8.34 47.012 0.215 8.2 2.73 12.02
12/18/2021 6:00:00 AM 8.32 46.976 0.202 8.19 2.66 11.96
12/18/2021 6:15:00 AM 8.3 46.94 0.632 8.19 2.73 11.95
12/18/2021 6:30:00 AM 8.27 46.886 0.273 8.18 2.58 11.87
12/18/2021 6:45:00 AM 8.25 46.85 0.227 8.15 2.61 11.85
12/18/2021 7:00:00 AM 8.23 46.814 0.326 8.14 2.79 11.77
12/18/2021 7:15:00 AM 8.21 46.778 0.339 8.13 2.65 11.73
12/18/2021 7:30:00 AM 8.19 46.742 0.229 8.11 2.44 11.67
12/18/2021 7:45:00 AM 8.16 46.688 0.32 8.1 2.59 11.67
12/18/2021 8:00:00 AM 8.14 46.652 0.298 8.09 2.46 11.64
12/18/2021 8:15:00 AM 8.12 46.616 0.346 8.07 2.74 11.63
12/18/2021 8:30:00 AM 8.1 46.58 0.206 8.06 3.62 11.58
12/18/2021 8:45:00 AM 8.09 46.562 0.285 8.06 3.01 11.57
12/18/2021 9:00:00 AM 8.08 46.544 0.205 8.03 2.56 11.52
12/18/2021 9:15:00 AM 8.06 46.508 0.303 8.04 2.66 11.5
12/18/2021 9:30:00 AM 8.05 46.49 0.568 8.03 2.55 11.51
12/18/2021 9:45:00 AM 8.03 46.454 0.309 8.02 3.22 11.47
12/18/2021 10:00:00 AM 8.02 46.436 0.255 8.01 2.71 11.44
12/18/2021 10:15:00 AM 8.01 46.418 0.235 8 2.75 11.42
12/18/2021 10:30:00 AM 8.01 46.418 0.212 8 2.77 11.38
12/18/2021 10:45:00 AM 8 46.4 0.385 8 2.55 11.36
12/18/2021 11:00:00 AM 8 46.4 0.334 7.98 2.51 11.39
12/18/2021 11:15:00 AM 7.99 46.382 0.324 7.98 2.68 11.33
12/18/2021 11:30:00 AM 7.99 46.382 0.242 7.97 3.01 11.35
12/18/2021 11:45:00 AM 7.99 46.382 0.302 7.97 2.69 11.36
12/18/2021 12:00:00 PM 8.01 46.418 0.631 7.97 2.83 11.39
12/18/2021 12:15:00 PM 8.02 46.436 0.225 7.96 2.72 11.37
12/18/2021 12:30:00 PM 8.02 46.436 0.341 7.96 2.77 11.31
12/18/2021 12:45:00 PM 8.03 46.454 0.219 7.95 2.43 11.33
12/18/2021 1:00:00 PM 8.04 46.472 0.329 7.95 2.52 11.27
12/18/2021 1:15:00 PM 8.05 46.49 0.634 7.94 2.55 11.27
12/18/2021 1:30:00 PM 8.04 46.472 0.635 7.94 2.79 11.21
12/18/2021 1:45:00 PM 8.04 46.472 0.305 7.93 2.5 11.21
12/18/2021 2:00:00 PM 8.04 46.472 0.639 7.93 2.41 11.14
12/18/2021 2:15:00 PM 8.03 46.454 0.234 7.92 2.38 11.08
12/18/2021 2:30:00 PM 8.03 46.454 0.305 7.92 2.62 11.06
12/18/2021 2:45:00 PM 8.03 46.454 0.311 7.9 2.38 11.03
12/18/2021 3:00:00 PM 8.03 46.454 0.28 7.91 2.36 11.04
12/18/2021 3:15:00 PM 8.04 46.472 0.342 7.91 2.67 11.05
12/18/2021 3:30:00 PM 8.04 46.472 0.205 7.91 2.69 11
12/18/2021 3:45:00 PM 8.03 46.454 0.318 7.9 2.32 10.97
12/18/2021 4:00:00 PM 8.03 46.454 0.321 7.89 2.22 10.93
12/18/2021 4:15:00 PM 8.02 46.436 0.339 7.89 2.49 10.87
12/18/2021 4:30:00 PM 8.01 46.418 0.245 7.87 2.08 10.82
12/18/2021 4:45:00 PM 8 46.4 0.405 7.87 2.78 10.81
12/18/2021 5:00:00 PM 7.99 46.382 0.653 7.87 3.04 10.78
12/18/2021 5:15:00 PM 7.99 46.382 0.334 7.86 2.69 10.79
12/18/2021 5:30:00 PM 7.98 46.364 0.364 7.85 2.51 10.78
12/18/2021 5:45:00 PM 7.97 46.346 0.577 7.86 2.58 10.78
12/18/2021 6:00:00 PM 7.96 46.328 0.268 7.85 2.55 10.79
12/18/2021 6:15:00 PM 7.95 46.31 0.371 7.85 2.53 10.8
12/18/2021 6:30:00 PM 7.95 46.31 0.319 7.85 2.22 10.79
12/18/2021 6:45:00 PM 7.94 46.292 0.386 7.85 2.16 10.79
12/18/2021 7:00:00 PM 7.93 46.274 0.33 7.85 2.4 10.76
12/18/2021 7:15:00 PM 7.92 46.256 0.6 7.85 2.3 10.77
12/18/2021 7:30:00 PM 7.91 46.238 0.324 7.85 2.31 10.76
12/18/2021 7:45:00 PM 7.89 46.202 0.374 7.85 2.22 10.77
12/18/2021 8:00:00 PM 7.88 46.184 0.355 7.85 2.46 10.8
12/18/2021 8:15:00 PM 7.86 46.148 0.283 7.85 2.11 10.76
12/18/2021 8:30:00 PM 7.84 46.112 0.238 7.85 3.2 10.81
12/18/2021 8:45:00 PM 7.83 46.094 0.335 7.85 1.94 10.82
12/18/2021 9:00:00 PM 7.81 46.058 0.272 7.85 2.34 10.84
12/18/2021 9:15:00 PM 7.79 46.022 0.354 7.86 2.34 10.87
12/18/2021 9:30:00 PM 7.79 46.022 0.35 7.86 2.01 10.88
12/18/2021 9:45:00 PM 7.79 46.022 0.281 7.86 2.21 10.92
12/18/2021 10:00:00 PM 7.79 46.022 0.338 7.86 2.16 10.92
12/18/2021 10:15:00 PM 7.79 46.022 0.392 7.87 2.48 10.93
12/18/2021 10:30:00 PM 7.79 46.022 0.662 7.86 2.39 10.96
12/18/2021 10:45:00 PM 7.8 46.04 0.332 7.87 2.35 10.97
12/18/2021 11:00:00 PM 7.8 46.04 0.264 7.87 2.5 11.02
12/18/2021 11:15:00 PM 7.79 46.022 0.371 7.87 2.58 11.03
12/18/2021 11:30:00 PM 7.79 46.022 0.597 7.89 2.18 11.04
12/18/2021 11:45:00 PM 7.78 46.004 0.27 7.89 2.74 11
12/19/2021 12:00:00 AM 7.79 46.022 0.253 7.9 2.57 11.15
12/19/2021 12:15:00 AM 7.78 46.004 0.244 7.9 4.02 11.13
12/19/2021 12:30:00 AM 7.78 46.004 0.264 7.92 3.19 11.24
12/19/2021 12:45:00 AM 7.79 46.022 0.365 7.92 2.86 11.27
12/19/2021 1:00:00 AM 7.79 46.022 0.595 7.93 2.4 11.34
12/19/2021 1:15:00 AM 7.79 46.022 0.227 7.93 2.31 11.36
12/19/2021 1:30:00 AM 7.8 46.04 0.32 7.95 2.37 11.43
12/19/2021 1:45:00 AM 7.8 46.04 0.242 7.96 2.19 11.45
12/19/2021 2:00:00 AM 7.8 46.04 0.323 7.98 2.47 11.5
12/19/2021 2:15:00 AM 7.81 46.058 0.655 7.99 2.5 11.53
12/19/2021 2:30:00 AM 7.82 46.076 0.252 8 2.41 11.58
12/19/2021 2:45:00 AM 7.83 46.094 0.354 8 2.57 11.59
12/19/2021 3:00:00 AM 7.84 46.112 0.261 8.01 3.06 11.58
12/19/2021 3:15:00 AM 7.83 46.094 0.364 8.02 2.6 11.62
12/19/2021 3:30:00 AM 7.83 46.094 0.351 8.02 2.6 11.65
12/19/2021 3:45:00 AM 7.82 46.076 0.332 8.02 2.7 11.62
12/19/2021 4:00:00 AM 7.82 46.076 0.26 8.02 2.46 11.59
12/19/2021 4:15:00 AM 7.81 46.058 0.645 8.02 2.79 11.58
12/19/2021 4:30:00 AM 7.81 46.058 0.325 8.01 2.59 11.57
12/19/2021 4:45:00 AM 7.79 46.022 0.583 8.01 4.31 11.5
12/19/2021 5:00:00 AM 7.79 46.022 0.397 8.01 3.37 11.5
12/19/2021 5:15:00 AM 7.77 45.986 0.315 8.01 2.49 11.46
12/19/2021 5:30:00 AM 7.74 45.932 0.219 8 2.78 11.43
12/19/2021 5:45:00 AM 7.72 45.896 0.25 8 3.02 11.46
12/19/2021 6:00:00 AM 7.71 45.878 0.236 7.98 2.29 11.42
12/19/2021 6:15:00 AM 7.71 45.878 0.329 7.98 2.21 11.41
12/19/2021 6:30:00 AM 7.69 45.842 0.315 7.98 2.22 11.33
12/19/2021 6:45:00 AM 7.67 45.806 0.258 7.97 2.5 11.33
12/19/2021 7:00:00 AM 7.66 45.788 0.323 7.96 2.45 11.32
12/19/2021 7:15:00 AM 7.65 45.77 0.388 7.96 2.21 11.31
12/19/2021 7:30:00 AM 7.62 45.716 0.374 7.96 2.15 11.28
12/19/2021 7:45:00 AM 7.61 45.698 0.225 7.94 2.36 11.29
12/19/2021 8:00:00 AM 7.58 45.644 0.294 7.93 2.61 11.21
12/19/2021 8:15:00 AM 7.57 45.626 0.335 7.94 2.14 11.26
12/19/2021 8:30:00 AM 7.56 45.608 0.37 7.94 2.55 11.22
12/19/2021 8:45:00 AM 7.55 45.59 0.31 7.93 2.18 11.25
12/19/2021 9:00:00 AM 7.56 45.608 0.36 7.94 1.92 11.31
12/19/2021 9:15:00 AM 7.56 45.608 0.364 7.88 2.21 11.36
12/19/2021 9:30:00 AM 7.56 45.608 0.355 7.93 2.19 11.39
12/19/2021 9:45:00 AM 7.55 45.59 0.284 7.92 2.14 11.37
12/19/2021 10:00:00 AM 7.54 45.572 0.323 7.92 2.16 11.3
12/19/2021 10:15:00 AM 7.52 45.536 0.212 7.91 2.1 11.23
12/19/2021 10:30:00 AM 7.53 45.554 0.306 7.92 2.83 11.32
12/19/2021 10:45:00 AM 7.54 45.572 0.371 7.93 2 11.37
12/19/2021 11:00:00 AM 7.56 45.608 0.306 7.94 1.84 11.42
12/19/2021 11:15:00 AM 7.58 45.644 0.37 7.94 2.1 11.45
12/19/2021 11:30:00 AM 7.61 45.698 0.334 7.94 2.04 11.48
12/19/2021 11:45:00 AM 7.65 45.77 0.622 7.94 2.08 11.49
12/19/2021 12:00:00 PM 7.64 45.752 0.253 7.94 2.18 11.45
12/19/2021 12:15:00 PM 7.63 45.734 0.332 7.93 1.91 11.43
12/19/2021 12:30:00 PM 7.62 45.716 0.301 7.93 8.4 11.41
12/19/2021 12:45:00 PM 7.63 45.734 0.256 7.93 2.33 11.41
12/19/2021 1:00:00 PM 7.64 45.752 0.314 7.93 2.06 11.4
12/19/2021 1:15:00 PM 7.63 45.734 0.295 7.92 1.97 11.33
12/19/2021 1:30:00 PM 7.63 45.734 0.209 7.92 2.21 11.39
12/19/2021 1:45:00 PM 7.63 45.734 0.339 7.92 2 11.37
12/19/2021 2:00:00 PM 7.63 45.734 0.628 7.92 2.14 11.35
12/19/2021 2:15:00 PM 7.63 45.734 0.229 7.92 1.84 11.33
12/19/2021 2:30:00 PM 7.6 45.68 0.236 7.91 1.88 11.3
12/19/2021 2:45:00 PM 7.57 45.626 0.375 7.85 2.11 11.28
12/19/2021 3:00:00 PM 7.55 45.59 0.377 7.9 2.05 11.23
12/19/2021 3:15:00 PM 7.53 45.554 0.29 7.88 1.9 11.24
12/19/2021 3:30:00 PM 7.49 45.482 0.257 7.9 2.01 11.23
12/19/2021 3:45:00 PM 7.47 45.446 0.304 7.89 2 11.21
12/19/2021 4:00:00 PM 7.44 45.392 0.396 7.89 1.81 11.19
12/19/2021 4:15:00 PM 7.4 45.32 0.379 7.88 2.02 11.16
12/19/2021 4:30:00 PM 7.38 45.284 0.324 7.88 1.9 11.17
12/19/2021 4:45:00 PM 7.35 45.23 0.296 7.88 2.48 11.15
12/19/2021 5:00:00 PM 7.32 45.176 0.326 7.87 1.82 11.14
12/19/2021 5:15:00 PM 7.3 45.14 0.26 7.88 2.37 11.14
12/19/2021 5:30:00 PM 7.27 45.086 0.646 7.88 2.02 11.14
12/19/2021 5:45:00 PM 7.24 45.032 0.379 7.88 2.08 11.14
12/19/2021 6:00:00 PM 7.22 44.996 0.324 7.88 1.9 11.18
12/19/2021 6:15:00 PM 7.19 44.942 0.374 7.87 2.11 11.18
12/19/2021 6:30:00 PM 7.17 44.906 0.463 7.87 1.98 11.19
12/19/2021 6:45:00 PM 7.15 44.87 0.345 7.88 2.13 11.21
12/19/2021 7:00:00 PM 7.12 44.816 0.245 7.88 2.26 11.19
12/19/2021 7:15:00 PM 7.09 44.762 0.205 7.87 1.98 11.21
12/19/2021 7:30:00 PM 7.06 44.708 0.308 7.87 2.14 11.23
12/19/2021 7:45:00 PM 7.01 44.618 0.233 7.88 2.83 11.27
12/19/2021 8:00:00 PM 6.97 44.546 0.348 7.89 2.23 11.29
12/19/2021 8:15:00 PM 6.91 44.438 0.352 7.89 2.11 11.32
12/19/2021 8:30:00 PM 6.85 44.33 0.652 7.9 1.93 11.36
12/19/2021 8:45:00 PM 6.8 44.24 0.59 7.89 2.09 11.4
12/19/2021 9:00:00 PM 6.74 44.132 0.203 7.88 2.07 11.44
12/19/2021 9:15:00 PM 6.68 44.024 0.654 7.91 2.07 11.47
12/19/2021 9:30:00 PM 6.63 43.934 0.316 7.9 2.1 11.49
12/19/2021 9:45:00 PM 6.58 43.844 0.267 7.92 2.32 11.56
12/19/2021 10:00:00 PM 6.54 43.772 0.23 7.91 2.16 11.61
12/19/2021 10:15:00 PM 6.5 43.7 0.436 7.93 2.11 11.66
12/19/2021 10:30:00 PM 6.47 43.646 0.341 7.94 2.31 11.71
12/19/2021 10:45:00 PM 6.43 43.574 0.398 7.94 2.22 11.72
12/19/2021 11:00:00 PM 6.4 43.52 0.655 7.95 2 11.79
12/19/2021 11:15:00 PM 6.37 43.466 0.325 7.96 2.64 11.82
12/19/2021 11:30:00 PM 6.33 43.394 0.378 7.96 2.28 11.87
12/19/2021 11:45:00 PM 6.29 43.322 0.377 7.98 2.42 11.9
12/20/2021 12:00:00 AM 6.26 43.268 0.345 7.98 3.46 11.97
12/20/2021 12:15:00 AM 6.22 43.196 0.254 7.99 2.63 12
12/20/2021 12:30:00 AM 6.19 43.142 0.345 8.01 2.37 12.11
12/20/2021 12:45:00 AM 6.15 43.07 0.26 8.02 2.47 12.18
12/20/2021 1:00:00 AM 6.12 43.016 0.215 8.03 2.51 12.24
12/20/2021 1:15:00 AM 6.09 42.962 0.313 8.05 2.37 12.29
12/20/2021 1:30:00 AM 6.06 42.908 0.206 8.06 2.18 12.36
12/20/2021 1:45:00 AM 6.03 42.854 0.37 8.09 2.24 12.41
12/20/2021 2:00:00 AM 5.99 42.782 0.339 8.1 2.11 12.48
12/20/2021 2:15:00 AM 5.96 42.728 0.368 8.11 2.23 12.54
12/20/2021 2:30:00 AM 5.92 42.656 0.258 8.13 2.15 12.58
12/20/2021 2:45:00 AM 5.89 42.602 0.39 8.14 2.08 12.6
12/20/2021 3:00:00 AM 5.86 42.548 0.643 8.14 2.12 12.61
12/20/2021 3:15:00 AM 5.82 42.476 0.372 8.15 2.12 12.67
12/20/2021 3:30:00 AM 5.78 42.404 0.379 8.16 2.01 12.69
12/20/2021 3:45:00 AM 5.74 42.332 0.201 8.16 2.29 12.69
12/20/2021 4:00:00 AM 5.7 42.26 0.29 8.17 2.21 12.68
12/20/2021 4:15:00 AM 5.66 42.188 0.329 8.17 2.06 12.69
12/20/2021 4:30:00 AM 5.61 42.098 0.315 8.18 2.1 12.7
12/20/2021 4:45:00 AM 5.57 42.026 0.272 8.17 2.19 12.66
12/20/2021 5:00:00 AM 5.52 41.936 0.275 8.17 2.09 12.64
12/20/2021 5:15:00 AM 5.48 41.864 0.188 8.15 2.16 12.67
12/20/2021 5:30:00 AM 5.43 41.774 0.271 8.16 2.23 12.63
12/20/2021 5:45:00 AM 5.38 41.684 0.235 8.14 2.27 12.65
12/20/2021 6:00:00 AM 5.33 41.594 0.254 8.14 2.11 12.61
12/20/2021 6:15:00 AM 5.29 41.522 0.325 8.12 2.27 12.61
12/20/2021 6:30:00 AM 5.24 41.432 0.339 8.11 2.34 12.57
12/20/2021 6:45:00 AM 5.18 41.324 0.217 8.09 2.27 12.55
12/20/2021 7:00:00 AM 5.13 41.234 0.404 8.08 2.22 12.51
12/20/2021 7:15:00 AM 5.07 41.126 0.48 8.08 2.27 12.49
12/20/2021 7:30:00 AM 5.03 41.054 0.391 8.07 2.25 12.48
12/20/2021 7:45:00 AM 4.99 40.982 0.225 8.06 1.96 12.49
12/20/2021 8:00:00 AM 4.95 40.91 0.489 8.06 2.24 12.47
12/20/2021 8:15:00 AM 4.91 40.838 0.255 8.05 2.19 12.49
12/20/2021 8:30:00 AM 4.89 40.802 0.311 8.03 2.37 12.5
12/20/2021 8:45:00 AM 4.86 40.748 0.491 8.05 2.03 12.52
12/20/2021 9:00:00 AM 4.84 40.712 0.371 8.04 2.15 12.55
12/20/2021 9:15:00 AM 4.83 40.694 0.308 8.03 2.29 12.55
12/20/2021 9:30:00 AM 4.82 40.676 0.345 8.05 2.41 12.56
12/20/2021 9:45:00 AM 4.81 40.658 0.351 8.04 2.22 12.56
12/20/2021 10:00:00 AM 4.81 40.658 0.239 8.04 2.2 12.58
12/20/2021 10:15:00 AM 4.81 40.658 0.265 8.02 2.09 12.6
12/20/2021 10:30:00 AM 4.8 40.64 0.334 8.04 2.12 12.6
12/20/2021 10:45:00 AM 4.8 40.64 0.348 8.04 2.15 12.6
12/20/2021 11:00:00 AM 4.8 40.64 0.248 8.03 2.12 12.61
12/20/2021 11:15:00 AM 4.8 40.64 0.304 8.02 2.17 12.6
12/20/2021 11:30:00 AM 4.81 40.658 0.49 8.03 2.25 12.6
12/20/2021 11:45:00 AM 4.81 40.658 0.333 8.03 2.16 12.56
12/20/2021 12:00:00 PM 4.81 40.658 0.262 8.02 2.17 12.58
12/20/2021 12:15:00 PM 4.81 40.658 0.383 8.01 2.12 12.55
12/20/2021 12:30:00 PM 4.81 40.658 0.286 8.02 1.96 12.56
12/20/2021 12:45:00 PM 4.81 40.658 0.392 8.02 1.96 12.55
12/20/2021 1:00:00 PM 4.81 40.658 0.368 8 2.01 12.53
12/20/2021 1:15:00 PM 4.79 40.622 0.375 7.95 2.02 12.51
12/20/2021 1:30:00 PM 4.76 40.568 0.492 7.99 2.07 12.51
12/20/2021 1:45:00 PM 4.73 40.514 0.259 7.99 2 12.47
12/20/2021 2:00:00 PM 4.71 40.478 0.354 7.99 2.04 12.46
12/20/2021 2:15:00 PM 4.68 40.424 0.337 7.97 2.03 12.43
12/20/2021 2:30:00 PM 4.66 40.388 0.184 7.96 2.07 12.41
12/20/2021 2:45:00 PM 4.62 40.316 0.27 7.96 2.03 12.39
12/20/2021 3:00:00 PM 4.59 40.262 0.226 7.95 1.89 12.38
12/20/2021 3:15:00 PM 4.56 40.208 0.343 7.95 1.79 12.36
12/20/2021 3:30:00 PM 4.52 40.136 0.291 7.93 2.14 12.35
12/20/2021 3:45:00 PM 4.49 40.082 0.233 7.94 1.83 12.33
12/20/2021 4:00:00 PM 4.45 40.01 0.366 7.93 1.99 12.31
12/20/2021 4:15:00 PM 4.42 39.956 0.265 7.92 2.03 12.28
12/20/2021 4:30:00 PM 4.39 39.902 0.204 7.93 1.86 12.26
12/20/2021 4:45:00 PM 4.37 39.866 0.184 7.94 1.93 12.23
12/20/2021 5:00:00 PM 4.34 39.812 0.274 7.92 2.08 12.21
12/20/2021 5:15:00 PM 4.33 39.794 0.279 7.92 1.93 12.19
12/20/2021 5:30:00 PM 4.31 39.758 0.307 7.91 1.95 12.21
12/20/2021 5:45:00 PM 4.29 39.722 0.287 7.91 1.99 12.21
12/20/2021 6:00:00 PM 4.27 39.686 0.31 7.91 1.96 12.23
12/20/2021 6:15:00 PM 4.27 39.686 0.41 7.9 1.96 12.24
12/20/2021 6:30:00 PM 4.26 39.668 0.278 7.9 1.96 12.24
12/20/2021 6:45:00 PM 4.25 39.65 0.35 7.9 2.08 12.24
12/20/2021 7:00:00 PM 4.25 39.65 0.373 7.9 2.15 12.25
12/20/2021 7:15:00 PM 4.24 39.632 0.29 7.9 1.99 12.27
12/20/2021 7:30:00 PM 4.22 39.596 0.386 7.88 2.19 12.28
12/20/2021 7:45:00 PM 4.2 39.56 0.492 7.9 2 12.3
12/20/2021 8:00:00 PM 4.17 39.506 0.355 7.91 2.53 12.31
12/20/2021 8:15:00 PM 4.14 39.452 0.305 7.9 2.13 12.33
12/20/2021 8:30:00 PM 4.1 39.38 0.309 7.92 2.2 12.35
12/20/2021 8:45:00 PM 4.05 39.29 0.265 7.91 2.33 12.38
12/20/2021 9:00:00 PM 4.02 39.236 0.26 7.91 2.11 12.4
12/20/2021 9:15:00 PM 3.99 39.182 0.36 7.91 2.18 12.42
12/20/2021 9:30:00 PM 3.95 39.11 0.313 7.91 2.01 12.47
12/20/2021 9:45:00 PM 3.91 39.038 0.354 7.92 2.45 12.49
12/20/2021 10:00:00 PM 3.88 38.984 0.184 7.89 2.26 12.52
12/20/2021 10:15:00 PM 3.84 38.912 0.301 7.92 1.98 12.57
12/20/2021 10:30:00 PM 3.82 38.876 0.366 7.93 2.55 12.61
12/20/2021 10:45:00 PM 3.8 38.84 0.332 7.92 2.11 12.64
12/20/2021 11:00:00 PM 3.78 38.804 0.416 7.94 2.14 12.69
12/20/2021 11:15:00 PM 3.77 38.786 0.208 7.95 2.36 12.74
12/20/2021 11:30:00 PM 3.76 38.768 0.216 7.95 2.15 12.79
12/20/2021 11:45:00 PM 3.74 38.732 0.196 7.94 2.27 12.82
12/21/2021 12:00:00 AM 3.73 38.714 0.299 7.95 2.42 12.87
12/21/2021 12:15:00 AM 3.72 38.696 0.306 7.97 2.07 12.92
12/21/2021 12:30:00 AM 3.72 38.696 0.279 7.98 2.31 12.96
12/21/2021 12:45:00 AM 3.72 38.696 0.217 7.98 2.11 12.99
12/21/2021 1:00:00 AM 3.73 38.714 0.51 8 2.3 13.04
12/21/2021 1:15:00 AM 3.73 38.714 0.221 7.99 2.16 13.05
12/21/2021 1:30:00 AM 3.72 38.696 0.296 8.01 2.17 13.1
12/21/2021 1:45:00 AM 3.73 38.714 0.317 8.02 2.24 13.14
12/21/2021 2:00:00 AM 3.74 38.732 0.352 8.04 2.37 13.17
12/21/2021 2:15:00 AM 3.74 38.732 0.231 8.04 2.2 13.22
12/21/2021 2:30:00 AM 3.75 38.75 0.515 8.08 2.17 13.25
12/21/2021 2:45:00 AM 3.77 38.786 0.254 8.06 2.25 13.28
12/21/2021 3:00:00 AM 3.78 38.804 0.286 8.02 3.69 13.32
12/21/2021 3:15:00 AM 3.79 38.822 0.255 8.09 2.86 13.34
12/21/2021 3:30:00 AM 3.79 38.822 0.306 8.09 2.28 13.38
12/21/2021 3:45:00 AM 3.79 38.822 0.305 8.1 2.27 13.4
12/21/2021 4:00:00 AM 3.78 38.804 0.322 8.1 2.32 13.41
12/21/2021 4:15:00 AM 3.78 38.804 0.256 8.11 2.29 13.4
12/21/2021 4:30:00 AM 3.78 38.804 0.512 8.11 2.14 13.42
12/21/2021 4:45:00 AM 3.77 38.786 0.293 8.06 2.31 13.42
12/21/2021 5:00:00 AM 3.77 38.786 0.297 8.06 2.13 13.41
12/21/2021 5:15:00 AM 3.76 38.768 0.199 8.03 2.34 13.4
12/21/2021 5:30:00 AM 3.75 38.75 0.344 8.12 2.32 13.38
12/21/2021 5:45:00 AM 3.74 38.732 0.212 8.06 2.13 13.37
12/21/2021 6:00:00 AM 3.73 38.714 0.505 8.1 2.22 13.36
12/21/2021 6:15:00 AM 3.72 38.696 0.298 8.1 2.29 13.34
12/21/2021 6:30:00 AM 3.72 38.696 0.291 8.1 2.43 13.31
12/21/2021 6:45:00 AM 3.71 38.678 0.512 8.09 2.24 13.29
12/21/2021 7:00:00 AM 3.69 38.642 0.368 8.09 2.38 13.26
12/21/2021 7:15:00 AM 3.69 38.642 0.337 8.09 2.54 13.23
12/21/2021 7:30:00 AM 3.67 38.606 0.191 8.06 2.26 13.22
12/21/2021 7:45:00 AM 3.67 38.606 0.357 8.07 2.32 13.21
12/21/2021 8:00:00 AM 3.66 38.588 0.262 8.07 2.39 13.22
12/21/2021 8:15:00 AM 3.65 38.57 0.293 8.07 2.44 13.24
12/21/2021 8:30:00 AM 3.65 38.57 0.308 8.07 2.21 13.26
12/21/2021 8:45:00 AM 3.64 38.552 0.198 8.05 2.46 13.26
12/21/2021 9:00:00 AM 3.63 38.534 0.356 8.07 2.21 13.26
12/21/2021 9:15:00 AM 3.63 38.534 0.34 8.05 2.5 13.25
12/21/2021 9:30:00 AM 3.62 38.516 0.357 8.05 2.31 13.28
12/21/2021 9:45:00 AM 3.63 38.534 0.296 8.06 2.4 13.3
12/21/2021 10:00:00 AM 3.63 38.534 0.543 8.07 2.51 13.27
12/21/2021 10:15:00 AM 3.63 38.534 0.239 8.06 2.37 13.26
12/21/2021 10:30:00 AM 3.62 38.516 0.398 8.05 2.57 13.23
12/21/2021 10:45:00 AM 3.6 38.48 0.267 8.06 2.63 13.21
12/21/2021 11:00:00 AM 3.59 38.462 0.356 8.05 2.61 13.21
12/21/2021 11:15:00 AM 3.6 38.48 0.362 8.05 2.48 13.2
12/21/2021 11:30:00 AM 3.61 38.498 0.388 8.02 2.43 13.2
12/21/2021 11:45:00 AM 3.61 38.498 0.325 8.04 2.65 13.17
12/21/2021 12:00:00 PM 3.6 38.48 0.343 8.03 2.61 13.13
12/21/2021 12:15:00 PM 3.59 38.462 0.356 8.02 2.57 13.12
12/21/2021 12:30:00 PM 3.59 38.462 0.33 8.02 2.46 13.11
12/21/2021 12:45:00 PM 3.59 38.462 0.401 8.02 2.77 13.1
12/21/2021 1:00:00 PM 3.59 38.462 0.36 8.02 2.47 13.09
12/21/2021 1:15:00 PM 3.6 38.48 0.412 8.02 2.37 13.1
12/21/2021 1:30:00 PM 3.59 38.462 0.371 8.01 2.55 13.05
12/21/2021 1:45:00 PM 3.59 38.462 0.389 7.99 2.74 13.02
12/21/2021 2:00:00 PM 3.59 38.462 0.515 8 2.38 13.01
12/21/2021 2:15:00 PM 3.59 38.462 0.372 7.99 2.43 13
12/21/2021 2:30:00 PM 3.59 38.462 0.265 7.95 2.54 12.96
12/21/2021 2:45:00 PM 3.58 38.444 0.255 7.97 2.47 12.95
12/21/2021 3:00:00 PM 3.56 38.408 0.271 7.99 2.46 12.91
12/21/2021 3:15:00 PM 3.56 38.408 0.35 7.99 2.36 12.89
12/21/2021 3:30:00 PM 3.56 38.408 0.408 7.98 2.3 12.86
12/21/2021 3:45:00 PM 3.55 38.39 0.341 7.98 2.43 12.82
12/21/2021 4:00:00 PM 3.55 38.39 0.378 7.96 2.47 12.78
12/21/2021 4:15:00 PM 3.55 38.39 0.194 7.94 2.37 12.71
12/21/2021 4:30:00 PM 3.54 38.372 0.511 7.95 2.46 12.68
12/21/2021 4:45:00 PM 3.52 38.336 0.307 7.94 2.37 12.67
12/21/2021 5:00:00 PM 3.5 38.3 0.517 7.95 2.56 12.64
12/21/2021 5:15:00 PM 3.48 38.264 0.359 7.94 2.61 12.62
12/21/2021 5:30:00 PM 3.47 38.246 0.344 7.92 2.44 12.61
12/21/2021 5:45:00 PM 3.46 38.228 0.213 7.88 2.48 12.63
12/21/2021 6:00:00 PM 3.46 38.228 0.412 7.89 2.33 12.61
12/21/2021 6:15:00 PM 3.46 38.228 0.518 7.93 2.27 12.62
12/21/2021 6:30:00 PM 3.45 38.21 0.303 7.93 2.43 12.63
12/21/2021 6:45:00 PM 3.43 38.174 0.307 7.92 2.36 12.62
12/21/2021 7:00:00 PM 3.42 38.156 0.517 7.93 2.4 12.63
12/21/2021 7:15:00 PM 3.41 38.138 0.234 7.93 2.47 12.64
12/21/2021 7:30:00 PM 3.4 38.12 0.275 7.87 2.42 12.65
12/21/2021 7:45:00 PM 3.38 38.084 0.316 7.92 2.23 12.66
12/21/2021 8:00:00 PM 3.38 38.084 0.356 7.92 2.5 12.66
12/21/2021 8:15:00 PM 3.37 38.066 0.291 7.86 2.12 12.67
12/21/2021 8:30:00 PM 3.36 38.048 0.202 7.9 2.52 12.68
12/21/2021 8:45:00 PM 3.35 38.03 0.263 7.92 2.09 12.69
12/21/2021 9:00:00 PM 3.35 38.03 0.507 7.9 2.28 12.72
12/21/2021 9:15:00 PM 3.35 38.03 0.272 7.92 2.02 12.72
12/21/2021 9:30:00 PM 3.35 38.03 0.219 7.92 2.21 12.73
12/21/2021 9:45:00 PM 3.36 38.048 0.326 7.94 4.22 12.75
12/21/2021 10:00:00 PM 3.36 38.048 0.33 7.93 2.17 12.76
12/21/2021 10:15:00 PM 3.37 38.066 0.51 7.88 2.21 12.77
12/21/2021 10:30:00 PM 3.37 38.066 0.369 7.86 2.34 12.8
12/21/2021 10:45:00 PM 3.37 38.066 0.514 7.93 2.27 12.85
12/21/2021 11:00:00 PM 3.38 38.084 0.506 7.95 2.83 12.87
12/21/2021 11:15:00 PM 3.39 38.102 0.338 7.95 2.29 12.89
12/21/2021 11:30:00 PM 3.39 38.102 0.197 7.94 2.41 12.95
12/21/2021 11:45:00 PM 3.41 38.138 0.357 7.98 2.16 12.98
12/22/2021 12:00:00 AM 3.42 38.156 0.277 7.96 2.04 13.03
12/22/2021 12:15:00 AM 3.43 38.174 0.383 7.99 2.05 13.06
12/22/2021 12:30:00 AM 3.44 38.192 0.327 7.99 2.06 13.1
12/22/2021 12:45:00 AM 3.46 38.228 0.334 8 2.34 13.15
12/22/2021 1:00:00 AM 3.48 38.264 0.331 8.02 2.03 13.19
12/22/2021 1:15:00 AM 3.5 38.3 0.395 8.03 2.1 13.25
12/22/2021 1:30:00 AM 3.52 38.336 0.386 8.04 2 13.29
12/22/2021 1:45:00 AM 3.55 38.39 0.358 8.05 2.18 13.32
12/22/2021 2:00:00 AM 3.57 38.426 0.324 8.07 1.96 13.36
12/22/2021 2:15:00 AM 3.59 38.462 0.286 8.05 2.04 13.39
12/22/2021 2:30:00 AM 3.62 38.516 0.37 8.08 2.01 13.42
12/22/2021 2:45:00 AM 3.64 38.552 0.505 8.09 1.99 13.45
12/22/2021 3:00:00 AM 3.67 38.606 0.217 8.04 3.81 13.48
12/22/2021 3:15:00 AM 3.69 38.642 0.331 8.1 2.65 13.52
12/22/2021 3:30:00 AM 3.72 38.696 0.283 8.09 2.16 13.52
12/22/2021 3:45:00 AM 3.73 38.714 0.261 8.12 2.51 13.53
12/22/2021 4:00:00 AM 3.75 38.75 0.227 8.13 2.35 13.55
12/22/2021 4:15:00 AM 3.76 38.768 0.292 8.13 2.17 13.55
12/22/2021 4:30:00 AM 3.78 38.804 0.249 8.13 1.95 13.56
12/22/2021 4:45:00 AM 3.8 38.84 0.323 8.14 1.96 13.55
12/22/2021 5:00:00 AM 3.82 38.876 0.289 8.12 2.07 13.54
12/22/2021 5:15:00 AM 3.84 38.912 0.372 8.14 1.83 13.53
12/22/2021 5:30:00 AM 3.85 38.93 0.217 8.15 1.99 13.52
12/22/2021 5:45:00 AM 3.86 38.948 0.502 8.15 2.08 13.49
12/22/2021 6:00:00 AM 3.87 38.966 0.272 8.15 1.91 13.46
12/22/2021 6:15:00 AM 3.87 38.966 0.374 8.14 2.03 13.45
12/22/2021 6:30:00 AM 3.87 38.966 0.368 8.14 1.98 13.42
12/22/2021 6:45:00 AM 3.87 38.966 0.242 8.13 2.04 13.39
12/22/2021 7:00:00 AM 3.87 38.966 0.214 8.12 2.11 13.36
12/22/2021 7:15:00 AM 3.87 38.966 0.512 8.12 2.27 13.32
12/22/2021 7:30:00 AM 3.88 38.984 0.355 8.12 2.03 13.29
12/22/2021 7:45:00 AM 3.88 38.984 0.245 8.11 1.99 13.26
12/22/2021 8:00:00 AM 3.88 38.984 0.509 8.1 2.07 13.24
12/22/2021 8:15:00 AM 3.87 38.966 0.32 8.1 2.21 13.24
12/22/2021 8:30:00 AM 3.88 38.984 0.362 8.11 2.27 13.26
12/22/2021 8:45:00 AM 3.9 39.02 0.399 8.08 3.05 13.29
12/22/2021 9:00:00 AM 3.92 39.056 0.37 8.11 2.07 13.32
12/22/2021 9:15:00 AM 3.94 39.092 0.508 8.1 2.06 13.31
12/22/2021 9:30:00 AM 3.95 39.11 0.317 8.1 1.94 13.27
12/22/2021 9:45:00 AM 3.97 39.146 0.51 8.09 3.25 13.25
12/22/2021 10:00:00 AM 4.01 39.218 0.364 8.09 2.59 13.24
12/22/2021 10:15:00 AM 4.05 39.29 0.313 8.07 2.47 13.22
12/22/2021 10:30:00 AM 4.11 39.398 0.283 8.07 2.54 13.22
12/22/2021 10:45:00 AM 4.13 39.434 0.37 8.06 2.72 13.2
12/22/2021 11:00:00 AM 4.17 39.506 0.368 8.08 2.49 13.17
12/22/2021 11:15:00 AM 4.17 39.506 0.33 8.05 2.54 13.09
12/22/2021 11:30:00 AM 4.21 39.578 0.323 8.05 2.2 13.08
12/22/2021 11:45:00 AM 4.26 39.668 0.243 8.05 2.06 13.05
12/22/2021 12:00:00 PM 4.33 39.794 0.303 8.05 2.36 13.04
12/22/2021 12:15:00 PM 4.35 39.83 0.505 8.03 2.07 12.98
12/22/2021 12:30:00 PM 4.39 39.902 0.371 8.05 3.25 12.94
12/22/2021 12:45:00 PM 4.42 39.956 0.213 8.02 3.24 12.9
12/22/2021 1:00:00 PM 4.44 39.992 0.268 8.03 3.16 12.86
12/22/2021 1:15:00 PM 4.45 40.01 0.229 8.02 2.44 12.82
12/22/2021 1:30:00 PM 4.46 40.028 0.29 8.02 2.34 12.8
12/22/2021 1:45:00 PM 4.47 40.046 0.393 8.02 2.43 12.77
12/22/2021 2:00:00 PM 4.47 40.046 0.213 8.03 2.5 12.75
12/22/2021 2:15:00 PM 4.47 40.046 0.357 8.01 11.36 12.61
12/22/2021 2:30:00 PM 4.47 40.046 0.488 8 14.19 12.64
12/22/2021 2:45:00 PM 4.46 40.028 0.311 8 11.13 12.65
12/22/2021 3:00:00 PM 4.46 40.028 0.236 8 3.14 12.62
12/22/2021 3:15:00 PM 4.47 40.046 0.657 7.99 3.02 12.6
12/22/2021 3:30:00 PM 4.46 40.028 0.25 8 2.81 12.58
12/22/2021 3:45:00 PM 4.46 40.028 0.498 8 2.78 12.56
12/22/2021 4:00:00 PM 4.45 40.01 0.292 7.99 4.76 12.53
12/22/2021 4:15:00 PM 4.43 39.974 0.279 7.99 4.24 12.48
12/22/2021 4:30:00 PM 4.42 39.956 0.247 7.98 2.52 12.45
12/22/2021 4:45:00 PM 4.41 39.938 0.432 7.98 2.11 12.41
12/22/2021 5:00:00 PM 4.4 39.92 0.484 7.97 2.06 12.37
12/22/2021 5:15:00 PM 4.39 39.902 0.372 7.95 2.57 12.36
12/22/2021 5:30:00 PM 4.38 39.884 0.492 7.96 2.08 12.34
12/22/2021 5:45:00 PM 4.38 39.884 0.414 7.96 1.87 12.34
12/22/2021 6:00:00 PM 4.37 39.866 0.494 7.95 3.57 12.33
12/22/2021 6:15:00 PM 4.36 39.848 0.393 7.9 3.51 12.33
12/22/2021 6:30:00 PM 4.36 39.848 0.334 7.94 2.38 12.33
12/22/2021 6:45:00 PM 4.36 39.848 0.27 7.95 2.06 12.33
12/22/2021 7:00:00 PM 4.35 39.83 0.321 7.95 2.1 12.33
12/22/2021 7:15:00 PM 4.36 39.848 0.359 7.95 2.01 12.32
12/22/2021 7:30:00 PM 4.36 39.848 0.417 7.94 1.86 12.32
12/22/2021 7:45:00 PM 4.36 39.848 0.267 7.94 2.14 12.32
12/22/2021 8:00:00 PM 4.35 39.83 0.32 7.95 2.21 12.33
12/22/2021 8:15:00 PM 4.33 39.794 0.24 7.93 1.8 12.33
12/22/2021 8:30:00 PM 4.3 39.74 0.316 7.94 1.94 12.35
12/22/2021 8:45:00 PM 4.27 39.686 0.341 7.94 1.84 12.37
12/22/2021 9:00:00 PM 4.23 39.614 0.312 7.94 1.94 12.39
12/22/2021 9:15:00 PM 4.2 39.56 0.408 7.93 1.95 12.4
12/22/2021 9:30:00 PM 4.17 39.506 0.507 7.94 1.84 12.42
12/22/2021 9:45:00 PM 4.14 39.452 0.4 7.94 1.93 12.44
12/22/2021 10:00:00 PM 4.1 39.38 0.374 7.94 1.93 12.47
12/22/2021 10:15:00 PM 4.08 39.344 0.419 7.94 2.44 12.51
12/22/2021 10:30:00 PM 4.05 39.29 0.416 7.95 2.22 12.54
12/22/2021 10:45:00 PM 4.03 39.254 0.315 7.97 2.65 12.59
12/22/2021 11:00:00 PM 4.02 39.236 0.225 7.96 2.29 12.63
12/22/2021 11:15:00 PM 4.01 39.218 0.398 7.97 1.83 12.67
12/22/2021 11:30:00 PM 4.01 39.218 0.337 7.98 1.91 12.71
12/22/2021 11:45:00 PM 4 39.2 0.397 7.99 2.08 12.73
12/23/2021 12:00:00 AM 3.99 39.182 0.416 7.98 2.47 12.77
12/23/2021 12:15:00 AM 3.98 39.164 0.317 8.01 2.44 12.81
12/23/2021 12:30:00 AM 3.97 39.146 0.688 8.01 6.08 12.84
12/23/2021 12:45:00 AM 3.96 39.128 0.685 8.02 3.22 12.88
12/23/2021 1:00:00 AM 3.96 39.128 0.23 8.02 2.06 12.94
12/23/2021 1:15:00 AM 3.95 39.11 0.401 8.04 2.09 12.98
12/23/2021 1:30:00 AM 3.94 39.092 0.356 8.05 2.03 13.02
12/23/2021 1:45:00 AM 3.92 39.056 0.685 8.05 2.28 13.07
12/23/2021 2:00:00 AM 3.92 39.056 0.245 8.07 1.82 13.12
12/23/2021 2:15:00 AM 3.91 39.038 0.374 8.09 2.48 13.17
12/23/2021 2:30:00 AM 3.91 39.038 0.237 8.09 1.79 13.21
12/23/2021 2:45:00 AM 3.91 39.038 0.339 8.11 2.22 13.26
12/23/2021 3:00:00 AM 3.92 39.056 0.373 8.14 2.16 13.3
12/23/2021 3:15:00 AM 3.92 39.056 0.508 8.15 1.87 13.33
12/23/2021 3:30:00 AM 3.93 39.074 0.372 8.16 1.9 13.35
12/23/2021 3:45:00 AM 3.93 39.074 0.393 8.14 2.03 13.4
12/23/2021 4:00:00 AM 3.93 39.074 0.504 8.18 1.92 13.41
12/23/2021 4:15:00 AM 3.94 39.092 0.396 8.19 2.4 13.41
12/23/2021 4:30:00 AM 3.92 39.056 0.253 8.2 2.34 13.42
12/23/2021 4:45:00 AM 3.9 39.02 0.393 8.22 1.92 13.43
12/23/2021 5:00:00 AM 3.88 38.984 0.334 8.2 2.01 13.42
12/23/2021 5:15:00 AM 3.85 38.93 0.309 8.2 1.98 13.42
12/23/2021 5:30:00 AM 3.82 38.876 0.401 8.2 2.06 13.41
12/23/2021 5:45:00 AM 3.79 38.822 0.378 8.21 2.09 13.39
12/23/2021 6:00:00 AM 3.74 38.732 0.291 8.2 2.48 13.37
12/23/2021 6:15:00 AM 3.71 38.678 0.51 8.19 2.22 13.35
12/23/2021 6:30:00 AM 3.69 38.642 0.497 8.17 2.31 13.33
12/23/2021 6:45:00 AM 3.66 38.588 0.318 8.17 2.21 13.3
12/23/2021 7:00:00 AM 3.63 38.534 0.517 8.17 2.28 13.28
12/23/2021 7:15:00 AM 3.6 38.48 0.36 8.16 1.95 13.26
12/23/2021 7:30:00 AM 3.56 38.408 0.397 8.16 2.05 13.26
12/23/2021 7:45:00 AM 3.52 38.336 0.387 8.12 1.96 13.26
12/23/2021 8:00:00 AM 3.49 38.282 0.358 8.08 2.08 13.26
12/23/2021 8:15:00 AM 3.43 38.174 0.346 8.14 2.12 13.27
12/23/2021 8:30:00 AM 3.41 38.138 0.364 8.07 2.07 13.28
12/23/2021 8:45:00 AM 3.43 38.174 0.228 8.12 2.23 13.29
12/23/2021 9:00:00 AM 3.45 38.21 0.416 8.13 2.19 13.29
12/23/2021 9:15:00 AM 3.45 38.21 0.351 8.13 1.93 13.29
12/23/2021 9:30:00 AM 3.44 38.192 0.299 8.06 2.33 13.31
12/23/2021 9:45:00 AM 3.44 38.192 0.213 8.12 3.35 13.31
12/23/2021 10:00:00 AM 3.46 38.228 0.353 8.12 2.89 13.3
12/23/2021 10:15:00 AM 3.43 38.174 0.228 8.11 2.72 13.27
12/23/2021 10:30:00 AM 3.44 38.192 0.349 8.12 2.45 13.29
12/23/2021 10:45:00 AM 3.45 38.21 0.284 8.06 2.39 13.28
12/23/2021 11:00:00 AM 3.47 38.246 0.289 8.11 2.33 13.29
12/23/2021 11:15:00 AM 3.46 38.228 0.349 8.11 2.46 13.27
12/23/2021 11:30:00 AM 3.45 38.21 0.307 8.09 2.28 13.28
12/23/2021 11:45:00 AM 3.43 38.174 0.213 8.09 2.33 13.29
12/23/2021 12:00:00 PM 3.43 38.174 0.306 8.09 2.43 13.28
12/23/2021 12:15:00 PM 3.4 38.12 0.344 8.09 2.43 13.27
12/23/2021 12:30:00 PM 3.37 38.066 0.294 8.07 2.42 13.25
12/23/2021 12:45:00 PM 3.37 38.066 0.402 8.07 2.4 13.23
12/23/2021 1:00:00 PM 3.34 38.012 0.339 8.07 2.27 13.23
12/23/2021 1:15:00 PM 3.33 37.994 0.345 8.07 2.17 13.21
12/23/2021 1:30:00 PM 3.31 37.958 0.333 8.05 2.02 13.16
12/23/2021 1:45:00 PM 3.29 37.922 0.419 8.04 2.05 13.16
12/23/2021 2:00:00 PM 3.26 37.868 0.349 8.05 1.83 13.14
12/23/2021 2:15:00 PM 3.23 37.814 0.312 8.04 2.43 13.11
12/23/2021 2:30:00 PM 3.22 37.796 0.35 8.04 1.98 13.09
12/23/2021 2:45:00 PM 3.21 37.778 0.34 8.04 1.98 13.07
12/23/2021 3:00:00 PM 3.19 37.742 0.313 8.03 1.81 13.09
12/23/2021 3:15:00 PM 3.19 37.742 0.275 8.03 2.02 13.08
12/23/2021 3:30:00 PM 3.16 37.688 0.28 8.01 1.93 13.03
12/23/2021 3:45:00 PM 3.14 37.652 0.265 8 1.79 13
12/23/2021 4:00:00 PM 3.14 37.652 0.439 8.02 2 12.99
12/23/2021 4:15:00 PM 3.13 37.634 0.355 8.01 1.79 12.96
12/23/2021 4:30:00 PM 3.11 37.598 0.229 8 2.02 12.92
12/23/2021 4:45:00 PM 3.08 37.544 0.285 7.99 2.02 12.88
12/23/2021 5:00:00 PM 3.04 37.472 0.227 7.98 1.81 12.86
12/23/2021 5:15:00 PM 3 37.4 0.527 7.98 2.04 12.85
12/23/2021 5:30:00 PM 2.98 37.364 0.286 7.9 2.31 12.86
12/23/2021 5:45:00 PM 2.97 37.346 0.32 7.93 1.91 12.86
12/23/2021 6:00:00 PM 2.95 37.31 0.381 7.93 1.96 12.85
12/23/2021 6:15:00 PM 2.95 37.31 0.387 7.95 1.93 12.85
12/23/2021 6:30:00 PM 2.97 37.346 0.317 7.95 2.82 12.85
12/23/2021 6:45:00 PM 2.98 37.364 0.393 7.95 2.44 12.85
12/23/2021 7:00:00 PM 2.98 37.364 0.317 7.95 2.34 12.85
12/23/2021 7:15:00 PM 2.99 37.382 0.389 7.95 2.17 12.85
12/23/2021 7:30:00 PM 2.99 37.382 0.235 7.95 1.88 12.85
12/23/2021 7:45:00 PM 2.99 37.382 0.364 7.95 2 12.85
12/23/2021 8:00:00 PM 2.99 37.382 0.306 7.94 1.99 12.86
12/23/2021 8:15:00 PM 2.98 37.364 0.398 7.94 1.93 12.86
12/23/2021 8:30:00 PM 2.98 37.364 0.522 7.95 1.99 12.86
12/23/2021 8:45:00 PM 2.97 37.346 0.382 7.95 2.17 12.88
12/23/2021 9:00:00 PM 2.96 37.328 0.326 7.94 2.08 12.89
12/23/2021 9:15:00 PM 2.95 37.31 0.379 7.94 1.94 12.9
12/23/2021 9:30:00 PM 2.93 37.274 0.193 7.89 2.21 12.92
12/23/2021 9:45:00 PM 2.92 37.256 0.405 7.95 1.95 12.94
12/23/2021 10:00:00 PM 2.9 37.22 0.287 7.96 2.12 12.95
12/23/2021 10:15:00 PM 2.88 37.184 0.319 7.92 1.85 12.98
12/23/2021 10:30:00 PM 2.87 37.166 0.513 7.94 2.02 12.99
12/23/2021 10:45:00 PM 2.85 37.13 0.398 7.91 2.18 13.02
12/23/2021 11:00:00 PM 2.85 37.13 0.236 7.95 2 13.05
12/23/2021 11:15:00 PM 2.84 37.112 0.363 7.96 1.9 13.08
12/23/2021 11:30:00 PM 2.84 37.112 0.346 7.94 2.06 13.12
12/23/2021 11:45:00 PM 2.83 37.094 0.185 7.96 2.1 13.15
12/24/2021 12:00:00 AM 2.83 37.094 0.297 7.99 2.01 13.19
12/24/2021 12:15:00 AM 2.83 37.094 0.287 7.99 1.99 13.23
12/24/2021 12:30:00 AM 2.83 37.094 0.271 7.96 1.84 13.27
12/24/2021 12:45:00 AM 2.83 37.094 0.367 8.01 2.06 13.31
12/24/2021 1:00:00 AM 2.84 37.112 0.214 8.01 1.92 13.34
12/24/2021 1:15:00 AM 2.84 37.112 0.333 8.02 1.75 13.39
12/24/2021 1:30:00 AM 2.85 37.13 0.514 8.03 1.93 13.43
12/24/2021 1:45:00 AM 2.87 37.166 0.293 8.03 2.32 13.48
12/24/2021 2:00:00 AM 2.88 37.184 0.196 8.01 1.85 13.51
12/24/2021 2:15:00 AM 2.89 37.202 0.377 8.02 2.67 13.55
12/24/2021 2:30:00 AM 2.89 37.202 0.274 8.06 6.14 13.57
12/24/2021 2:45:00 AM 2.92 37.256 0.431 8.08 2.09 13.61
12/24/2021 3:00:00 AM 2.95 37.31 0.374 8.05 1.98 13.65
12/24/2021 3:15:00 AM 2.98 37.364 0.393 8.09 1.78 13.68
12/24/2021 3:30:00 AM 3 37.4 0.284 8.07 1.89 13.7
12/24/2021 3:45:00 AM 3.02 37.436 0.318 8.1 2 13.72
12/24/2021 4:00:00 AM 3.03 37.454 0.198 8.12 1.91 13.73
12/24/2021 4:15:00 AM 3.05 37.49 0.523 8.14 1.69 13.76
12/24/2021 4:30:00 AM 3.07 37.526 0.309 8.13 1.78 13.77
12/24/2021 4:45:00 AM 3.09 37.562 0.238 8.14 1.9 13.78
12/24/2021 5:00:00 AM 3.1 37.58 0.327 8.14 1.75 13.79
12/24/2021 5:15:00 AM 3.12 37.616 0.294 8.15 1.96 13.8
12/24/2021 5:30:00 AM 3.14 37.652 0.206 8.09 1.93 13.81
12/24/2021 5:45:00 AM 3.15 37.67 0.372 8.15 1.77 13.79
12/24/2021 6:00:00 AM 3.15 37.67 0.321 8.14 1.79 13.8
12/24/2021 6:15:00 AM 3.15 37.67 0.508 8.16 2.18 13.78
12/24/2021 6:30:00 AM 3.13 37.634 0.3 8.12 2.02 13.77
12/24/2021 6:45:00 AM 3.12 37.616 0.399 8.12 1.9 13.76
12/24/2021 7:00:00 AM 3.11 37.598 0.268 8.15 2.27 13.74
12/24/2021 7:15:00 AM 3.1 37.58 0.517 8.14 1.78 13.71
12/24/2021 7:30:00 AM 3.09 37.562 0.217 8.13 1.89 13.71
12/24/2021 7:45:00 AM 3.08 37.544 0.287 8.14 3.12 13.71
12/24/2021 8:00:00 AM 3.08 37.544 0.238 8.14 2.31 13.72
12/24/2021 8:15:00 AM 3.1 37.58 0.377 8.13 1.76 13.73
12/24/2021 8:30:00 AM 3.09 37.562 0.21 8.13 2.16 13.71
12/24/2021 8:45:00 AM 3.1 37.58 0.372 8.12 1.77 13.71
12/24/2021 9:00:00 AM 3.1 37.58 0.226 8.12 1.9 13.72
12/24/2021 9:15:00 AM 3.11 37.598 0.377 8.11 1.82 13.71
12/24/2021 9:30:00 AM 3.13 37.634 0.343 8.12 1.82 13.7
12/24/2021 9:45:00 AM 3.15 37.67 0.31 8.1 2.34 13.69
12/24/2021 10:00:00 AM 3.18 37.724 0.261 8.11 2.02 13.67
12/24/2021 10:15:00 AM 3.21 37.778 0.428 8.11 1.94 13.66
12/24/2021 10:30:00 AM 3.22 37.796 0.322 8.07 2.26 13.63
12/24/2021 10:45:00 AM 3.23 37.814 0.203 8.08 1.91 13.61
12/24/2021 11:00:00 AM 3.26 37.868 0.318 8.08 1.92 13.58
12/24/2021 11:15:00 AM 3.27 37.886 0.274 8.08 2.28 13.57
12/24/2021 11:30:00 AM 3.29 37.922 0.403 8.07 2.16 13.54
12/24/2021 11:45:00 AM 3.32 37.976 0.358 8.07 2.81 13.49
12/24/2021 12:00:00 PM 3.37 38.066 0.353 8.06 2.05 13.46
12/24/2021 12:15:00 PM 3.41 38.138 0.291 8.06 2.28 13.43
12/24/2021 12:30:00 PM 3.45 38.21 0.376 8.06 2.22 13.4
12/24/2021 12:45:00 PM 3.49 38.282 0.276 8.03 1.98 13.37
12/24/2021 1:00:00 PM 3.5 38.3 0.38 8.04 2.03 13.34
12/24/2021 1:15:00 PM 3.51 38.318 0.347 8.03 1.89 13.31
12/24/2021 1:30:00 PM 3.52 38.336 0.401 8.03 2.28 13.29
12/24/2021 1:45:00 PM 3.53 38.354 0.404 8.03 2.17 13.27
12/24/2021 2:00:00 PM 3.52 38.336 0.374 8.03 1.93 13.22
12/24/2021 2:15:00 PM 3.55 38.39 0.357 8.03 2.14 13.21
12/24/2021 2:30:00 PM 3.55 38.39 0.402 8.03 2.04 13.17
12/24/2021 2:45:00 PM 3.58 38.444 0.37 8.02 1.89 13.14
12/24/2021 3:00:00 PM 3.58 38.444 0.358 8 2.15 13.08
12/24/2021 3:15:00 PM 3.58 38.444 0.34 8 1.91 13
12/24/2021 3:30:00 PM 3.59 38.462 0.346 7.99 2.05 12.97
12/24/2021 3:45:00 PM 3.6 38.48 0.513 7.99 2.02 12.92
12/24/2021 4:00:00 PM 3.61 38.498 0.301 7.97 1.81 12.86
12/24/2021 4:15:00 PM 3.62 38.516 0.349 7.96 1.78 12.83
12/24/2021 4:30:00 PM 3.63 38.534 0.372 7.95 1.79 12.8
12/24/2021 4:45:00 PM 3.64 38.552 0.359 7.96 1.97 12.76
12/24/2021 5:00:00 PM 3.65 38.57 0.258 7.96 1.75 12.73
12/24/2021 5:15:00 PM 3.66 38.588 0.513 7.96 1.93 12.71
12/24/2021 5:30:00 PM 3.68 38.624 0.279 7.95 1.98 12.69
12/24/2021 5:45:00 PM 3.7 38.66 0.238 7.95 1.78 12.68
12/24/2021 6:00:00 PM 3.73 38.714 0.507 7.94 1.79 12.67
12/24/2021 6:15:00 PM 3.75 38.75 0.262 7.93 1.82 12.65
12/24/2021 6:30:00 PM 3.77 38.786 0.31 7.94 1.76 12.64
12/24/2021 6:45:00 PM 3.79 38.822 0.505 7.94 1.79 12.63
12/24/2021 7:00:00 PM 3.81 38.858 0.321 7.94 1.84 12.62
12/24/2021 7:15:00 PM 3.83 38.894 0.175 7.93 1.72 12.61
12/24/2021 7:30:00 PM 3.84 38.912 0.316 7.86 1.91 12.6
12/24/2021 7:45:00 PM 3.85 38.93 0.508 7.92 1.77 12.59
12/24/2021 8:00:00 PM 3.85 38.93 0.319 7.84 1.89 12.59
12/24/2021 8:15:00 PM 3.85 38.93 0.291 7.93 1.91 12.59
12/24/2021 8:30:00 PM 3.84 38.912 0.393 7.93 1.84 12.6
12/24/2021 8:45:00 PM 3.83 38.894 0.513 7.93 1.66 12.6
12/24/2021 9:00:00 PM 3.83 38.894 0.292 7.93 1.85 12.61
12/24/2021 9:15:00 PM 3.83 38.894 0.212 7.92 1.94 12.61
12/24/2021 9:30:00 PM 3.83 38.894 0.319 7.93 1.76 12.61
12/24/2021 9:45:00 PM 3.82 38.876 0.323 7.92 1.6 12.62
12/24/2021 10:00:00 PM 3.82 38.876 0.292 7.94 1.96 12.63
12/24/2021 10:15:00 PM 3.82 38.876 0.236 7.93 1.74 12.65
12/24/2021 10:30:00 PM 3.83 38.894 0.364 7.93 1.7 12.66
12/24/2021 10:45:00 PM 3.84 38.912 0.28 7.94 1.87 12.68
12/24/2021 11:00:00 PM 3.84 38.912 0.399 7.95 1.92 12.7
12/24/2021 11:15:00 PM 3.85 38.93 0.504 7.96 1.95 12.72
12/24/2021 11:30:00 PM 3.86 38.948 0.3 7.96 1.73 12.75
12/24/2021 11:45:00 PM 3.87 38.966 0.199 7.96 1.94 12.77
12/25/2021 12:00:00 AM 3.88 38.984 0.381 7.97 1.86 12.8
12/25/2021 12:15:00 AM 3.9 39.02 0.287 7.97 1.97 12.83
12/25/2021 12:30:00 AM 3.91 39.038 0.496 7.99 1.97 12.85
12/25/2021 12:45:00 AM 3.93 39.074 0.312 7.99 1.87 12.89
12/25/2021 1:00:00 AM 3.95 39.11 0.394 7.99 2.02 12.92
12/25/2021 1:15:00 AM 3.97 39.146 0.324 8.01 1.98 12.95
12/25/2021 1:30:00 AM 3.99 39.182 0.404 8.01 2.07 12.98
12/25/2021 1:45:00 AM 4.01 39.218 0.246 8.02 1.91 13.02
12/25/2021 2:00:00 AM 4.04 39.272 0.312 8.02 2.17 13.03
12/25/2021 2:15:00 AM 4.07 39.326 0.203 8.03 2 13.06
12/25/2021 2:30:00 AM 4.1 39.38 0.281 8.04 2.15 13.09
12/25/2021 2:45:00 AM 4.13 39.434 0.362 8.05 2.44 13.11
12/25/2021 3:00:00 AM 4.16 39.488 0.405 8.05 2.34 13.14
12/25/2021 3:15:00 AM 4.19 39.542 0.243 8.07 2.13 13.15
12/25/2021 3:30:00 AM 4.22 39.596 0.373 8.06 2.35 13.17
12/25/2021 3:45:00 AM 4.25 39.65 0.22 8.09 2.14 13.19
12/25/2021 4:00:00 AM 4.28 39.704 0.67 8.08 2.06 13.2
12/25/2021 4:15:00 AM 4.31 39.758 0.667 8.09 2.2 13.21
12/25/2021 4:30:00 AM 4.34 39.812 0.425 8.1 2.36 13.22
12/25/2021 4:45:00 AM 4.38 39.884 0.209 8.1 2.11 13.22
12/25/2021 5:00:00 AM 4.41 39.938 0.242 8.11 2.04 13.23
12/25/2021 5:15:00 AM 4.44 39.992 0.398 8.1 2.07 13.23
12/25/2021 5:30:00 AM 4.48 40.064 0.303 8.11 2.14 13.22
12/25/2021 5:45:00 AM 4.52 40.136 0.246 8.13 2.14 13.21
12/25/2021 6:00:00 AM 4.55 40.19 0.215 8.12 2.53 13.2
12/25/2021 6:15:00 AM 4.57 40.226 0.668 8.13 1.94 13.17
12/25/2021 6:30:00 AM 4.6 40.28 0.303 8.13 2.16 13.15
12/25/2021 6:45:00 AM 4.62 40.316 0.347 8.14 2.1 13.11
12/25/2021 7:00:00 AM 4.64 40.352 0.332 8.11 2.68 13.07
12/25/2021 7:15:00 AM 4.66 40.388 0.221 8.12 2.25 13.04
12/25/2021 7:30:00 AM 4.68 40.424 0.255 8.12 2.18 13
12/25/2021 7:45:00 AM 4.69 40.442 0.409 8.11 2.37 12.96
12/25/2021 8:00:00 AM 4.7 40.46 0.337 8.11 2.04 12.92
12/25/2021 8:15:00 AM 4.71 40.478 0.398 8.09 2.33 12.88
12/25/2021 8:30:00 AM 4.72 40.496 0.671 8.09 2.24 12.85
12/25/2021 8:45:00 AM 4.74 40.532 0.249 8.08 2.12 12.83
12/25/2021 9:00:00 AM 4.75 40.55 0.272 8.07 2.42 12.79
12/25/2021 9:15:00 AM 4.76 40.568 0.376 8.06 2.18 12.77
12/25/2021 9:30:00 AM 4.77 40.586 0.355 8.06 2.21 12.77
12/25/2021 9:45:00 AM 4.79 40.622 0.671 8.06 1.94 12.77
12/25/2021 10:00:00 AM 4.81 40.658 0.396 8.05 2.3 12.73
12/25/2021 10:15:00 AM 4.83 40.694 0.238 8.06 2.67 12.75
12/25/2021 10:30:00 AM 4.83 40.694 0.359 8.04 2.18 12.63
12/25/2021 10:45:00 AM 4.84 40.712 0.196 8.02 2.15 12.63
12/25/2021 11:00:00 AM 4.85 40.73 0.417 8.03 2.13 12.61
12/25/2021 11:15:00 AM 4.86 40.748 0.195 8.03 2.28 12.58
12/25/2021 11:30:00 AM 4.88 40.784 0.327 8.03 2.3 12.6
12/25/2021 11:45:00 AM 4.91 40.838 0.196 8.02 2.18 12.59
12/25/2021 12:00:00 PM 4.93 40.874 0.309 8.02 2.29 12.57
12/25/2021 12:15:00 PM 4.93 40.874 0.309 8.01 2.22 12.46
12/25/2021 12:30:00 PM 4.95 40.91 0.373 8.01 2.13 12.47
12/25/2021 12:45:00 PM 5 41 0.237 8.02 2.18 12.55
12/25/2021 1:00:00 PM 5.06 41.108 0.331 8.02 2.72 12.56
12/25/2021 1:15:00 PM 5.07 41.126 0.406 8 2.23 12.48
12/25/2021 1:30:00 PM 5.15 41.27 0.256 8.01 2.51 12.54
12/25/2021 1:45:00 PM 5.17 41.306 0.226 8 2.12 12.48
12/25/2021 2:00:00 PM 5.19 41.342 0.388 7.99 2.23 12.41
12/25/2021 2:15:00 PM 5.22 41.396 0.487 8 2.25 12.39
12/25/2021 2:30:00 PM 5.23 41.414 0.392 8 2.19 12.29
12/25/2021 2:45:00 PM 5.25 41.45 0.355 7.99 2.28 12.23
12/25/2021 3:00:00 PM 5.26 41.468 0.307 7.98 2.09 12.16
12/25/2021 3:15:00 PM 5.28 41.504 0.244 7.96 1.99 12.1
12/25/2021 3:30:00 PM 5.3 41.54 0.307 7.95 2.13 12.07
12/25/2021 3:45:00 PM 5.32 41.576 0.301 7.96 2.19 12.01
12/25/2021 4:00:00 PM 5.33 41.594 0.256 7.95 2 11.95
12/25/2021 4:15:00 PM 5.35 41.63 0.254 7.95 2.23 11.93
12/25/2021 4:30:00 PM 5.38 41.684 0.234 7.93 2.18 11.89
12/25/2021 4:45:00 PM 5.4 41.72 0.387 7.9 2.97 11.85
12/25/2021 5:00:00 PM 5.43 41.774 0.337 7.92 2.44 11.82
12/25/2021 5:15:00 PM 5.47 41.846 0.317 7.91 1.9 11.8
12/25/2021 5:30:00 PM 5.54 41.972 0.329 7.92 2.13 11.77
12/25/2021 5:45:00 PM 5.58 42.044 0.396 7.91 3.49 11.74
12/25/2021 6:00:00 PM 5.6 42.08 0.395 7.92 2.45 11.72
12/25/2021 6:15:00 PM 5.61 42.098 0.301 7.92 2.49 11.7
12/25/2021 6:30:00 PM 5.6 42.08 0.215 7.9 1.94 11.69
12/25/2021 6:45:00 PM 5.61 42.098 0.293 7.9 2.23 11.7
12/25/2021 7:00:00 PM 5.63 42.134 0.332 7.9 2.41 11.69
12/25/2021 7:15:00 PM 5.65 42.17 0.271 7.91 2.35 11.69
12/25/2021 7:30:00 PM 5.67 42.206 0.314 7.91 2.02 11.68
12/25/2021 7:45:00 PM 5.69 42.242 0.218 7.89 2.24 11.67
12/25/2021 8:00:00 PM 5.7 42.26 0.302 7.9 1.84 11.66
12/25/2021 8:15:00 PM 5.7 42.26 0.217 7.89 1.85 11.65
12/25/2021 8:30:00 PM 5.71 42.278 0.22 7.89 2.1 11.65
12/25/2021 8:45:00 PM 5.71 42.278 0.268 7.88 2.2 11.65
12/25/2021 9:00:00 PM 5.72 42.296 0.323 7.88 1.88 11.65
12/25/2021 9:15:00 PM 5.72 42.296 0.346 7.89 1.86 11.66
12/25/2021 9:30:00 PM 5.73 42.314 0.397 7.89 1.97 11.65
12/25/2021 9:45:00 PM 5.74 42.332 0.4 7.9 1.9 11.67
12/25/2021 10:00:00 PM 5.74 42.332 0.34 7.9 2.02 11.68
12/25/2021 10:15:00 PM 5.75 42.35 0.668 7.9 2.04 11.67
12/25/2021 10:30:00 PM 5.76 42.368 0.394 7.91 1.79 11.69
12/25/2021 10:45:00 PM 5.77 42.386 0.395 7.9 1.84 11.71
12/25/2021 11:00:00 PM 5.78 42.404 0.209 7.9 2.25 11.71
12/25/2021 11:15:00 PM 5.81 42.458 0.383 7.91 2.12 11.74
12/25/2021 11:30:00 PM 5.83 42.494 0.279 7.91 2.1 11.75
12/25/2021 11:45:00 PM 5.85 42.53 0.265 7.91 2.03 11.78
12/26/2021 12:00:00 AM 5.88 42.584 0.387 7.92 2.24 11.81
12/26/2021 12:15:00 AM 5.9 42.62 0.668 7.92 2.23 11.81
12/26/2021 12:30:00 AM 5.91 42.638 0.31 7.92 2.06 11.85
12/26/2021 12:45:00 AM 5.91 42.638 0.481 7.92 2.14 11.86
12/26/2021 1:00:00 AM 5.92 42.656 0.606 7.94 2.12 11.91
12/26/2021 1:15:00 AM 5.93 42.674 0.671 7.94 2.06 11.94
12/26/2021 1:30:00 AM 5.94 42.692 0.401 7.92 2.19 11.97
12/26/2021 1:45:00 AM 5.96 42.728 0.253 7.95 2.26 12
12/26/2021 2:00:00 AM 5.98 42.764 0.67 7.96 2.07 12.03
12/26/2021 2:15:00 AM 6 42.8 0.226 7.96 2.07 12.05
12/26/2021 2:30:00 AM 6.02 42.836 0.204 7.97 2.24 12.09
12/26/2021 2:45:00 AM 6.04 42.872 0.67 7.98 2.65 12.12
12/26/2021 3:00:00 AM 6.07 42.926 0.577 8 3.57 12.14
12/26/2021 3:15:00 AM 6.09 42.962 0.395 7.99 2.21 12.18
12/26/2021 3:30:00 AM 6.12 43.016 0.393 8 2.39 12.2
12/26/2021 3:45:00 AM 6.14 43.052 0.322 8 2.37 12.21
12/26/2021 4:00:00 AM 6.16 43.088 0.225 8.01 2.33 12.22
12/26/2021 4:15:00 AM 6.19 43.142 0.287 8.02 2.56 12.22
12/26/2021 4:30:00 AM 6.21 43.178 0.676 8.02 2.36 12.2
12/26/2021 4:45:00 AM 6.23 43.214 0.35 8.01 2.3 12.18
12/26/2021 5:00:00 AM 6.25 43.25 0.293 8.01 2.6 12.16
12/26/2021 5:15:00 AM 6.27 43.286 0.394 8.02 2.7 12.12
12/26/2021 5:30:00 AM 6.27 43.286 0.263 8.01 2.82 12.08
12/26/2021 5:45:00 AM 6.28 43.304 0.613 8.01 2.74 12.04
12/26/2021 6:00:00 AM 6.28 43.304 0.612 8 2.36 12
12/26/2021 6:15:00 AM 6.29 43.322 0.324 7.99 2.53 11.96
12/26/2021 6:30:00 AM 6.29 43.322 0.347 7.99 2.53 11.91
12/26/2021 6:45:00 AM 6.29 43.322 0.392 7.98 2.69 11.86
12/26/2021 7:00:00 AM 6.29 43.322 0.282 7.94 2.64 11.82
12/26/2021 7:15:00 AM 6.29 43.322 0.375 7.94 2.57 11.78
12/26/2021 7:30:00 AM 6.29 43.322 0.356 7.94 2.44 11.75
12/26/2021 7:45:00 AM 6.29 43.322 0.373 7.93 2.57 11.73
12/26/2021 8:00:00 AM 6.29 43.322 0.268 7.95 2.74 11.7
12/26/2021 8:15:00 AM 6.3 43.34 0.252 7.94 2.62 11.69
12/26/2021 8:30:00 AM 6.31 43.358 0.286 7.94 2.58 11.69
12/26/2021 8:45:00 AM 6.33 43.394 0.383 7.91 2.68 11.7
12/26/2021 9:00:00 AM 6.35 43.43 0.467 7.94 2.68 11.7
12/26/2021 9:15:00 AM 6.37 43.466 0.664 7.94 2.43 11.71
12/26/2021 9:30:00 AM 6.39 43.502 0.369 7.92 2.68 11.73
12/26/2021 9:45:00 AM 6.42 43.556 0.259 7.94 2.81 11.73
12/26/2021 10:00:00 AM 6.45 43.61 0.254 7.94 2.84 11.72
12/26/2021 10:15:00 AM 6.48 43.664 0.314 7.94 2.7 11.72
12/26/2021 10:30:00 AM 6.5 43.7 0.308 7.94 2.6 11.72
12/26/2021 10:45:00 AM 6.53 43.754 0.368 7.94 3.15 11.72
12/26/2021 11:00:00 AM 6.56 43.808 0.376 7.93 2.94 11.71
12/26/2021 11:15:00 AM 6.59 43.862 0.318 7.92 2.61 11.72
12/26/2021 11:30:00 AM 6.61 43.898 0.4 7.92 2.9 11.72
12/26/2021 11:45:00 AM 6.63 43.934 0.34 7.92 2.8 11.71
12/26/2021 12:00:00 PM 6.65 43.97 0.377 7.92 2.92 11.7
12/26/2021 12:15:00 PM 6.67 44.006 0.341 7.92 3.12 11.68
12/26/2021 12:30:00 PM 6.69 44.042 0.395 7.92 2.68 11.66
12/26/2021 12:45:00 PM 6.71 44.078 0.322 7.92 2.63 11.65
12/26/2021 1:00:00 PM 6.72 44.096 0.389 7.91 2.94 11.64
12/26/2021 1:15:00 PM 6.75 44.15 0.322 7.91 3.01 11.63
12/26/2021 1:30:00 PM 6.75 44.15 0.368 7.92 2.61 11.6
12/26/2021 1:45:00 PM 6.74 44.132 0.323 7.91 2.46 11.58
12/26/2021 2:00:00 PM 6.74 44.132 0.362 7.91 2.53 11.55
12/26/2021 2:15:00 PM 6.74 44.132 0.315 7.9 2.64 11.53
12/26/2021 2:30:00 PM 6.73 44.114 0.469 7.91 2.56 11.49
12/26/2021 2:45:00 PM 6.71 44.078 0.297 7.89 2.39 11.47
12/26/2021 3:00:00 PM 6.7 44.06 0.388 7.88 2.44 11.44
12/26/2021 3:15:00 PM 6.69 44.042 0.304 7.88 2.34 11.42
12/26/2021 3:30:00 PM 6.68 44.024 0.315 7.88 4.08 11.4
12/26/2021 3:45:00 PM 6.67 44.006 0.367 7.88 2.41 11.36
12/26/2021 4:00:00 PM 6.66 43.988 0.282 7.87 2.49 11.34
12/26/2021 4:15:00 PM 6.66 43.988 0.329 7.87 2.4 11.33
12/26/2021 4:30:00 PM 6.65 43.97 0.285 7.87 2.51 11.32
12/26/2021 4:45:00 PM 6.64 43.952 0.319 7.86 2.48 11.28
12/26/2021 5:00:00 PM 6.63 43.934 0.295 7.86 2.5 11.25
12/26/2021 5:15:00 PM 6.63 43.934 0.341 7.85 2.54 11.25
12/26/2021 5:30:00 PM 6.62 43.916 0.321 7.85 2.89 11.22
12/26/2021 5:45:00 PM 6.62 43.916 0.316 7.84 2.54 11.23
12/26/2021 6:00:00 PM 6.63 43.934 0.348 7.86 2.75 11.24
12/26/2021 6:15:00 PM 6.62 43.916 0.244 7.85 2.41 11.24
12/26/2021 6:30:00 PM 6.62 43.916 0.261 7.85 2.44 11.25
12/26/2021 6:45:00 PM 6.62 43.916 0.263 7.86 2.48 11.26
12/26/2021 7:00:00 PM 6.61 43.898 0.224 7.85 3.32 11.26
12/26/2021 7:15:00 PM 6.6 43.88 0.355 7.86 2.44 11.29
12/26/2021 7:30:00 PM 6.59 43.862 0.332 7.85 2.4 11.3
12/26/2021 7:45:00 PM 6.58 43.844 0.649 7.86 2.3 11.31
12/26/2021 8:00:00 PM 6.55 43.79 0.301 7.85 2.3 11.33
12/26/2021 8:15:00 PM 6.52 43.736 0.65 7.87 2.23 11.35
12/26/2021 8:30:00 PM 6.48 43.664 0.332 7.85 2.31 11.38
12/26/2021 8:45:00 PM 6.42 43.556 0.2 7.85 2.32 11.42
12/26/2021 9:00:00 PM 6.38 43.484 0.32 7.86 3.16 11.46
12/26/2021 9:15:00 PM 6.33 43.394 0.327 7.87 2.38 11.51
12/26/2021 9:30:00 PM 6.29 43.322 0.348 7.88 2.64 11.56
12/26/2021 9:45:00 PM 6.27 43.286 0.374 7.89 2.41 11.59
12/26/2021 10:00:00 PM 6.24 43.232 0.267 7.88 2.46 11.62
12/26/2021 10:15:00 PM 6.22 43.196 0.242 7.9 2.36 11.64
12/26/2021 10:30:00 PM 6.2 43.16 0.2 7.89 2.45 11.67
12/26/2021 10:45:00 PM 6.18 43.124 0.457 7.88 2.27 11.69
12/26/2021 11:00:00 PM 6.16 43.088 0.333 7.9 2.38 11.73
12/26/2021 11:15:00 PM 6.13 43.034 0.323 7.9 2.45 11.77
12/26/2021 11:30:00 PM 6.12 43.016 0.276 7.91 2.9 11.82
12/26/2021 11:45:00 PM 6.1 42.98 0.653 7.92 2.58 11.86
12/27/2021 12:00:00 AM 6.09 42.962 0.332 7.93 2.63 11.9
12/27/2021 12:15:00 AM 6.08 42.944 0.351 7.94 2.71 11.96
12/27/2021 12:30:00 AM 6.08 42.944 0.59 7.95 2.57 12.02
12/27/2021 12:45:00 AM 6.08 42.944 0.334 7.96 2.6 12.07
12/27/2021 1:00:00 AM 6.07 42.926 0.384 7.97 2.57 12.12
12/27/2021 1:15:00 AM 6.08 42.944 0.37 7.99 2.49 12.18
12/27/2021 1:30:00 AM 6.08 42.944 0.382 8 2.28 12.23
12/27/2021 1:45:00 AM 6.09 42.962 0.291 8 2.49 12.28
12/27/2021 2:00:00 AM 6.08 42.944 0.229 8.03 2.6 12.31
12/27/2021 2:15:00 AM 6.09 42.962 0.338 8.03 2.69 12.37
12/27/2021 2:30:00 AM 6.1 42.98 0.213 8.03 2.59 12.4
12/27/2021 2:45:00 AM 6.11 42.998 0.259 8.05 2.45 12.42
12/27/2021 3:00:00 AM 6.12 43.016 0.212 8.05 2.8 12.44
12/27/2021 3:15:00 AM 6.15 43.07 0.314 8.06 2.77 12.47
12/27/2021 3:30:00 AM 6.15 43.07 0.251 8.08 2.46 12.48
12/27/2021 3:45:00 AM 6.16 43.088 0.195 8.08 2.43 12.48
12/27/2021 4:00:00 AM 6.16 43.088 0.216 8.08 2.49 12.49
12/27/2021 4:15:00 AM 6.16 43.088 0.332 8.08 2.66 12.48
12/27/2021 4:30:00 AM 6.16 43.088 0.3 8.08 2.5 12.48
12/27/2021 4:45:00 AM 6.16 43.088 0.282 8.08 2.64 12.46
12/27/2021 5:00:00 AM 6.15 43.07 0.351 8.1 3.36 12.45
12/27/2021 5:15:00 AM 6.15 43.07 0.283 8.1 2.96 12.42
12/27/2021 5:30:00 AM 6.14 43.052 0.319 8.08 2.4 12.41
12/27/2021 5:45:00 AM 6.12 43.016 0.368 8.09 2.51 12.38
12/27/2021 6:00:00 AM 6.1 42.98 0.311 8.08 2.41 12.35
12/27/2021 6:15:00 AM 6.08 42.944 0.282 8.07 2.67 12.31
12/27/2021 6:30:00 AM 6.06 42.908 0.312 8.06 2.71 12.28
12/27/2021 6:45:00 AM 6.04 42.872 0.332 8.07 2.92 12.25
12/27/2021 7:00:00 AM 6.01 42.818 0.221 8.05 2.6 12.21
12/27/2021 7:15:00 AM 5.99 42.782 0.371 8.04 2.78 12.18
12/27/2021 7:30:00 AM 5.96 42.728 0.301 8.03 2.46 12.16
12/27/2021 7:45:00 AM 5.94 42.692 0.228 8.03 2.54 12.13
12/27/2021 8:00:00 AM 5.91 42.638 0.38 8.02 2.47 12.11
12/27/2021 8:15:00 AM 5.89 42.602 0.368 8.01 2.7 12.1
12/27/2021 8:30:00 AM 5.87 42.566 0.38 8.01 2.69 12.07
12/27/2021 8:45:00 AM 5.85 42.53 0.352 8.01 2.75 12.05
12/27/2021 9:00:00 AM 5.83 42.494 0.285 8.01 2.57 12.05
12/27/2021 9:15:00 AM 5.82 42.476 0.368 8 2.68 12.09
12/27/2021 9:30:00 AM 5.82 42.476 0.228 8.01 2.73 12.17
12/27/2021 9:45:00 AM 5.81 42.458 0.322 7.99 2.83 12.15
12/27/2021 10:00:00 AM 5.78 42.404 0.465 7.99 3 12.06
12/27/2021 10:15:00 AM 5.76 42.368 0.351 7.98 3.19 11.99
12/27/2021 10:30:00 AM 5.74 42.332 0.357 7.98 3.14 11.95
12/27/2021 10:45:00 AM 5.7 42.26 0.342 7.96 3.16 11.92
12/27/2021 11:00:00 AM 5.67 42.206 0.336 7.96 3.45 11.92
12/27/2021 11:15:00 AM 5.56 42.008 0.368 7.96 3.63 11.93
12/27/2021 11:30:00 AM 5.54 41.972 0.255 7.96 3.02 11.98
12/27/2021 11:45:00 AM 5.48 41.864 0.209 7.96 2.8 11.96
12/27/2021 12:00:00 PM 5.41 41.738 0.26 7.94 2.74 11.95
12/27/2021 12:15:00 PM 5.43 41.774 0.48 7.93 2.89 11.97
12/27/2021 12:30:00 PM 5.42 41.756 0.211 7.94 2.49 11.99
12/27/2021 12:45:00 PM 5.4 41.72 0.315 7.94 2.49 11.96
12/27/2021 1:00:00 PM 5.41 41.738 0.25 7.94 2.51 11.92
12/27/2021 1:15:00 PM 5.41 41.738 0.174 7.94 2.58 11.92
12/27/2021 1:30:00 PM 5.41 41.738 0.382 7.93 2.64 11.94
12/27/2021 1:45:00 PM 5.4 41.72 0.282 7.94 2.52 11.96
12/27/2021 2:00:00 PM 5.38 41.684 0.357 7.93 2.58 11.92
12/27/2021 2:15:00 PM 5.36 41.648 0.343 7.92 2.9 11.9
12/27/2021 2:30:00 PM 5.34 41.612 0.314 7.91 2.77 11.86
12/27/2021 2:45:00 PM 5.34 41.612 0.215 7.92 2.38 11.92
12/27/2021 3:00:00 PM 5.32 41.576 0.349 7.93 2.54 11.86
12/27/2021 3:15:00 PM 5.3 41.54 0.271 7.92 2.46 11.84
12/27/2021 3:30:00 PM 5.27 41.486 0.366 7.91 2.57 11.81
12/27/2021 3:45:00 PM 5.24 41.432 0.285 7.89 2.34 11.78
12/27/2021 4:00:00 PM 5.21 41.378 0.206 7.88 2.26 11.76
12/27/2021 4:15:00 PM 5.19 41.342 0.374 7.89 2.04 11.75
12/27/2021 4:30:00 PM 5.18 41.324 0.483 7.88 2.08 11.74
12/27/2021 4:45:00 PM 5.16 41.288 0.268 7.88 2.16 11.71
12/27/2021 5:00:00 PM 5.14 41.252 0.387 7.87 2.38 11.71
12/27/2021 5:15:00 PM 5.12 41.216 0.33 7.87 1.99 11.7
12/27/2021 5:30:00 PM 5.11 41.198 0.188 7.86 2.64 11.69
12/27/2021 5:45:00 PM 5.09 41.162 0.3 7.87 2.13 11.69
12/27/2021 6:00:00 PM 5.08 41.144 0.225 7.87 1.98 11.7
12/27/2021 6:15:00 PM 5.07 41.126 0.383 7.87 2.14 11.7
12/27/2021 6:30:00 PM 5.06 41.108 0.327 7.87 1.99 11.71
12/27/2021 6:45:00 PM 5.04 41.072 0.376 7.85 2.07 11.71
12/27/2021 7:00:00 PM 5.03 41.054 0.329 7.86 1.95 11.71
12/27/2021 7:15:00 PM 5.02 41.036 0.279 7.86 2.13 11.71
12/27/2021 7:30:00 PM 5.01 41.018 0.486 7.88 1.94 11.71
12/27/2021 7:45:00 PM 5 41 0.251 7.88 2.18 11.72
12/27/2021 8:00:00 PM 4.98 40.964 0.369 7.87 2.31 11.72
12/27/2021 8:15:00 PM 4.97 40.946 0.472 7.86 1.82 11.72
12/27/2021 8:30:00 PM 4.96 40.928 0.655 7.87 1.89 11.74
12/27/2021 8:45:00 PM 4.95 40.91 0.388 7.87 1.97 11.73
12/27/2021 9:00:00 PM 4.94 40.892 0.29 7.86 1.97 11.75
12/27/2021 9:15:00 PM 4.93 40.874 0.212 7.87 1.82 11.76
12/27/2021 9:30:00 PM 4.92 40.856 0.228 7.86 1.94 11.77
12/27/2021 9:45:00 PM 4.91 40.838 0.372 7.87 1.99 11.78
12/27/2021 10:00:00 PM 4.9 40.82 0.218 7.85 1.93 11.8
12/27/2021 10:15:00 PM 4.9 40.82 0.334 7.86 2 11.81
12/27/2021 10:30:00 PM 4.88 40.784 0.315 7.87 2.25 11.83
12/27/2021 10:45:00 PM 4.88 40.784 0.389 7.87 2.08 11.84
12/27/2021 11:00:00 PM 4.87 40.766 0.493 7.87 1.89 11.86
12/27/2021 11:15:00 PM 4.86 40.748 0.389 7.88 1.95 11.89
12/27/2021 11:30:00 PM 4.86 40.748 0.323 7.88 1.9 11.91
12/27/2021 11:45:00 PM 4.85 40.73 0.32 7.88 2.3 11.93
12/28/2021 12:00:00 AM 4.84 40.712 0.277 7.89 2.13 11.95
12/28/2021 12:15:00 AM 4.84 40.712 0.371 7.9 1.94 11.99
12/28/2021 12:30:00 AM 4.83 40.694 0.35 7.89 2 12.02
12/28/2021 12:45:00 AM 4.83 40.694 0.321 7.9 1.92 12.06
12/28/2021 1:00:00 AM 4.82 40.676 0.287 7.91 2.06 12.1
12/28/2021 1:15:00 AM 4.81 40.658 0.411 7.9 1.89 12.13
12/28/2021 1:30:00 AM 4.8 40.64 0.496 7.93 1.98 12.16
12/28/2021 1:45:00 AM 4.78 40.604 0.401 7.94 2.02 12.19
12/28/2021 2:00:00 AM 4.78 40.604 0.495 7.94 1.84 12.23
12/28/2021 2:15:00 AM 4.78 40.604 0.493 7.94 1.88 12.27
12/28/2021 2:30:00 AM 4.76 40.568 0.221 7.95 1.99 12.3
12/28/2021 2:45:00 AM 4.76 40.568 0.402 7.96 2.11 12.32
12/28/2021 3:00:00 AM 4.76 40.568 0.495 7.95 2.23 12.36
12/28/2021 3:15:00 AM 4.76 40.568 0.378 7.96 2.46 12.38
12/28/2021 3:30:00 AM 4.75 40.55 0.343 7.95 2.09 12.4
12/28/2021 3:45:00 AM 4.75 40.55 0.401 7.98 2.26 12.42
12/28/2021 4:00:00 AM 4.74 40.532 0.49 7.98 2.2 12.44
12/28/2021 4:15:00 AM 4.72 40.496 0.375 7.96 2.07 12.47
12/28/2021 4:30:00 AM 4.7 40.46 0.344 7.98 2.08 12.47
12/28/2021 4:45:00 AM 4.69 40.442 0.318 7.99 2.16 12.49
12/28/2021 5:00:00 AM 4.67 40.406 0.492 7.97 2.03 12.5
12/28/2021 5:15:00 AM 4.67 40.406 0.494 7.96 2.07 12.5
12/28/2021 5:30:00 AM 4.66 40.388 0.217 7.98 2.23 12.5
12/28/2021 5:45:00 AM 4.66 40.388 0.307 7.98 2.25 12.48
12/28/2021 6:00:00 AM 4.65 40.37 0.391 7.98 2.13 12.47
12/28/2021 6:15:00 AM 4.65 40.37 0.273 7.97 2.08 12.45
12/28/2021 6:30:00 AM 4.65 40.37 0.358 7.98 2.37 12.45
12/28/2021 6:45:00 AM 4.65 40.37 0.332 7.97 2.27 12.44
12/28/2021 7:00:00 AM 4.65 40.37 0.275 7.97 2.2 12.41
12/28/2021 7:15:00 AM 4.65 40.37 0.29 7.98 2.13 12.4
12/28/2021 7:30:00 AM 4.65 40.37 0.311 7.97 2.1 12.37
12/28/2021 7:45:00 AM 4.64 40.352 0.291 7.96 2.3 12.35
12/28/2021 8:00:00 AM 4.64 40.352 0.277 7.95 2.46 12.36
12/28/2021 8:15:00 AM 4.65 40.37 0.383 7.95 2.52 12.34
12/28/2021 8:30:00 AM 4.65 40.37 0.327 7.96 2.26 12.36
12/28/2021 8:45:00 AM 4.64 40.352 0.345 7.96 2.39 12.36
12/28/2021 9:00:00 AM 4.64 40.352 0.355 7.96 2.53 12.33
12/28/2021 9:15:00 AM 4.64 40.352 0.358 7.95 2.23 12.34
12/28/2021 9:30:00 AM 4.64 40.352 0.268 7.95 2.37 12.31
12/28/2021 9:45:00 AM 4.65 40.37 0.394 7.93 2.45 12.33
12/28/2021 10:00:00 AM 4.67 40.406 0.327 7.94 2.4 12.38
12/28/2021 10:15:00 AM 4.69 40.442 0.295 7.95 2.78 12.39
12/28/2021 10:30:00 AM 4.71 40.478 0.346 7.94 2.62 12.35
12/28/2021 10:45:00 AM 4.72 40.496 0.395 7.94 2.49 12.32
12/28/2021 11:00:00 AM 4.72 40.496 0.238 7.93 2.42 12.25
12/28/2021 11:15:00 AM 4.73 40.514 0.382 7.93 2.6 12.24
12/28/2021 11:30:00 AM 4.73 40.514 0.495 7.92 2.54 12.2
12/28/2021 11:45:00 AM 4.74 40.532 0.375 7.91 2.51 12.19
12/28/2021 12:00:00 PM 4.75 40.55 0.172 7.9 2.41 12.19
12/28/2021 12:15:00 PM 4.76 40.568 0.331 7.94 2.5 12.17
12/28/2021 12:30:00 PM 4.77 40.586 0.315 7.93 2.45 12.19
12/28/2021 12:45:00 PM 4.78 40.604 0.334 7.93 2.44 12.2
12/28/2021 1:00:00 PM 4.81 40.658 0.179 7.92 2.6 12.2
12/28/2021 1:15:00 PM 4.81 40.658 0.329 7.92 2.81 12.13
12/28/2021 1:30:00 PM 4.81 40.658 0.492 7.91 2.43 12.09
12/28/2021 1:45:00 PM 4.82 40.676 0.291 7.91 2.51 12.07
12/28/2021 2:00:00 PM 4.82 40.676 0.174 7.91 2.18 12.06
12/28/2021 2:15:00 PM 4.84 40.712 0.361 7.92 2.8 12.07
12/28/2021 2:30:00 PM 4.84 40.712 0.252 7.91 2.27 12.04
12/28/2021 2:45:00 PM 4.85 40.73 0.372 7.89 2.33 12.01
12/28/2021 3:00:00 PM 4.85 40.73 0.248 7.9 2.45 11.99
12/28/2021 3:15:00 PM 4.85 40.73 0.196 7.88 2.33 11.98
12/28/2021 3:30:00 PM 4.86 40.748 0.192 7.88 2.47 11.97
12/28/2021 3:45:00 PM 4.86 40.748 0.354 7.9 2.46 11.97
12/28/2021 4:00:00 PM 4.86 40.748 0.292 7.88 2.2 11.93
12/28/2021 4:15:00 PM 4.87 40.766 0.311 7.88 2.24 11.93
12/28/2021 4:30:00 PM 4.87 40.766 0.341 7.88 2.31 11.92
12/28/2021 4:45:00 PM 4.87 40.766 0.341 7.88 2.71 11.88
12/28/2021 5:00:00 PM 4.87 40.766 0.33 7.85 2.17 11.88
12/28/2021 5:15:00 PM 4.87 40.766 0.496 7.88 2.25 11.85
12/28/2021 5:30:00 PM 4.87 40.766 0.292 7.86 2.29 11.85
12/28/2021 5:45:00 PM 4.87 40.766 0.306 7.87 2.25 11.86
12/28/2021 6:00:00 PM 4.87 40.766 0.217 7.87 2.14 11.86
12/28/2021 6:15:00 PM 4.88 40.784 0.317 7.85 2.82 11.86
12/28/2021 6:30:00 PM 4.88 40.784 0.313 7.86 2.16 11.86
12/28/2021 6:45:00 PM 4.88 40.784 0.323 7.87 2.18 11.86
12/28/2021 7:00:00 PM 4.88 40.784 0.304 7.86 2.35 11.86
12/28/2021 7:15:00 PM 4.88 40.784 0.353 7.89 2.18 11.86
12/28/2021 7:30:00 PM 4.87 40.766 0.212 7.87 2.1 11.85
12/28/2021 7:45:00 PM 4.87 40.766 0.483 7.87 2.17 11.87
12/28/2021 8:00:00 PM 4.87 40.766 0.364 7.87 2.15 11.88
12/28/2021 8:15:00 PM 4.87 40.766 0.276 7.88 2.19 11.87
12/28/2021 8:30:00 PM 4.87 40.766 0.373 7.87 2.21 11.88
12/28/2021 8:45:00 PM 4.87 40.766 0.368 7.88 2.12 11.88
12/28/2021 9:00:00 PM 4.87 40.766 0.336 7.86 1.94 11.91
12/28/2021 9:15:00 PM 4.88 40.784 0.492 7.9 2.07 11.92
12/28/2021 9:30:00 PM 4.88 40.784 0.241 7.88 2.05 11.92
12/28/2021 9:45:00 PM 4.88 40.784 0.65 7.91 2.14 11.97
12/28/2021 10:00:00 PM 4.88 40.784 0.365 7.86 2.18 11.99
12/28/2021 10:15:00 PM 4.88 40.784 0.339 7.89 2.24 12.03
12/28/2021 10:30:00 PM 4.89 40.802 0.296 7.9 2.31 12.06
12/28/2021 10:45:00 PM 4.89 40.802 0.301 7.91 2.24 12.08
12/28/2021 11:00:00 PM 4.9 40.82 0.301 7.9 2.39 12.11
12/28/2021 11:15:00 PM 4.9 40.82 0.359 7.93 2.09 12.12
12/28/2021 11:30:00 PM 4.91 40.838 0.475 7.91 2.13 12.15
12/28/2021 11:45:00 PM 4.92 40.856 0.484 7.93 2.56 12.17
12/29/2021 12:00:00 AM 4.92 40.856 0.241 7.94 2.49 12.19
12/29/2021 12:15:00 AM 4.93 40.874 0.318 7.94 2.24 12.22
12/29/2021 12:30:00 AM 4.94 40.892 0.373 7.95 2.44 12.23
12/29/2021 12:45:00 AM 4.95 40.91 0.368 7.96 2.26 12.25
12/29/2021 1:00:00 AM 4.95 40.91 0.317 7.96 1.92 12.27
12/29/2021 1:15:00 AM 4.96 40.928 0.323 7.96 2.22 12.29
12/29/2021 1:30:00 AM 4.97 40.946 0.213 7.97 2.53 12.31
12/29/2021 1:45:00 AM 4.98 40.964 0.334 7.99 2.35 12.33
12/29/2021 2:00:00 AM 4.99 40.982 0.313 7.97 2.22 12.35
12/29/2021 2:15:00 AM 5 41 0.303 7.97 2.36 12.35
12/29/2021 2:30:00 AM 5.01 41.018 0.325 7.98 2.02 12.36
12/29/2021 2:45:00 AM 5.02 41.036 0.478 7.99 2.15 12.38
12/29/2021 3:00:00 AM 5.04 41.072 0.308 7.99 2.21 12.39
12/29/2021 3:15:00 AM 5.04 41.072 0.288 7.97 2.21 12.39
12/29/2021 3:30:00 AM 5.05 41.09 0.249 7.99 2.24 12.38
12/29/2021 3:45:00 AM 5.06 41.108 0.374 8 2.4 12.39
12/29/2021 4:00:00 AM 5.07 41.126 0.475 7.99 1.98 12.37
12/29/2021 4:15:00 AM 5.08 41.144 0.649 7.99 2.32 12.37
12/29/2021 4:30:00 AM 5.09 41.162 0.23 7.99 2.18 12.36
12/29/2021 4:45:00 AM 5.1 41.18 0.473 7.99 2.22 12.34
12/29/2021 5:00:00 AM 5.1 41.18 0.24 7.99 2.44 12.33
12/29/2021 5:15:00 AM 5.11 41.198 0.409 8 2.49 12.31
12/29/2021 5:30:00 AM 5.12 41.216 0.246 7.99 2.37 12.3
12/29/2021 5:45:00 AM 5.13 41.234 0.214 7.98 2.18 12.27
12/29/2021 6:00:00 AM 5.13 41.234 0.231 7.98 2.29 12.24
12/29/2021 6:15:00 AM 5.13 41.234 0.273 7.98 2.75 12.23
12/29/2021 6:30:00 AM 5.14 41.252 0.28 7.96 2.51 12.21
12/29/2021 6:45:00 AM 5.14 41.252 0.339 7.96 2.34 12.19
12/29/2021 7:00:00 AM 5.15 41.27 0.314 7.96 2.59 12.17
12/29/2021 7:15:00 AM 5.16 41.288 0.336 7.96 2.38 12.15
12/29/2021 7:30:00 AM 5.17 41.306 0.364 7.95 2.5 12.11
12/29/2021 7:45:00 AM 5.18 41.324 0.243 7.95 2.74 12.1
12/29/2021 8:00:00 AM 5.19 41.342 0.319 7.95 2.36 12.09
12/29/2021 8:15:00 AM 5.2 41.36 0.178 7.94 3.14 12.1
12/29/2021 8:30:00 AM 5.21 41.378 0.292 7.95 2.37 12.1
12/29/2021 8:45:00 AM 5.23 41.414 0.329 7.95 2.48 12.12
12/29/2021 9:00:00 AM 5.24 41.432 0.296 7.95 2.37 12.11
12/29/2021 9:15:00 AM 5.25 41.45 0.37 7.94 2.49 12.09
12/29/2021 9:30:00 AM 5.27 41.486 0.285 7.94 2.53 12.09
12/29/2021 9:45:00 AM 5.29 41.522 0.388 7.95 2.51 12.11
12/29/2021 10:00:00 AM 5.31 41.558 0.315 7.95 2.76 12.1
12/29/2021 10:15:00 AM 5.33 41.594 0.35 7.95 2.34 12.1
12/29/2021 10:30:00 AM 5.35 41.63 0.382 7.95 2.44 12.11
12/29/2021 10:45:00 AM 5.37 41.666 0.47 7.95 2.35 12.11
12/29/2021 11:00:00 AM 5.4 41.72 0.29 7.93 2.27 12.13
12/29/2021 11:15:00 AM 5.43 41.774 0.357 7.91 2.21 12.14
12/29/2021 11:30:00 AM 5.46 41.828 0.201 7.86 2.49 12.13
12/29/2021 11:45:00 AM 5.48 41.864 0.303 7.93 2.29 12.1
12/29/2021 12:00:00 PM 5.57 42.026 0.316 7.94 2.08 12.14
12/29/2021 12:15:00 PM 5.61 42.098 0.249 7.95 2.53 12.15
12/29/2021 12:30:00 PM 5.65 42.17 0.31 7.95 2.17 12.11
12/29/2021 12:45:00 PM 5.71 42.278 0.224 7.94 2.23 12.13
12/29/2021 1:00:00 PM 5.75 42.35 0.288 7.95 2.47 12.11
12/29/2021 1:15:00 PM 5.74 42.332 0.258 7.94 2.7 12.02
12/29/2021 1:30:00 PM 5.76 42.368 0.387 7.95 2.18 12.02
12/29/2021 1:45:00 PM 5.75 42.35 0.377 7.94 2.12 11.98
12/29/2021 2:00:00 PM 5.78 42.404 0.292 7.95 2.49 12.02
12/29/2021 2:15:00 PM 5.8 42.44 0.244 7.94 2.28 12.03
12/29/2021 2:30:00 PM 5.81 42.458 0.386 7.94 2.13 11.99
12/29/2021 2:45:00 PM 5.82 42.476 0.315 7.93 2.12 11.96
12/29/2021 3:00:00 PM 5.83 42.494 0.207 7.92 2.09 11.96
12/29/2021 3:15:00 PM 5.86 42.548 0.39 7.93 2.57 11.96
12/29/2021 3:30:00 PM 5.86 42.548 0.41 7.92 2.31 11.9
12/29/2021 3:45:00 PM 5.87 42.566 0.359 7.93 1.97 11.86
12/29/2021 4:00:00 PM 5.86 42.548 0.271 7.9 2.37 11.81
12/29/2021 4:15:00 PM 5.86 42.548 0.386 7.9 2.26 11.76
12/29/2021 4:30:00 PM 5.86 42.548 0.668 7.91 2.26 11.72
12/29/2021 4:45:00 PM 5.86 42.548 0.354 7.9 2.19 11.68
12/29/2021 5:00:00 PM 5.86 42.548 0.255 7.89 2.16 11.66
12/29/2021 5:15:00 PM 5.86 42.548 0.232 7.89 2.1 11.66
12/29/2021 5:30:00 PM 5.87 42.566 0.27 7.88 2.07 11.64
12/29/2021 5:45:00 PM 5.88 42.584 0.387 7.88 2.34 11.64
12/29/2021 6:00:00 PM 5.89 42.602 0.417 7.88 2.38 11.62
12/29/2021 6:15:00 PM 5.9 42.62 0.21 7.88 2.08 11.64
12/29/2021 6:30:00 PM 5.91 42.638 0.371 7.89 2.19 11.64
12/29/2021 6:45:00 PM 5.92 42.656 0.402 7.86 2.18 11.64
12/29/2021 7:00:00 PM 5.94 42.692 0.288 7.89 2.2 11.64
12/29/2021 7:15:00 PM 5.94 42.692 0.375 7.89 2.21 11.64
12/29/2021 7:30:00 PM 5.95 42.71 0.372 7.89 2.15 11.65
12/29/2021 7:45:00 PM 5.96 42.728 0.41 7.8 1.95 11.65
12/29/2021 8:00:00 PM 5.96 42.728 0.277 7.89 2.09 11.65
12/29/2021 8:15:00 PM 5.96 42.728 0.283 7.87 2.29 11.67
12/29/2021 8:30:00 PM 5.95 42.71 0.26 7.89 2.11 11.66
12/29/2021 8:45:00 PM 5.95 42.71 0.36 7.89 2.69 11.68
12/29/2021 9:00:00 PM 5.95 42.71 0.248 7.89 2.12 11.68
12/29/2021 9:15:00 PM 5.95 42.71 0.283 7.9 2.25 11.69
12/29/2021 9:30:00 PM 5.96 42.728 0.376 7.87 2.82 11.69
12/29/2021 9:45:00 PM 5.96 42.728 0.355 7.88 2.06 11.7
12/29/2021 10:00:00 PM 5.96 42.728 0.261 7.89 1.88 11.71
12/29/2021 10:15:00 PM 5.96 42.728 0.356 7.9 2.15 11.73
12/29/2021 10:30:00 PM 5.97 42.746 0.363 7.9 2.06 11.74
12/29/2021 10:45:00 PM 5.97 42.746 0.342 7.91 2.28 11.76
12/29/2021 11:00:00 PM 5.98 42.764 0.337 7.91 2.38 11.78
12/29/2021 11:15:00 PM 6 42.8 0.39 7.9 2.2 11.8
12/29/2021 11:30:00 PM 6.01 42.818 0.258 7.91 2.14 11.83
12/29/2021 11:45:00 PM 6.03 42.854 0.355 7.93 2.15 11.85
12/30/2021 12:00:00 AM 6.05 42.89 0.311 7.93 2.29 11.87
12/30/2021 12:15:00 AM 6.06 42.908 0.351 7.94 2.43 11.91
12/30/2021 12:30:00 AM 6.08 42.944 0.237 7.95 2.39 11.92
12/30/2021 12:45:00 AM 6.11 42.998 0.314 7.94 2.19 11.97
12/30/2021 1:00:00 AM 6.13 43.034 0.392 7.95 2.56 12.01
12/30/2021 1:15:00 AM 6.15 43.07 0.259 7.96 2.39 12.06
12/30/2021 1:30:00 AM 6.18 43.124 0.407 7.98 2.35 12.1
12/30/2021 1:45:00 AM 6.21 43.178 0.662 7.99 2.28 12.13
12/30/2021 2:00:00 AM 6.24 43.232 0.344 8 2.44 12.17
12/30/2021 2:15:00 AM 6.27 43.286 0.279 7.99 2.19 12.21
12/30/2021 2:30:00 AM 6.29 43.322 0.323 8.01 2.41 12.24
12/30/2021 2:45:00 AM 6.32 43.376 0.281 7.94 2.2 12.27
12/30/2021 3:00:00 AM 6.35 43.43 0.335 8.03 2.39 12.31
12/30/2021 3:15:00 AM 6.38 43.484 0.312 8.04 3.68 12.31
12/30/2021 3:30:00 AM 6.4 43.52 0.259 8.05 2.52 12.34
12/30/2021 3:45:00 AM 6.43 43.574 0.361 8.06 2.41 12.35
12/30/2021 4:00:00 AM 6.45 43.61 0.223 8.07 2.53 12.35
12/30/2021 4:15:00 AM 6.47 43.646 0.364 8.03 3.03 12.37
12/30/2021 4:30:00 AM 6.5 43.7 0.229 8.07 2.57 12.37
12/30/2021 4:45:00 AM 6.52 43.736 0.361 8.09 2.68 12.38
12/30/2021 5:00:00 AM 6.54 43.772 0.367 8.01 2.28 12.37
12/30/2021 5:15:00 AM 6.56 43.808 0.354 8.02 2.18 12.37
12/30/2021 5:30:00 AM 6.58 43.844 0.338 8.09 2.39 12.36
12/30/2021 5:45:00 AM 6.59 43.862 0.359 8.09 2.62 12.34
12/30/2021 6:00:00 AM 6.6 43.88 0.275 8.07 2.2 12.32
12/30/2021 6:15:00 AM 6.61 43.898 0.341 8.08 2.16 12.28
12/30/2021 6:30:00 AM 6.62 43.916 0.646 8.08 2.41 12.24
12/30/2021 6:45:00 AM 6.62 43.916 0.327 8.06 2.82 12.2
12/30/2021 7:00:00 AM 6.63 43.934 0.364 8.06 2.42 12.15
12/30/2021 7:15:00 AM 6.63 43.934 0.312 8.05 2.12 12.12
12/30/2021 7:30:00 AM 6.63 43.934 0.328 8.06 2.22 12.09
12/30/2021 7:45:00 AM 6.63 43.934 0.228 8.03 3.11 12.04
12/30/2021 8:00:00 AM 6.63 43.934 0.249 8.03 2.44 12.01
12/30/2021 8:15:00 AM 6.63 43.934 0.329 8.02 2.24 11.99
12/30/2021 8:30:00 AM 6.64 43.952 0.331 8.02 2.08 11.98
12/30/2021 8:45:00 AM 6.64 43.952 0.224 8.01 2.09 11.97
12/30/2021 9:00:00 AM 6.65 43.97 0.189 7.91 2.14 11.99
12/30/2021 9:15:00 AM 6.66 43.988 0.286 8 2.09 11.99
12/30/2021 9:30:00 AM 6.68 44.024 0.339 8.01 2.48 11.98
12/30/2021 9:45:00 AM 6.68 44.024 0.329 8 2.12 11.88
12/30/2021 10:00:00 AM 6.68 44.024 0.305 8 2.1 11.88
12/30/2021 10:15:00 AM 6.7 44.06 0.463 8.01 1.88 11.91
12/30/2021 10:30:00 AM 6.71 44.078 0.225 7.99 2.14 11.87
12/30/2021 10:45:00 AM 6.73 44.114 0.199 7.91 2.18 11.88
12/30/2021 11:00:00 AM 6.76 44.168 0.361 7.99 2.1 11.86
12/30/2021 11:15:00 AM 6.77 44.186 0.193 7.96 2.11 11.83
12/30/2021 11:30:00 AM 6.81 44.258 0.186 7.97 2.03 11.87
12/30/2021 11:45:00 AM 6.85 44.33 0.288 7.92 2.4 11.88
12/30/2021 12:00:00 PM 6.94 44.492 0.23 7.98 2.02 11.94
12/30/2021 12:15:00 PM 6.97 44.546 0.366 7.98 1.95 11.83
12/30/2021 12:30:00 PM 6.98 44.564 0.456 7.98 1.89 11.77
12/30/2021 12:45:00 PM 6.98 44.564 0.293 7.96 2.06 11.7
12/30/2021 1:00:00 PM 7 44.6 0.293 7.93 2.01 11.68
12/30/2021 1:15:00 PM 7 44.6 0.283 7.94 2.02 11.63
12/30/2021 1:30:00 PM 7.01 44.618 0.293 7.93 2.11 11.59
12/30/2021 1:45:00 PM 7.03 44.654 0.336 7.93 2 11.54
12/30/2021 2:00:00 PM 7.05 44.69 0.194 7.92 1.87 11.51
12/30/2021 2:15:00 PM 7.07 44.726 0.303 7.92 1.84 11.49
12/30/2021 2:30:00 PM 7.08 44.744 0.207 7.91 1.9 11.44
12/30/2021 2:45:00 PM 7.1 44.78 0.308 7.91 1.75 11.41
12/30/2021 3:00:00 PM 7.11 44.798 0.195 7.9 1.91 11.37
12/30/2021 3:15:00 PM 7.12 44.816 0.286 7.91 1.9 11.33
12/30/2021 3:30:00 PM 7.13 44.834 0.317 7.89 2.38 11.35
12/30/2021 3:45:00 PM 7.14 44.852 0.31 7.88 1.61 11.33
12/30/2021 4:00:00 PM 7.15 44.87 0.273 7.87 1.95 11.31
12/30/2021 4:15:00 PM 7.16 44.888 0.391 7.88 1.79 11.29
12/30/2021 4:30:00 PM 7.17 44.906 0.232 7.87 1.7 11.26
12/30/2021 4:45:00 PM 7.17 44.906 0.236 7.87 1.95 11.23
12/30/2021 5:00:00 PM 7.18 44.924 0.355 7.88 1.85 11.22
12/30/2021 5:15:00 PM 7.18 44.924 0.312 7.86 1.93 11.21
12/30/2021 5:30:00 PM 7.19 44.942 0.252 7.87 1.9 11.19
12/30/2021 5:45:00 PM 7.2 44.96 0.383 7.86 1.85 11.18
12/30/2021 6:00:00 PM 7.2 44.96 0.306 7.85 1.73 11.18
12/30/2021 6:15:00 PM 7.21 44.978 0.303 7.86 1.77 11.17
12/30/2021 6:30:00 PM 7.21 44.978 0.347 7.86 1.82 11.16
12/30/2021 6:45:00 PM 7.22 44.996 0.259 7.86 1.89 11.16
12/30/2021 7:00:00 PM 7.22 44.996 0.218 7.84 1.71 11.16
12/30/2021 7:15:00 PM 7.23 45.014 0.386 7.85 1.96 11.16
12/30/2021 7:30:00 PM 7.24 45.032 0.27 7.84 1.92 11.15
12/30/2021 7:45:00 PM 7.25 45.05 0.379 7.86 1.88 11.16
12/30/2021 8:00:00 PM 7.25 45.05 0.279 7.84 1.77 11.17
12/30/2021 8:15:00 PM 7.26 45.068 0.303 7.86 2.11 11.15
12/30/2021 8:30:00 PM 7.27 45.086 0.305 7.84 2.08 11.17
12/30/2021 8:45:00 PM 7.28 45.104 0.387 7.85 2.04 11.18
12/30/2021 9:00:00 PM 7.29 45.122 0.254 7.84 2.32 11.16
12/30/2021 9:15:00 PM 7.3 45.14 0.308 7.86 1.82 11.19
12/30/2021 9:30:00 PM 7.31 45.158 0.306 7.86 1.86 11.2
12/30/2021 9:45:00 PM 7.33 45.194 0.371 7.86 2.1 11.22
12/30/2021 10:00:00 PM 7.34 45.212 0.31 7.86 2.08 11.23
12/30/2021 10:15:00 PM 7.36 45.248 0.643 7.88 1.86 11.26
12/30/2021 10:30:00 PM 7.38 45.284 0.641 7.88 1.92 11.27
12/30/2021 10:45:00 PM 7.4 45.32 0.324 7.87 2.05 11.32
12/30/2021 11:00:00 PM 7.42 45.356 0.291 7.89 2.81 11.33
12/30/2021 11:15:00 PM 7.43 45.374 0.229 7.88 1.94 11.36
12/30/2021 11:30:00 PM 7.45 45.41 0.268 7.9 3.09 11.39
12/30/2021 11:45:00 PM 7.47 45.446 0.636 7.89 1.97 11.43
12/31/2021 12:00:00 AM 7.49 45.482 0.368 7.91 2.11 11.45
12/31/2021 12:15:00 AM 7.51 45.518 0.342 7.92 2.52 11.49
12/31/2021 12:30:00 AM 7.54 45.572 0.311 7.92 2.03 11.53
12/31/2021 12:45:00 AM 7.56 45.608 0.257 7.94 2 11.56
12/31/2021 1:00:00 AM 7.57 45.626 0.337 7.95 2.3 11.59
12/31/2021 1:15:00 AM 7.57 45.626 0.317 7.94 2.01 11.62
12/31/2021 1:30:00 AM 7.58 45.644 0.636 7.96 2.03 11.61
12/31/2021 1:45:00 AM 7.6 45.68 0.299 7.96 2.13 11.66
12/31/2021 2:00:00 AM 7.63 45.734 0.221 7.97 1.98 11.66
12/31/2021 2:15:00 AM 7.66 45.788 0.205 7.96 2.06 11.67
12/31/2021 2:30:00 AM 7.68 45.824 0.356 7.97 2.05 11.66
12/31/2021 2:45:00 AM 7.7 45.86 0.295 7.97 3.59 11.69
12/31/2021 3:00:00 AM 7.72 45.896 0.292 7.99 3.13 11.69
12/31/2021 3:15:00 AM 7.74 45.932 0.323 7.99 4.84 11.65
12/31/2021 3:30:00 AM 7.76 45.968 0.381 7.95 2.74 11.58
12/31/2021 3:45:00 AM 7.77 45.986 0.219 7.99 2.73 11.57
12/31/2021 4:00:00 AM 7.79 46.022 0.392 7.99 3.09 11.6
12/31/2021 4:15:00 AM 7.8 46.04 0.245 7.99 2.55 11.55
12/31/2021 4:30:00 AM 7.81 46.058 0.296 7.98 3.07 11.55
12/31/2021 4:45:00 AM 7.82 46.076 0.216 7.97 2.9 11.53
12/31/2021 5:00:00 AM 7.82 46.076 0.572 7.97 2.11 11.48
12/31/2021 5:15:00 AM 7.83 46.094 0.632 7.97 2.13 11.41
12/31/2021 5:30:00 AM 7.84 46.112 0.571 7.96 2.3 11.42
12/31/2021 5:45:00 AM 7.84 46.112 0.234 7.95 2.56 11.39
12/31/2021 6:00:00 AM 7.85 46.13 0.336 7.95 2.35 11.36
12/31/2021 6:15:00 AM 7.85 46.13 0.332 7.94 3.38 11.33
12/31/2021 6:30:00 AM 7.86 46.148 0.204 7.94 2.32 11.29
12/31/2021 6:45:00 AM 7.87 46.166 0.244 7.93 2.35 11.26
12/31/2021 7:00:00 AM 7.87 46.166 0.249 7.87 2.35 11.21
12/31/2021 7:15:00 AM 7.88 46.184 0.314 7.93 2.28 11.19
12/31/2021 7:30:00 AM 7.88 46.184 0.247 7.93 2.76 11.2
12/31/2021 7:45:00 AM 7.88 46.184 0.259 7.91 2.38 11.18
12/31/2021 8:00:00 AM 7.89 46.202 0.359 7.92 2.32 11.16
12/31/2021 8:15:00 AM 7.9 46.22 0.326 7.91 2.4 11.16
12/31/2021 8:30:00 AM 7.91 46.238 0.628 7.91 2.23 11.15
12/31/2021 8:45:00 AM 7.93 46.274 0.292 7.9 2.26 11.18
12/31/2021 9:00:00 AM 7.94 46.292 0.312 7.91 2.28 11.14
12/31/2021 9:15:00 AM 7.95 46.31 0.317 7.9 2.86 11.11
12/31/2021 9:30:00 AM 7.96 46.328 0.321 7.89 2.93 11.08
12/31/2021 9:45:00 AM 7.98 46.364 0.309 7.88 2.42 11.1
12/31/2021 10:00:00 AM 7.99 46.382 0.307 7.88 2.06 11.06
12/31/2021 10:15:00 AM 8 46.4 0.361 7.88 2.99 11.04
12/31/2021 10:30:00 AM 8.02 46.436 0.312 7.88 2.38 11.06
12/31/2021 10:45:00 AM 8.04 46.472 0.346 7.89 2.41 11.06
12/31/2021 11:00:00 AM 8.06 46.508 0.37 7.89 2.29 11.08
12/31/2021 11:15:00 AM 8.08 46.544 0.342 7.88 2.27 11.08
12/31/2021 11:30:00 AM 8.1 46.58 0.628 7.87 2.61 11.02
12/31/2021 11:45:00 AM 8.12 46.616 0.378 7.88 2.08 11.03
12/31/2021 12:00:00 PM 8.13 46.634 0.272 7.86 2.24 11
12/31/2021 12:15:00 PM 8.15 46.67 0.346 7.88 2.18 10.99
12/31/2021 12:30:00 PM 8.16 46.688 0.304 7.87 2.57 10.98
12/31/2021 12:45:00 PM 8.19 46.742 0.373 7.88 2.15 11.03
12/31/2021 1:00:00 PM 8.22 46.796 0.319 7.89 2.31 10.99
12/31/2021 1:15:00 PM 8.23 46.814 0.38 7.87 2.35 10.96
12/31/2021 1:30:00 PM 8.25 46.85 0.252 7.87 2.18 10.91
12/31/2021 1:45:00 PM 8.26 46.868 0.389 7.88 2.75 10.9
12/31/2021 2:00:00 PM 8.27 46.886 0.25 7.87 2.63 10.88
12/31/2021 2:15:00 PM 8.28 46.904 0.282 7.86 2.22 10.89
12/31/2021 2:30:00 PM 8.3 46.94 0.219 7.86 2.16 10.91
12/31/2021 2:45:00 PM 8.31 46.958 0.644 7.87 2.54 10.9
12/31/2021 3:00:00 PM 8.32 46.976 0.323 7.86 1.94 10.87
12/31/2021 3:15:00 PM 8.34 47.012 0.316 7.87 1.96 10.93
12/31/2021 3:30:00 PM 8.36 47.048 0.641 7.86 1.97 10.94
12/31/2021 3:45:00 PM 8.36 47.048 0.289 7.87 2.14 10.89
12/31/2021 4:00:00 PM 8.37 47.066 0.33 7.87 2.44 10.89
12/31/2021 4:15:00 PM 8.37 47.066 0.584 7.87 1.97 10.82
12/31/2021 4:30:00 PM 8.36 47.048 0.34 7.86 1.98 10.76
12/31/2021 4:45:00 PM 8.35 47.03 0.228 7.84 2.13 10.72
12/31/2021 5:00:00 PM 8.35 47.03 0.368 7.84 2 10.68
12/31/2021 5:15:00 PM 8.35 47.03 0.398 7.84 2.07 10.67
12/31/2021 5:30:00 PM 8.36 47.048 0.381 7.84 1.86 10.67
12/31/2021 5:45:00 PM 8.36 47.048 0.369 7.84 2.06 10.66
12/31/2021 6:00:00 PM 8.36 47.048 0.379 7.84 1.98 10.69
12/31/2021 6:15:00 PM 8.36 47.048 0.349 7.83 2.71 10.68
12/31/2021 6:30:00 PM 8.37 47.066 0.266 7.84 2.09 10.68
12/31/2021 6:45:00 PM 8.37 47.066 0.342 7.84 2.11 10.66
12/31/2021 7:00:00 PM 8.37 47.066 0.336 7.83 1.85 10.65
12/31/2021 7:15:00 PM 8.37 47.066 0.331 7.83 2.09 10.65
12/31/2021 7:30:00 PM 8.38 47.084 0.221 7.83 2.01 10.65
12/31/2021 7:45:00 PM 8.38 47.084 0.358 7.84 2.38 10.63
12/31/2021 8:00:00 PM 8.39 47.102 0.233 7.84 2.12 10.64
12/31/2021 8:15:00 PM 8.39 47.102 0.217 7.83 1.91 10.62
12/31/2021 8:30:00 PM 8.4 47.12 0.342 7.84 2.03 10.64
12/31/2021 8:45:00 PM 8.4 47.12 0.241 7.84 2.02 10.65
12/31/2021 9:00:00 PM 8.41 47.138 0.641 7.84 1.91 10.64
12/31/2021 9:15:00 PM 8.42 47.156 0.641 7.84 2.69 10.66
12/31/2021 9:30:00 PM 8.43 47.174 0.241 7.85 2.67 10.65
12/31/2021 9:45:00 PM 8.44 47.192 0.244 7.84 2.03 10.66
12/31/2021 10:00:00 PM 8.44 47.192 0.224 7.83 1.88 10.66
12/31/2021 10:15:00 PM 8.45 47.21 0.226 7.84 1.88 10.67
12/31/2021 10:30:00 PM 8.46 47.228 0.227 7.84 1.66 10.69
12/31/2021 10:45:00 PM 8.47 47.246 0.308 7.85 1.91 10.7
12/31/2021 11:00:00 PM 8.47 47.246 0.255 7.85 1.85 10.71
12/31/2021 11:15:00 PM 8.48 47.264 0.574 7.85 2.13 10.71
12/31/2021 11:30:00 PM 8.49 47.282 0.338 7.86 2.03 10.74
12/31/2021 11:45:00 PM 8.5 47.3 0.237 7.86 1.66 10.75
1/1/2022 12:00:00 AM 8.51 47.318 0.355 7.86 1.79 10.77
1/1/2022 12:15:00 AM 8.52 47.336 0.276 7.86 1.84 10.8
1/1/2022 12:30:00 AM 8.53 47.354 0.345 7.86 2.06 10.8
1/1/2022 12:45:00 AM 8.54 47.372 0.325 7.87 1.93 10.82
1/1/2022 1:00:00 AM 8.55 47.39 0.208 7.86 2.09 10.84
1/1/2022 1:15:00 AM 8.56 47.408 0.306 7.87 1.79 10.86
1/1/2022 1:30:00 AM 8.57 47.426 0.344 7.88 1.99 10.87
1/1/2022 1:45:00 AM 8.58 47.444 0.271 7.87 2.55 10.88
1/1/2022 2:00:00 AM 8.6 47.48 0.302 7.89 1.97 10.89
1/1/2022 2:15:00 AM 8.61 47.498 0.223 7.89 1.81 10.93
1/1/2022 2:30:00 AM 8.62 47.516 0.314 7.9 2.88 10.94
1/1/2022 2:45:00 AM 8.64 47.552 0.341 7.91 2.06 10.95
1/1/2022 3:00:00 AM 8.65 47.57 0.306 7.91 2.04 10.97
1/1/2022 3:15:00 AM 8.66 47.588 0.25 7.91 2.13 10.98
1/1/2022 3:30:00 AM 8.68 47.624 0.372 7.92 2 11
1/1/2022 3:45:00 AM 8.69 47.642 0.369 7.92 1.84 11.02
1/1/2022 4:00:00 AM 8.7 47.66 0.209 7.92 1.94 11.04
1/1/2022 4:15:00 AM 8.72 47.696 0.566 7.93 2.11 11.04
1/1/2022 4:30:00 AM 8.73 47.714 0.201 7.92 2.09 11.03
1/1/2022 4:45:00 AM 8.74 47.732 0.312 7.94 2.19 11.05
1/1/2022 5:00:00 AM 8.75 47.75 0.213 7.93 1.97 11.03
1/1/2022 5:15:00 AM 8.76 47.768 0.372 7.93 2.17 11.03
1/1/2022 5:30:00 AM 8.77 47.786 0.623 7.93 1.98 11.02
1/1/2022 5:45:00 AM 8.78 47.804 0.565 7.94 2.13 11
1/1/2022 6:00:00 AM 8.79 47.822 0.209 7.93 2.19 10.99
1/1/2022 6:15:00 AM 8.8 47.84 0.564 7.94 2.23 11
1/1/2022 6:30:00 AM 8.81 47.858 0.623 7.94 1.93 10.95
1/1/2022 6:45:00 AM 8.82 47.876 0.373 7.93 2.18 10.95
1/1/2022 7:00:00 AM 8.83 47.894 0.624 7.93 2.04 10.92
1/1/2022 7:15:00 AM 8.83 47.894 0.368 7.93 2.43 10.91
1/1/2022 7:30:00 AM 8.84 47.912 0.23 7.92 2.36 10.9
1/1/2022 7:45:00 AM 8.85 47.93 0.308 7.92 2.55 10.88
1/1/2022 8:00:00 AM 8.86 47.948 0.62 7.92 1.98 10.86
1/1/2022 8:15:00 AM 8.87 47.966 0.317 7.92 2.5 10.83
1/1/2022 8:30:00 AM 8.88 47.984 0.326 7.91 2.46 10.83
1/1/2022 8:45:00 AM 8.88 47.984 0.302 7.89 2.38 10.82
1/1/2022 9:00:00 AM 8.89 48.002 0.2 7.89 2.18 10.83
1/1/2022 9:15:00 AM 8.9 48.02 0.29 7.9 2.29 10.83
1/1/2022 9:30:00 AM 8.91 48.038 0.616 7.89 2.03 10.79
1/1/2022 9:45:00 AM 8.92 48.056 0.616 7.89 1.88 10.79
1/1/2022 10:00:00 AM 8.93 48.074 0.222 7.89 1.89 10.79
1/1/2022 10:15:00 AM 8.94 48.092 0.309 7.89 1.71 10.8
1/1/2022 10:30:00 AM 8.95 48.11 0.328 7.9 2.07 10.8
1/1/2022 10:45:00 AM 8.96 48.128 0.244 7.9 1.92 10.74
1/1/2022 11:00:00 AM 8.97 48.146 0.312 7.9 1.91 10.71
1/1/2022 11:15:00 AM 8.98 48.164 0.309 7.89 1.82 10.74
1/1/2022 11:30:00 AM 8.99 48.182 0.306 7.87 1.76 10.7
1/1/2022 11:45:00 AM 9.01 48.218 0.302 7.87 2.02 10.69
1/1/2022 12:00:00 PM 9.02 48.236 0.314 7.88 1.84 10.67
1/1/2022 12:15:00 PM 9.04 48.272 0.365 7.88 1.86 10.68
1/1/2022 12:30:00 PM 9.05 48.29 0.247 7.88 1.99 10.65
1/1/2022 12:45:00 PM 9.07 48.326 0.272 7.87 1.81 10.63
1/1/2022 1:00:00 PM 9.08 48.344 0.251 7.87 2.05 10.62
1/1/2022 1:15:00 PM 9.1 48.38 0.272 7.87 2.45 10.62
1/1/2022 1:30:00 PM 9.11 48.398 0.63 7.87 2.18 10.62
1/1/2022 1:45:00 PM 9.13 48.434 0.339 7.87 2.1 10.61
1/1/2022 2:00:00 PM 9.14 48.452 0.222 7.85 2.05 10.56
1/1/2022 2:15:00 PM 9.16 48.488 0.352 7.85 1.85 10.57
1/1/2022 2:30:00 PM 9.17 48.506 0.238 7.87 1.82 10.57
1/1/2022 2:45:00 PM 9.18 48.524 0.312 7.86 1.72 10.53
1/1/2022 3:00:00 PM 9.19 48.542 0.326 7.85 1.64 10.49
1/1/2022 3:15:00 PM 9.2 48.56 0.271 7.85 1.71 10.46
1/1/2022 3:30:00 PM 9.22 48.596 0.283 7.84 1.95 10.48
1/1/2022 3:45:00 PM 9.22 48.596 0.561 7.85 1.93 10.45
1/1/2022 4:00:00 PM 9.22 48.596 0.382 7.83 1.93 10.39
1/1/2022 4:15:00 PM 9.21 48.578 0.383 7.82 1.91 10.38
1/1/2022 4:30:00 PM 9.22 48.596 0.582 7.83 1.91 10.36
1/1/2022 4:45:00 PM 9.22 48.596 0.365 7.83 1.81 10.34
1/1/2022 5:00:00 PM 9.23 48.614 0.316 7.83 1.69 10.32
1/1/2022 5:15:00 PM 9.23 48.614 0.232 7.83 2.39 10.32
1/1/2022 5:30:00 PM 9.23 48.614 0.325 7.82 1.61 10.32
1/1/2022 5:45:00 PM 9.24 48.632 0.35 7.82 1.97 10.26
1/1/2022 6:00:00 PM 9.25 48.65 0.264 7.82 2.27 10.29
1/1/2022 6:15:00 PM 9.26 48.668 0.583 7.83 2.39 10.32
1/1/2022 6:30:00 PM 9.26 48.668 0.337 7.82 1.71 10.29
1/1/2022 6:45:00 PM 9.27 48.686 0.585 7.82 2.38 10.3
1/1/2022 7:00:00 PM 9.28 48.704 0.232 7.82 2.85 10.3
1/1/2022 7:15:00 PM 9.28 48.704 0.261 7.82 2.24 10.3
1/1/2022 7:30:00 PM 9.29 48.722 0.316 7.81 1.73 10.26
1/1/2022 7:45:00 PM 9.3 48.74 0.582 7.83 2.42 10.27
1/1/2022 8:00:00 PM 9.31 48.758 0.223 7.81 1.84 10.25
1/1/2022 8:15:00 PM 9.31 48.758 0.35 7.82 2.15 10.27
1/1/2022 8:30:00 PM 9.32 48.776 0.333 7.82 2.68 10.28
1/1/2022 8:45:00 PM 9.33 48.794 0.356 7.8 2.51 10.28
1/1/2022 9:00:00 PM 9.34 48.812 0.579 7.82 2.06 10.31
1/1/2022 9:15:00 PM 9.35 48.83 0.578 7.82 2.05 10.31
1/1/2022 9:30:00 PM 9.36 48.848 0.358 7.82 2.54 10.3
1/1/2022 9:45:00 PM 9.36 48.848 0.638 7.82 2.04 10.33
1/1/2022 10:00:00 PM 9.37 48.866 0.28 7.82 3.01 10.35
1/1/2022 10:15:00 PM 9.38 48.884 0.334 7.83 2.89 10.38
1/1/2022 10:30:00 PM 9.4 48.92 0.28 7.84 2.22 10.4
1/1/2022 10:45:00 PM 9.41 48.938 0.631 7.82 2.34 10.42
1/1/2022 11:00:00 PM 9.43 48.974 0.281 7.84 2.79 10.46
1/1/2022 11:15:00 PM 9.45 49.01 0.271 7.82 2.87 10.47
1/1/2022 11:30:00 PM 9.47 49.046 0.375 7.85 3.02 10.47
1/1/2022 11:45:00 PM 9.49 49.082 0.304 7.84 3.22 10.5
1/2/2022 12:00:00 AM 9.51 49.118 0.359 7.86 4.94 10.53
1/2/2022 12:15:00 AM 9.53 49.154 0.23 7.85 4.93 10.57
1/2/2022 12:30:00 AM 9.55 49.19 0.318 7.86 6.1 10.63
1/2/2022 12:45:00 AM 9.58 49.244 0.343 7.87 3.7 10.65
1/2/2022 1:00:00 AM 9.61 49.298 0.362 7.87 4.64 10.65
1/2/2022 1:15:00 AM 9.64 49.352 0.285 7.87 8.35 10.66
1/2/2022 1:30:00 AM 9.67 49.406 0.382 7.87 9.88 10.63
1/2/2022 1:45:00 AM 9.69 49.442 0.324 7.86 8.09 10.59
1/2/2022 2:00:00 AM 9.72 49.496 0.377 7.85 11.41 10.58
1/2/2022 2:15:00 AM 9.74 49.532 0.211 7.84 10.25 10.54
1/2/2022 2:30:00 AM 9.76 49.568 0.3 7.83 7.85 10.49
1/2/2022 2:45:00 AM 9.79 49.622 0.196 7.82 8.61 10.45
1/2/2022 3:00:00 AM 9.82 49.676 0.286 7.82 9.26 10.41
1/2/2022 3:15:00 AM 9.85 49.73 0.202 7.8 8.77 10.39
1/2/2022 3:30:00 AM 9.87 49.766 0.293 7.8 10.79 10.35
1/2/2022 3:45:00 AM 9.86 49.748 0.207 7.78 6.69 10.34
1/2/2022 4:00:00 AM 9.84 49.712 0.29 7.74 13.73 10.34
1/2/2022 4:15:00 AM 9.82 49.676 0.219 7.77 10.93 10.34
1/2/2022 4:30:00 AM 9.8 49.64 0.358 7.78 8.47 10.35
1/2/2022 4:45:00 AM 9.78 49.604 0.343 7.77 9.66 10.35
1/2/2022 5:00:00 AM 9.77 49.586 0.364 7.77 11.2 10.36
1/2/2022 5:15:00 AM 9.75 49.55 0.312 7.77 10.19 10.38
1/2/2022 5:30:00 AM 9.72 49.496 0.339 7.76 8.84 10.41
1/2/2022 5:45:00 AM 9.7 49.46 0.217 7.78 9.75 10.43
1/2/2022 6:00:00 AM 9.68 49.424 0.249 7.79 8.41 10.46
1/2/2022 6:15:00 AM 9.66 49.388 0.325 7.79 7.81 10.48
1/2/2022 6:30:00 AM 9.64 49.352 0.593 7.79 9.33 10.49
1/2/2022 6:45:00 AM 9.63 49.334 0.3 7.8 9.82 10.5
1/2/2022 7:00:00 AM 9.62 49.316 0.258 7.76 9.84 10.51
1/2/2022 7:15:00 AM 9.62 49.316 0.424 7.79 11.75 10.51
1/2/2022 7:30:00 AM 9.62 49.316 0.277 7.78 12.38 10.51
1/2/2022 7:45:00 AM 9.62 49.316 0.309 7.79 12.56 10.49
1/2/2022 8:00:00 AM 9.62 49.316 0.183 7.77 12 10.49
1/2/2022 8:15:00 AM 9.63 49.334 0.431 7.77 11.43 10.49
1/2/2022 8:30:00 AM 9.65 49.37 0.295 7.78 11.66 10.49
1/2/2022 8:45:00 AM 9.66 49.388 0.237 7.77 12.49 10.49
1/2/2022 9:00:00 AM 9.68 49.424 0.272 7.76 11.53 10.49
1/2/2022 9:15:00 AM 9.7 49.46 0.273 7.77 10.59 10.5
1/2/2022 9:30:00 AM 9.72 49.496 0.344 7.77 12.07 10.5
1/2/2022 9:45:00 AM 9.74 49.532 0.321 7.77 10.9 10.51
1/2/2022 10:00:00 AM 9.76 49.568 0.271 7.77 10.57 10.51
1/2/2022 10:15:00 AM 9.78 49.604 0.293 7.75 10.45 10.52
1/2/2022 10:30:00 AM 9.79 49.622 0.298 7.76 12.74 10.52
1/2/2022 10:45:00 AM 9.8 49.64 0.257 7.76 11.38 10.53
1/2/2022 11:00:00 AM 9.81 49.658 0.233 7.75 11.68 10.53
1/2/2022 11:15:00 AM 9.82 49.676 0.224 7.75 12.13 10.53
1/2/2022 11:30:00 AM 9.82 49.676 0.282 7.76 12.27 10.53
1/2/2022 11:45:00 AM 9.82 49.676 0.286 7.77 12.87 10.55
1/2/2022 12:00:00 PM 9.84 49.712 0.273 7.77 13.38 10.56
1/2/2022 12:15:00 PM 9.86 49.748 0.257 7.76 13.87 10.56
1/2/2022 12:30:00 PM 9.88 49.784 0.29 7.76 13.57 10.58
1/2/2022 12:45:00 PM 9.88 49.784 0.357 7.76 13.97 10.57
1/2/2022 1:00:00 PM 9.9 49.82 0.291 7.77 13.3 10.59
1/2/2022 1:15:00 PM 9.92 49.856 0.232 7.78 14 10.61
1/2/2022 1:30:00 PM 9.94 49.892 0.255 7.81 13.2 10.63
1/2/2022 1:45:00 PM 9.96 49.928 0.219 7.77 12.97 10.62
1/2/2022 2:00:00 PM 9.98 49.964 0.289 7.78 13.94 10.64
1/2/2022 2:15:00 PM 9.99 49.982 0.211 7.78 13.65 10.63
1/2/2022 2:30:00 PM 10.01 50.018 0.254 7.79 14.31 10.64
1/2/2022 2:45:00 PM 10.03 50.054 0.239 7.8 13.9 10.64
1/2/2022 3:00:00 PM 10.04 50.072 0.252 7.8 14.06 10.63
1/2/2022 3:15:00 PM 10.06 50.108 0.274 7.81 14.16 10.63
1/2/2022 3:30:00 PM 10.07 50.126 0.276 7.8 14.94 10.63
1/2/2022 3:45:00 PM 10.08 50.144 0.234 7.8 16.37 10.63
1/2/2022 4:00:00 PM 10.09 50.162 0.282 7.79 14.28 10.62
1/2/2022 4:15:00 PM 10.1 50.18 0.219 7.79 18.18 10.62
1/2/2022 4:30:00 PM 10.12 50.216 0.244 7.81 16.53 10.62
1/2/2022 4:45:00 PM 10.13 50.234 0.214 7.8 13.59 10.62
1/2/2022 5:00:00 PM 10.14 50.252 0.259 7.81 14.55 10.62
1/2/2022 5:15:00 PM 10.15 50.27 0.228 7.81 16.89 10.62
1/2/2022 5:30:00 PM 10.16 50.288 0.22 7.8 14.4 10.61
1/2/2022 5:45:00 PM 10.16 50.288 0.238 7.76 15.8 10.61
1/2/2022 6:00:00 PM 10.16 50.288 0.278 7.81 17.5 10.6
1/2/2022 6:15:00 PM 10.16 50.288 0.262 7.8 16.96 10.6
1/2/2022 6:30:00 PM 10.15 50.27 0.352 7.8 18.21 10.6
1/2/2022 6:45:00 PM 10.14 50.252 0.227 7.79 16.84 10.59
1/2/2022 7:00:00 PM 10.13 50.234 0.261 7.79 17.61 10.58
1/2/2022 7:15:00 PM 10.12 50.216 0.286 7.79 16.4 10.57
1/2/2022 7:30:00 PM 10.11 50.198 0.266 7.78 18.87 10.56
1/2/2022 7:45:00 PM 10.09 50.162 0.294 7.74 18.51 10.55
1/2/2022 8:00:00 PM 10.06 50.108 0.264 7.79 16.72 10.54
1/2/2022 8:15:00 PM 10.05 50.09 0.227 7.78 18.58 10.52
1/2/2022 8:30:00 PM 10.03 50.054 0.236 7.79 19.01 10.52
1/2/2022 8:45:00 PM 10.01 50.018 0.271 7.71 19.5 10.51
1/2/2022 9:00:00 PM 9.99 49.982 0.226 7.78 17.98 10.51
1/2/2022 9:15:00 PM 9.96 49.928 0.259 7.78 15.59 10.51
1/2/2022 9:30:00 PM 9.93 49.874 0.359 7.78 17.85 10.5
1/2/2022 9:45:00 PM 9.89 49.802 0.256 7.79 20.12 10.51
1/2/2022 10:00:00 PM 9.85 49.73 0.271 7.79 20.93 10.5
1/2/2022 10:15:00 PM 9.81 49.658 0.267 7.77 20.13 10.51
1/2/2022 10:30:00 PM 9.77 49.586 0.293 7.78 17.45 10.51
1/2/2022 10:45:00 PM 9.72 49.496 0.241 7.78 18.18 10.51
1/2/2022 11:00:00 PM 9.68 49.424 0.306 7.78 19.75 10.51
1/2/2022 11:15:00 PM 9.64 49.352 0.28 7.78 15.47 10.52
1/2/2022 11:30:00 PM 9.59 49.262 0.298 7.78 17.05 10.53
1/2/2022 11:45:00 PM 9.54 49.172 0.267 7.78 16.39 10.54
1/3/2022 12:00:00 AM 9.5 49.1 0.287 7.77 14.19 10.54
1/3/2022 12:15:00 AM 9.44 48.992 0.229 7.77 15.77 10.56
1/3/2022 12:30:00 AM 9.39 48.902 0.27 7.77 16.09 10.56
1/3/2022 12:45:00 AM 9.34 48.812 0.216 7.77 16.15 10.55
1/3/2022 1:00:00 AM 9.29 48.722 0.291 7.77 14.81 10.57
1/3/2022 1:15:00 AM 9.24 48.632 0.323 7.78 14.84 10.58
1/3/2022 1:30:00 AM 9.19 48.542 0.291 7.78 15.23 10.59
1/3/2022 1:45:00 AM 9.14 48.452 0.282 7.77 15.56 10.6
1/3/2022 2:00:00 AM 9.08 48.344 0.254 7.77 15.34 10.6
1/3/2022 2:15:00 AM 9.03 48.254 0.38 7.78 13.96 10.6
1/3/2022 2:30:00 AM 8.98 48.164 0.297 7.77 14.66 10.61
1/3/2022 2:45:00 AM 8.93 48.074 0.256 7.77 14.84 10.62
1/3/2022 3:00:00 AM 8.88 47.984 0.286 7.76 15.18 10.63
1/3/2022 3:15:00 AM 8.83 47.894 0.388 7.77 14.44 10.63
1/3/2022 3:30:00 AM 8.78 47.804 0.304 7.76 14.01 10.64
1/3/2022 3:45:00 AM 8.73 47.714 0.314 7.79 14.8 10.64
1/3/2022 4:00:00 AM 8.67 47.606 0.307 7.78 14.17 10.65
1/3/2022 4:15:00 AM 8.62 47.516 0.252 7.71 13.48 10.67
1/3/2022 4:30:00 AM 8.57 47.426 0.287 7.75 13.55 10.68
1/3/2022 4:45:00 AM 8.51 47.318 0.304 7.78 13.64 10.7
1/3/2022 5:00:00 AM 8.46 47.228 0.267 7.78 13.61 10.71
1/3/2022 5:15:00 AM 8.41 47.138 0.396 7.78 14.25 10.72
1/3/2022 5:30:00 AM 8.36 47.048 0.304 7.78 13.44 10.73
1/3/2022 5:45:00 AM 8.3 46.94 0.313 7.77 13.59 10.74
1/3/2022 6:00:00 AM 8.25 46.85 0.301 7.77 13.14 10.76
1/3/2022 6:15:00 AM 8.2 46.76 0.278 7.76 12.88 10.76
1/3/2022 6:30:00 AM 8.15 46.67 0.345 7.77 12.66 10.78
1/3/2022 6:45:00 AM 8.1 46.58 0.293 7.76 12.54 10.79
1/3/2022 7:00:00 AM 8.05 46.49 0.314 7.78 12.34 10.81
1/3/2022 7:15:00 AM 8 46.4 0.265 7.75 12.73 10.82
1/3/2022 7:30:00 AM 7.95 46.31 0.301 7.77 11.88 10.83
1/3/2022 7:45:00 AM 7.9 46.22 0.289 7.77 11.59 10.86
1/3/2022 8:00:00 AM 7.86 46.148 0.33 7.77 11.41 10.87
1/3/2022 8:15:00 AM 7.8 46.04 0.326 7.78 11.18 10.89
1/3/2022 8:30:00 AM 7.76 45.968 0.294 7.77 11.48 10.9
1/3/2022 8:45:00 AM 7.71 45.878 0.316 7.78 11.17 10.93
1/3/2022 9:00:00 AM 7.67 45.806 0.311 7.78 10.65 10.95
1/3/2022 9:15:00 AM 7.62 45.716 0.261 7.78 10.94 10.95
1/3/2022 9:30:00 AM 7.57 45.626 0.307 7.78 10.78 10.97
1/3/2022 9:45:00 AM 7.53 45.554 0.252 7.78 9.93 10.99
1/3/2022 10:00:00 AM 7.49 45.482 0.296 7.78 9.86 11.01
1/3/2022 10:15:00 AM 7.45 45.41 0.238 7.78 9.72 11.03
1/3/2022 10:30:00 AM 7.4 45.32 0.266 7.8 9.73 11.05
1/3/2022 10:45:00 AM 7.36 45.248 0.294 7.78 9.41 11.06
1/3/2022 11:00:00 AM 7.32 45.176 0.277 7.76 9.31 11.09
1/3/2022 11:15:00 AM 7.28 45.104 0.243 7.71 8.51 11.1
1/3/2022 11:30:00 AM 7.23 45.014 0.229 7.67 8.89 11.1
1/3/2022 11:45:00 AM 7.19 44.942 0.316 7.77 8.88 11.12
1/3/2022 12:00:00 PM 7.15 44.87 0.293 7.8 8.39 11.14
1/3/2022 12:15:00 PM 7.12 44.816 0.255 7.82 8.18 11.15
1/3/2022 12:30:00 PM 7.08 44.744 0.291 7.8 8.04 11.17
1/3/2022 12:45:00 PM 7.04 44.672 0.405 7.81 8.15 11.16
1/3/2022 1:00:00 PM 7 44.6 0.406 7.81 7.71 11.19
1/3/2022 1:15:00 PM 6.97 44.546 0.407 7.82 7.58 11.23
1/3/2022 1:30:00 PM 6.94 44.492 0.309 7.81 7.54 11.27
1/3/2022 1:45:00 PM 6.9 44.42 0.316 7.74 7.18 11.27
1/3/2022 2:00:00 PM 6.86 44.348 0.315 7.82 7.14 11.28
1/3/2022 2:15:00 PM 6.82 44.276 0.282 7.83 7.33 11.28
1/3/2022 2:30:00 PM 6.79 44.222 0.279 7.78 7.31 11.33
1/3/2022 2:45:00 PM 6.77 44.186 0.314 7.83 7.5 11.37
1/3/2022 3:00:00 PM 6.73 44.114 0.3 7.81 6.83 11.37
1/3/2022 3:15:00 PM 6.67 44.006 0.278 7.83 7.22 11.36
1/3/2022 3:30:00 PM 6.63 43.934 0.296 7.81 6.87 11.35
1/3/2022 3:45:00 PM 6.58 43.844 0.316 7.81 6.55 11.37
1/3/2022 4:00:00 PM 6.56 43.808 0.412 7.81 6.34 11.4
1/3/2022 4:15:00 PM 6.52 43.736 0.414 7.82 8.34 11.4
1/3/2022 4:30:00 PM 6.45 43.61 0.317 7.81 6.69 11.41
1/3/2022 4:45:00 PM 6.4 43.52 0.334 7.81 6.95 11.41
1/3/2022 5:00:00 PM 6.35 43.43 0.235 7.79 6.49 11.42
1/3/2022 5:15:00 PM 6.31 43.358 0.322 7.8 6.08 11.44
1/3/2022 5:30:00 PM 6.26 43.268 0.323 7.82 6.15 11.47
1/3/2022 5:45:00 PM 6.21 43.178 0.359 7.82 6.2 11.49
1/3/2022 6:00:00 PM 6.16 43.088 0.346 7.81 6.81 11.51
1/3/2022 6:15:00 PM 6.11 42.998 0.328 7.82 6.27 11.54
1/3/2022 6:30:00 PM 6.07 42.926 0.321 7.83 6.09 11.56
1/3/2022 6:45:00 PM 6.02 42.836 0.345 7.85 5.87 11.59
1/3/2022 7:00:00 PM 5.97 42.746 0.252 7.82 5.92 11.61
1/3/2022 7:15:00 PM 5.92 42.656 0.336 7.84 5.9 11.63
1/3/2022 7:30:00 PM 5.87 42.566 0.337 7.83 5.92 11.66
1/3/2022 7:45:00 PM 5.83 42.494 0.272 7.84 5.81 11.69
1/3/2022 8:00:00 PM 5.79 42.422 0.289 7.85 5.61 11.72
1/3/2022 8:15:00 PM 5.75 42.35 0.237 7.83 5.73 11.75
1/3/2022 8:30:00 PM 5.7 42.26 0.422 7.85 5.53 11.77
1/3/2022 8:45:00 PM 5.66 42.188 0.272 7.85 5.66 11.8
1/3/2022 9:00:00 PM 5.62 42.116 0.36 7.85 5.93 11.82
1/3/2022 9:15:00 PM 5.57 42.026 0.24 7.85 5.6 11.84
1/3/2022 9:30:00 PM 5.51 41.918 0.424 7.87 5.6 11.86
1/3/2022 9:45:00 PM 5.46 41.828 0.303 7.86 5.53 11.89
1/3/2022 10:00:00 PM 5.42 41.756 0.425 7.87 5.29 11.92
1/3/2022 10:15:00 PM 5.37 41.666 0.324 7.88 5.68 11.95
1/3/2022 10:30:00 PM 5.33 41.594 0.295 7.87 6.14 11.97
1/3/2022 10:45:00 PM 5.28 41.504 0.288 7.88 5.83 12
1/3/2022 11:00:00 PM 5.23 41.414 0.331 7.88 5.23 12.02
1/3/2022 11:15:00 PM 5.18 41.324 0.327 7.88 5.79 12.04
1/3/2022 11:30:00 PM 5.13 41.234 0.306 7.86 5.05 12.06
1/3/2022 11:45:00 PM 5.09 41.162 0.247 7.88 5.1 12.08
1/4/2022 12:00:00 AM 5.04 41.072 0.285 7.88 5.1 12.09
1/4/2022 12:15:00 AM 5 41 0.324 7.88 4.84 12.11
1/4/2022 12:30:00 AM 4.94 40.892 0.294 7.87 269.02 12.13
1/4/2022 12:45:00 AM 4.89 40.802 0.236 7.88 7.26 12.14
1/4/2022 1:00:00 AM 4.84 40.712 0.361 7.85 5.15 12.15
1/4/2022 1:15:00 AM 4.79 40.622 0.345 7.87 4.99 12.16
1/4/2022 1:30:00 AM 4.74 40.532 0.367 7.86 4.71 12.18
1/4/2022 1:45:00 AM 4.69 40.442 0.309 7.87 4.6 12.19
1/4/2022 2:00:00 AM 4.64 40.352 0.279 7.87 4.83 12.2
1/4/2022 2:15:00 AM 4.58 40.244 0.431 7.87 4.51 12.21
1/4/2022 2:30:00 AM 4.53 40.154 0.432 7.87 5 12.22
1/4/2022 2:45:00 AM 4.48 40.064 0.336 7.88 4.83 12.24
1/4/2022 3:00:00 AM 4.43 39.974 0.269 7.88 4.44 12.25
1/4/2022 3:15:00 AM 4.39 39.902 0.363 7.86 5.61 12.25
1/4/2022 3:30:00 AM 4.34 39.812 0.428 7.85 4.95 12.25
1/4/2022 3:45:00 AM 4.29 39.722 0.271 7.86 5.11 12.27
1/4/2022 4:00:00 AM 4.23 39.614 0.252 7.85 4.41 12.29
1/4/2022 4:15:00 AM 4.18 39.524 0.342 7.88 4.49 12.3
1/4/2022 4:30:00 AM 4.14 39.452 0.335 7.86 4.45 12.31
1/4/2022 4:45:00 AM 4.09 39.362 0.32 7.88 4.6 12.32
1/4/2022 5:00:00 AM 4.04 39.272 0.262 7.86 4.41 12.33
1/4/2022 5:15:00 AM 3.99 39.182 0.304 7.85 4.49 12.34
1/4/2022 5:30:00 AM 3.95 39.11 0.24 7.87 4.05 12.35
1/4/2022 5:45:00 AM 3.91 39.038 0.439 7.87 4.31 12.35
1/4/2022 6:00:00 AM 3.85 38.93 0.283 7.88 4.13 12.37
1/4/2022 6:15:00 AM 3.82 38.876 0.365 7.84 4.23 12.38
1/4/2022 6:30:00 AM 3.77 38.786 0.334 7.86 4.31 12.39
1/4/2022 6:45:00 AM 3.73 38.714 0.354 7.86 4.14 12.4
1/4/2022 7:00:00 AM 3.69 38.642 0.293 7.86 4.26 12.4
1/4/2022 7:15:00 AM 3.65 38.57 0.301 7.86 4.22 12.42
1/4/2022 7:30:00 AM 3.6 38.48 0.335 7.86 4.25 12.45
1/4/2022 7:45:00 AM 3.57 38.426 0.264 7.86 4.02 12.47
1/4/2022 8:00:00 AM 3.54 38.372 0.34 7.86 5.27 12.49
1/4/2022 8:15:00 AM 3.5 38.3 0.344 7.89 4.13 12.52
1/4/2022 8:30:00 AM 3.47 38.246 0.348 7.87 4.05 12.55
1/4/2022 8:45:00 AM 3.45 38.21 0.339 7.87 4.13 12.58
1/4/2022 9:00:00 AM 3.42 38.156 0.316 7.87 4.16 12.62
1/4/2022 9:15:00 AM 3.42 38.156 0.266 7.87 3.88 12.64
1/4/2022 9:30:00 AM 3